<?xml version="1.0" encoding="UTF-8" standalone="no" ?>
<gpx xmlns="http://www.topografix.com/GPX/1/1" xmlns:xsi="http://www.w3.org/2001/XMLSchema-instance" xsi:schemaLocation="http://www.topografix.com/GPX/1/1 http://www.topografix.com/GPX/1/1/gpx.xsd" version="1.1" creator="VisuGPX - https://www.visugpx.com">
  <metadata>
    <name>R 075 Gué de la Brunière</name>
  </metadata>
  <trk>
    <name><![CDATA[R 74_Circuit du Gué de la Brunière]]></name>
    <trkseg>
      <trkpt lat="46.5455" lon="-1.6725">
        <ele>26</ele>
        <time>2013-12-11T13:30:15Z</time>
      </trkpt>
      <trkpt lat="46.5455" lon="-1.6725">
        <ele>24</ele>
        <time>2013-12-11T13:30:16Z</time>
      </trkpt>
      <trkpt lat="46.54541" lon="-1.67253">
        <ele>24</ele>
        <time>2013-12-11T13:31:14Z</time>
      </trkpt>
      <trkpt lat="46.54538" lon="-1.67257">
        <ele>24</ele>
        <time>2013-12-11T13:31:22Z</time>
      </trkpt>
      <trkpt lat="46.54538" lon="-1.67258">
        <ele>24</ele>
        <time>2013-12-11T13:31:23Z</time>
      </trkpt>
      <trkpt lat="46.5454" lon="-1.67268">
        <ele>24</ele>
        <time>2013-12-11T13:31:39Z</time>
      </trkpt>
      <trkpt lat="46.54541" lon="-1.67274">
        <ele>24</ele>
        <time>2013-12-11T13:31:44Z</time>
      </trkpt>
      <trkpt lat="46.54542" lon="-1.6728">
        <ele>24</ele>
        <time>2013-12-11T13:31:48Z</time>
      </trkpt>
      <trkpt lat="46.54543" lon="-1.67286">
        <ele>23</ele>
        <time>2013-12-11T13:31:55Z</time>
      </trkpt>
      <trkpt lat="46.54544" lon="-1.67291">
        <ele>23</ele>
        <time>2013-12-11T13:31:59Z</time>
      </trkpt>
      <trkpt lat="46.54544" lon="-1.67297">
        <ele>23</ele>
        <time>2013-12-11T13:32:03Z</time>
      </trkpt>
      <trkpt lat="46.54545" lon="-1.67303">
        <ele>23</ele>
        <time>2013-12-11T13:32:07Z</time>
      </trkpt>
      <trkpt lat="46.54545" lon="-1.67308">
        <ele>23</ele>
        <time>2013-12-11T13:32:12Z</time>
      </trkpt>
      <trkpt lat="46.54546" lon="-1.67313">
        <ele>23</ele>
        <time>2013-12-11T13:32:15Z</time>
      </trkpt>
      <trkpt lat="46.54546" lon="-1.67319">
        <ele>23</ele>
        <time>2013-12-11T13:32:19Z</time>
      </trkpt>
      <trkpt lat="46.54547" lon="-1.67325">
        <ele>22</ele>
        <time>2013-12-11T13:32:23Z</time>
      </trkpt>
      <trkpt lat="46.54546" lon="-1.67331">
        <ele>22</ele>
        <time>2013-12-11T13:32:27Z</time>
      </trkpt>
      <trkpt lat="46.54546" lon="-1.67332">
        <ele>22</ele>
        <time>2013-12-11T13:32:28Z</time>
      </trkpt>
      <trkpt lat="46.54546" lon="-1.67342">
        <ele>20</ele>
        <time>2013-12-11T13:32:34Z</time>
      </trkpt>
      <trkpt lat="46.54545" lon="-1.67348">
        <ele>20</ele>
        <time>2013-12-11T13:32:38Z</time>
      </trkpt>
      <trkpt lat="46.54545" lon="-1.67354">
        <ele>19</ele>
        <time>2013-12-11T13:32:42Z</time>
      </trkpt>
      <trkpt lat="46.54544" lon="-1.67359">
        <ele>19</ele>
        <time>2013-12-11T13:32:45Z</time>
      </trkpt>
      <trkpt lat="46.54544" lon="-1.67364">
        <ele>19</ele>
        <time>2013-12-11T13:32:48Z</time>
      </trkpt>
      <trkpt lat="46.54543" lon="-1.67369">
        <ele>19</ele>
        <time>2013-12-11T13:32:51Z</time>
      </trkpt>
      <trkpt lat="46.54543" lon="-1.67374">
        <ele>19</ele>
        <time>2013-12-11T13:32:54Z</time>
      </trkpt>
      <trkpt lat="46.54543" lon="-1.6738">
        <ele>19</ele>
        <time>2013-12-11T13:32:58Z</time>
      </trkpt>
      <trkpt lat="46.54544" lon="-1.67386">
        <ele>19</ele>
        <time>2013-12-11T13:33:02Z</time>
      </trkpt>
      <trkpt lat="46.54544" lon="-1.67392">
        <ele>19</ele>
        <time>2013-12-11T13:33:06Z</time>
      </trkpt>
      <trkpt lat="46.54545" lon="-1.67398">
        <ele>18</ele>
        <time>2013-12-11T13:33:10Z</time>
      </trkpt>
      <trkpt lat="46.54546" lon="-1.67404">
        <ele>18</ele>
        <time>2013-12-11T13:33:14Z</time>
      </trkpt>
      <trkpt lat="46.54546" lon="-1.67409">
        <ele>18</ele>
        <time>2013-12-11T13:33:17Z</time>
      </trkpt>
      <trkpt lat="46.54546" lon="-1.67415">
        <ele>18</ele>
        <time>2013-12-11T13:33:20Z</time>
      </trkpt>
      <trkpt lat="46.54546" lon="-1.67421">
        <ele>17</ele>
        <time>2013-12-11T13:33:24Z</time>
      </trkpt>
      <trkpt lat="46.54547" lon="-1.67427">
        <ele>17</ele>
        <time>2013-12-11T13:33:28Z</time>
      </trkpt>
      <trkpt lat="46.54547" lon="-1.67429">
        <ele>17</ele>
        <time>2013-12-11T13:33:29Z</time>
      </trkpt>
      <trkpt lat="46.54548" lon="-1.67439">
        <ele>17</ele>
        <time>2013-12-11T13:33:36Z</time>
      </trkpt>
      <trkpt lat="46.54549" lon="-1.67445">
        <ele>17</ele>
        <time>2013-12-11T13:33:40Z</time>
      </trkpt>
      <trkpt lat="46.54549" lon="-1.67451">
        <ele>17</ele>
        <time>2013-12-11T13:33:44Z</time>
      </trkpt>
      <trkpt lat="46.5455" lon="-1.67457">
        <ele>17</ele>
        <time>2013-12-11T13:33:48Z</time>
      </trkpt>
      <trkpt lat="46.5455" lon="-1.67463">
        <ele>17</ele>
        <time>2013-12-11T13:33:52Z</time>
      </trkpt>
      <trkpt lat="46.54551" lon="-1.67468">
        <ele>17</ele>
        <time>2013-12-11T13:33:56Z</time>
      </trkpt>
      <trkpt lat="46.54551" lon="-1.67474">
        <ele>17</ele>
        <time>2013-12-11T13:34:00Z</time>
      </trkpt>
      <trkpt lat="46.54552" lon="-1.6748">
        <ele>17</ele>
        <time>2013-12-11T13:34:04Z</time>
      </trkpt>
      <trkpt lat="46.54553" lon="-1.67485">
        <ele>17</ele>
        <time>2013-12-11T13:34:07Z</time>
      </trkpt>
      <trkpt lat="46.54553" lon="-1.6749">
        <ele>17</ele>
        <time>2013-12-11T13:34:10Z</time>
      </trkpt>
      <trkpt lat="46.54554" lon="-1.67496">
        <ele>17</ele>
        <time>2013-12-11T13:34:14Z</time>
      </trkpt>
      <trkpt lat="46.54555" lon="-1.67502">
        <ele>18</ele>
        <time>2013-12-11T13:34:18Z</time>
      </trkpt>
      <trkpt lat="46.54556" lon="-1.67508">
        <ele>18</ele>
        <time>2013-12-11T13:34:22Z</time>
      </trkpt>
      <trkpt lat="46.54556" lon="-1.67514">
        <ele>18</ele>
        <time>2013-12-11T13:34:26Z</time>
      </trkpt>
      <trkpt lat="46.54558" lon="-1.6752">
        <ele>18</ele>
        <time>2013-12-11T13:34:30Z</time>
      </trkpt>
      <trkpt lat="46.54558" lon="-1.67521">
        <ele>18</ele>
        <time>2013-12-11T13:34:31Z</time>
      </trkpt>
      <trkpt lat="46.54559" lon="-1.6753">
        <ele>18</ele>
        <time>2013-12-11T13:34:37Z</time>
      </trkpt>
      <trkpt lat="46.5456" lon="-1.67535">
        <ele>18</ele>
        <time>2013-12-11T13:34:40Z</time>
      </trkpt>
      <trkpt lat="46.54561" lon="-1.67539">
        <ele>18</ele>
        <time>2013-12-11T13:34:43Z</time>
      </trkpt>
      <trkpt lat="46.54563" lon="-1.67546">
        <ele>18</ele>
        <time>2013-12-11T13:34:47Z</time>
      </trkpt>
      <trkpt lat="46.54563" lon="-1.67552">
        <ele>18</ele>
        <time>2013-12-11T13:34:51Z</time>
      </trkpt>
      <trkpt lat="46.54564" lon="-1.67557">
        <ele>18</ele>
        <time>2013-12-11T13:34:55Z</time>
      </trkpt>
      <trkpt lat="46.54565" lon="-1.67563">
        <ele>18</ele>
        <time>2013-12-11T13:34:59Z</time>
      </trkpt>
      <trkpt lat="46.54567" lon="-1.67568">
        <ele>18</ele>
        <time>2013-12-11T13:35:03Z</time>
      </trkpt>
      <trkpt lat="46.54567" lon="-1.67574">
        <ele>18</ele>
        <time>2013-12-11T13:35:07Z</time>
      </trkpt>
      <trkpt lat="46.54568" lon="-1.6758">
        <ele>19</ele>
        <time>2013-12-11T13:35:11Z</time>
      </trkpt>
      <trkpt lat="46.54568" lon="-1.67586">
        <ele>19</ele>
        <time>2013-12-11T13:35:15Z</time>
      </trkpt>
      <trkpt lat="46.54568" lon="-1.67593">
        <ele>19</ele>
        <time>2013-12-11T13:35:19Z</time>
      </trkpt>
      <trkpt lat="46.54568" lon="-1.67599">
        <ele>20</ele>
        <time>2013-12-11T13:35:23Z</time>
      </trkpt>
      <trkpt lat="46.54568" lon="-1.67605">
        <ele>20</ele>
        <time>2013-12-11T13:35:27Z</time>
      </trkpt>
      <trkpt lat="46.54568" lon="-1.6761">
        <ele>20</ele>
        <time>2013-12-11T13:35:30Z</time>
      </trkpt>
      <trkpt lat="46.54569" lon="-1.67616">
        <ele>20</ele>
        <time>2013-12-11T13:35:33Z</time>
      </trkpt>
      <trkpt lat="46.54568" lon="-1.67617">
        <ele>20</ele>
        <time>2013-12-11T13:35:34Z</time>
      </trkpt>
      <trkpt lat="46.54569" lon="-1.67627">
        <ele>20</ele>
        <time>2013-12-11T13:35:40Z</time>
      </trkpt>
      <trkpt lat="46.54569" lon="-1.67634">
        <ele>20</ele>
        <time>2013-12-11T13:35:44Z</time>
      </trkpt>
      <trkpt lat="46.54569" lon="-1.67639">
        <ele>21</ele>
        <time>2013-12-11T13:35:47Z</time>
      </trkpt>
      <trkpt lat="46.5457" lon="-1.67644">
        <ele>21</ele>
        <time>2013-12-11T13:35:50Z</time>
      </trkpt>
      <trkpt lat="46.5457" lon="-1.67649">
        <ele>21</ele>
        <time>2013-12-11T13:35:53Z</time>
      </trkpt>
      <trkpt lat="46.54571" lon="-1.67654">
        <ele>21</ele>
        <time>2013-12-11T13:35:56Z</time>
      </trkpt>
      <trkpt lat="46.54572" lon="-1.67659">
        <ele>22</ele>
        <time>2013-12-11T13:35:59Z</time>
      </trkpt>
      <trkpt lat="46.54572" lon="-1.67665">
        <ele>22</ele>
        <time>2013-12-11T13:36:03Z</time>
      </trkpt>
      <trkpt lat="46.54574" lon="-1.6767">
        <ele>23</ele>
        <time>2013-12-11T13:36:07Z</time>
      </trkpt>
      <trkpt lat="46.54574" lon="-1.67676">
        <ele>22</ele>
        <time>2013-12-11T13:36:11Z</time>
      </trkpt>
      <trkpt lat="46.54575" lon="-1.67683">
        <ele>22</ele>
        <time>2013-12-11T13:36:15Z</time>
      </trkpt>
      <trkpt lat="46.54576" lon="-1.67688">
        <ele>22</ele>
        <time>2013-12-11T13:36:19Z</time>
      </trkpt>
      <trkpt lat="46.54577" lon="-1.67694">
        <ele>22</ele>
        <time>2013-12-11T13:36:23Z</time>
      </trkpt>
      <trkpt lat="46.54578" lon="-1.677">
        <ele>22</ele>
        <time>2013-12-11T13:36:27Z</time>
      </trkpt>
      <trkpt lat="46.54577" lon="-1.67706">
        <ele>22</ele>
        <time>2013-12-11T13:36:30Z</time>
      </trkpt>
      <trkpt lat="46.54574" lon="-1.6771">
        <ele>22</ele>
        <time>2013-12-11T13:36:33Z</time>
      </trkpt>
      <trkpt lat="46.54571" lon="-1.67713">
        <ele>22</ele>
        <time>2013-12-11T13:36:36Z</time>
      </trkpt>
      <trkpt lat="46.5457" lon="-1.67714">
        <ele>22</ele>
        <time>2013-12-11T13:36:37Z</time>
      </trkpt>
      <trkpt lat="46.54565" lon="-1.67717">
        <ele>22</ele>
        <time>2013-12-11T13:36:42Z</time>
      </trkpt>
      <trkpt lat="46.54562" lon="-1.67721">
        <ele>22</ele>
        <time>2013-12-11T13:36:46Z</time>
      </trkpt>
      <trkpt lat="46.54558" lon="-1.67725">
        <ele>22</ele>
        <time>2013-12-11T13:36:50Z</time>
      </trkpt>
      <trkpt lat="46.54555" lon="-1.67728">
        <ele>22</ele>
        <time>2013-12-11T13:36:54Z</time>
      </trkpt>
      <trkpt lat="46.54552" lon="-1.67731">
        <ele>22</ele>
        <time>2013-12-11T13:36:57Z</time>
      </trkpt>
      <trkpt lat="46.54549" lon="-1.67736">
        <ele>22</ele>
        <time>2013-12-11T13:37:01Z</time>
      </trkpt>
      <trkpt lat="46.54546" lon="-1.6774">
        <ele>22</ele>
        <time>2013-12-11T13:37:05Z</time>
      </trkpt>
      <trkpt lat="46.54543" lon="-1.67744">
        <ele>22</ele>
        <time>2013-12-11T13:37:09Z</time>
      </trkpt>
      <trkpt lat="46.5454" lon="-1.67748">
        <ele>22</ele>
        <time>2013-12-11T13:37:12Z</time>
      </trkpt>
      <trkpt lat="46.54537" lon="-1.67751">
        <ele>23</ele>
        <time>2013-12-11T13:37:15Z</time>
      </trkpt>
      <trkpt lat="46.54534" lon="-1.67754">
        <ele>23</ele>
        <time>2013-12-11T13:37:19Z</time>
      </trkpt>
      <trkpt lat="46.54531" lon="-1.67758">
        <ele>23</ele>
        <time>2013-12-11T13:37:25Z</time>
      </trkpt>
      <trkpt lat="46.54528" lon="-1.67762">
        <ele>23</ele>
        <time>2013-12-11T13:37:30Z</time>
      </trkpt>
      <trkpt lat="46.54525" lon="-1.67766">
        <ele>23</ele>
        <time>2013-12-11T13:37:35Z</time>
      </trkpt>
      <trkpt lat="46.54522" lon="-1.6777">
        <ele>23</ele>
        <time>2013-12-11T13:37:40Z</time>
      </trkpt>
      <trkpt lat="46.54521" lon="-1.67771">
        <ele>23</ele>
        <time>2013-12-11T13:37:41Z</time>
      </trkpt>
      <trkpt lat="46.54517" lon="-1.67779">
        <ele>23</ele>
        <time>2013-12-11T13:37:49Z</time>
      </trkpt>
      <trkpt lat="46.54515" lon="-1.67784">
        <ele>23</ele>
        <time>2013-12-11T13:37:53Z</time>
      </trkpt>
      <trkpt lat="46.54514" lon="-1.6779">
        <ele>23</ele>
        <time>2013-12-11T13:37:57Z</time>
      </trkpt>
      <trkpt lat="46.54515" lon="-1.67795">
        <ele>23</ele>
        <time>2013-12-11T13:38:01Z</time>
      </trkpt>
      <trkpt lat="46.54517" lon="-1.67801">
        <ele>23</ele>
        <time>2013-12-11T13:38:05Z</time>
      </trkpt>
      <trkpt lat="46.54519" lon="-1.67807">
        <ele>23</ele>
        <time>2013-12-11T13:38:10Z</time>
      </trkpt>
      <trkpt lat="46.54521" lon="-1.67811">
        <ele>23</ele>
        <time>2013-12-11T13:38:14Z</time>
      </trkpt>
      <trkpt lat="46.54524" lon="-1.67815">
        <ele>23</ele>
        <time>2013-12-11T13:38:18Z</time>
      </trkpt>
      <trkpt lat="46.54526" lon="-1.6782">
        <ele>23</ele>
        <time>2013-12-11T13:38:22Z</time>
      </trkpt>
      <trkpt lat="46.54528" lon="-1.67826">
        <ele>23</ele>
        <time>2013-12-11T13:38:26Z</time>
      </trkpt>
      <trkpt lat="46.54529" lon="-1.67831">
        <ele>23</ele>
        <time>2013-12-11T13:38:30Z</time>
      </trkpt>
      <trkpt lat="46.5453" lon="-1.67836">
        <ele>24</ele>
        <time>2013-12-11T13:38:34Z</time>
      </trkpt>
      <trkpt lat="46.54531" lon="-1.67842">
        <ele>24</ele>
        <time>2013-12-11T13:38:38Z</time>
      </trkpt>
      <trkpt lat="46.54532" lon="-1.67848">
        <ele>24</ele>
        <time>2013-12-11T13:38:42Z</time>
      </trkpt>
      <trkpt lat="46.54532" lon="-1.67849">
        <ele>24</ele>
        <time>2013-12-11T13:38:43Z</time>
      </trkpt>
      <trkpt lat="46.54532" lon="-1.6786">
        <ele>24</ele>
        <time>2013-12-11T13:38:50Z</time>
      </trkpt>
      <trkpt lat="46.54532" lon="-1.67866">
        <ele>24</ele>
        <time>2013-12-11T13:38:54Z</time>
      </trkpt>
      <trkpt lat="46.54532" lon="-1.67872">
        <ele>24</ele>
        <time>2013-12-11T13:38:58Z</time>
      </trkpt>
      <trkpt lat="46.54531" lon="-1.67877">
        <ele>24</ele>
        <time>2013-12-11T13:39:01Z</time>
      </trkpt>
      <trkpt lat="46.54531" lon="-1.67882">
        <ele>24</ele>
        <time>2013-12-11T13:39:04Z</time>
      </trkpt>
      <trkpt lat="46.5453" lon="-1.67887">
        <ele>24</ele>
        <time>2013-12-11T13:39:07Z</time>
      </trkpt>
      <trkpt lat="46.5453" lon="-1.67893">
        <ele>24</ele>
        <time>2013-12-11T13:39:11Z</time>
      </trkpt>
      <trkpt lat="46.54529" lon="-1.67899">
        <ele>24</ele>
        <time>2013-12-11T13:39:15Z</time>
      </trkpt>
      <trkpt lat="46.54528" lon="-1.67905">
        <ele>24</ele>
        <time>2013-12-11T13:39:19Z</time>
      </trkpt>
      <trkpt lat="46.54527" lon="-1.67909">
        <ele>24</ele>
        <time>2013-12-11T13:39:22Z</time>
      </trkpt>
      <trkpt lat="46.54525" lon="-1.67914">
        <ele>23</ele>
        <time>2013-12-11T13:39:25Z</time>
      </trkpt>
      <trkpt lat="46.54523" lon="-1.67918">
        <ele>23</ele>
        <time>2013-12-11T13:39:28Z</time>
      </trkpt>
      <trkpt lat="46.54521" lon="-1.67922">
        <ele>23</ele>
        <time>2013-12-11T13:39:31Z</time>
      </trkpt>
      <trkpt lat="46.54518" lon="-1.67925">
        <ele>23</ele>
        <time>2013-12-11T13:39:34Z</time>
      </trkpt>
      <trkpt lat="46.54514" lon="-1.67927">
        <ele>23</ele>
        <time>2013-12-11T13:39:37Z</time>
      </trkpt>
      <trkpt lat="46.54511" lon="-1.67929">
        <ele>23</ele>
        <time>2013-12-11T13:39:40Z</time>
      </trkpt>
      <trkpt lat="46.54508" lon="-1.67932">
        <ele>23</ele>
        <time>2013-12-11T13:39:43Z</time>
      </trkpt>
      <trkpt lat="46.54505" lon="-1.67934">
        <ele>23</ele>
        <time>2013-12-11T13:39:46Z</time>
      </trkpt>
      <trkpt lat="46.54504" lon="-1.67935">
        <ele>23</ele>
        <time>2013-12-11T13:39:47Z</time>
      </trkpt>
      <trkpt lat="46.54498" lon="-1.67939">
        <ele>23</ele>
        <time>2013-12-11T13:39:52Z</time>
      </trkpt>
      <trkpt lat="46.54494" lon="-1.67941">
        <ele>23</ele>
        <time>2013-12-11T13:39:55Z</time>
      </trkpt>
      <trkpt lat="46.54491" lon="-1.67943">
        <ele>23</ele>
        <time>2013-12-11T13:39:58Z</time>
      </trkpt>
      <trkpt lat="46.54488" lon="-1.67945">
        <ele>23</ele>
        <time>2013-12-11T13:40:01Z</time>
      </trkpt>
      <trkpt lat="46.54484" lon="-1.67947">
        <ele>23</ele>
        <time>2013-12-11T13:40:04Z</time>
      </trkpt>
      <trkpt lat="46.54481" lon="-1.67949">
        <ele>23</ele>
        <time>2013-12-11T13:40:07Z</time>
      </trkpt>
      <trkpt lat="46.54478" lon="-1.67951">
        <ele>23</ele>
        <time>2013-12-11T13:40:10Z</time>
      </trkpt>
      <trkpt lat="46.54474" lon="-1.67953">
        <ele>23</ele>
        <time>2013-12-11T13:40:13Z</time>
      </trkpt>
      <trkpt lat="46.5447" lon="-1.67956">
        <ele>23</ele>
        <time>2013-12-11T13:40:18Z</time>
      </trkpt>
      <trkpt lat="46.54467" lon="-1.67959">
        <ele>23</ele>
        <time>2013-12-11T13:40:22Z</time>
      </trkpt>
      <trkpt lat="46.54464" lon="-1.67961">
        <ele>23</ele>
        <time>2013-12-11T13:40:25Z</time>
      </trkpt>
      <trkpt lat="46.54461" lon="-1.67964">
        <ele>23</ele>
        <time>2013-12-11T13:40:28Z</time>
      </trkpt>
      <trkpt lat="46.54457" lon="-1.67968">
        <ele>23</ele>
        <time>2013-12-11T13:40:32Z</time>
      </trkpt>
      <trkpt lat="46.54454" lon="-1.67971">
        <ele>23</ele>
        <time>2013-12-11T13:40:35Z</time>
      </trkpt>
      <trkpt lat="46.54451" lon="-1.67975">
        <ele>23</ele>
        <time>2013-12-11T13:40:38Z</time>
      </trkpt>
      <trkpt lat="46.54448" lon="-1.67978">
        <ele>23</ele>
        <time>2013-12-11T13:40:41Z</time>
      </trkpt>
      <trkpt lat="46.54445" lon="-1.67982">
        <ele>23</ele>
        <time>2013-12-11T13:40:44Z</time>
      </trkpt>
      <trkpt lat="46.54443" lon="-1.67985">
        <ele>23</ele>
        <time>2013-12-11T13:40:47Z</time>
      </trkpt>
      <trkpt lat="46.54442" lon="-1.67986">
        <ele>23</ele>
        <time>2013-12-11T13:40:48Z</time>
      </trkpt>
      <trkpt lat="46.54437" lon="-1.67994">
        <ele>23</ele>
        <time>2013-12-11T13:40:55Z</time>
      </trkpt>
      <trkpt lat="46.54434" lon="-1.67997">
        <ele>23</ele>
        <time>2013-12-11T13:40:58Z</time>
      </trkpt>
      <trkpt lat="46.5443" lon="-1.68">
        <ele>23</ele>
        <time>2013-12-11T13:41:02Z</time>
      </trkpt>
      <trkpt lat="46.54427" lon="-1.68003">
        <ele>23</ele>
        <time>2013-12-11T13:41:07Z</time>
      </trkpt>
      <trkpt lat="46.54424" lon="-1.68009">
        <ele>23</ele>
        <time>2013-12-11T13:41:16Z</time>
      </trkpt>
      <trkpt lat="46.54421" lon="-1.6801">
        <ele>23</ele>
        <time>2013-12-11T13:41:20Z</time>
      </trkpt>
      <trkpt lat="46.54417" lon="-1.68012">
        <ele>23</ele>
        <time>2013-12-11T13:41:24Z</time>
      </trkpt>
      <trkpt lat="46.54413" lon="-1.68013">
        <ele>23</ele>
        <time>2013-12-11T13:41:28Z</time>
      </trkpt>
      <trkpt lat="46.54409" lon="-1.68012">
        <ele>23</ele>
        <time>2013-12-11T13:41:33Z</time>
      </trkpt>
      <trkpt lat="46.54405" lon="-1.68013">
        <ele>23</ele>
        <time>2013-12-11T13:41:44Z</time>
      </trkpt>
      <trkpt lat="46.54401" lon="-1.68015">
        <ele>24</ele>
        <time>2013-12-11T13:41:50Z</time>
      </trkpt>
      <trkpt lat="46.54401" lon="-1.68016">
        <ele>24</ele>
        <time>2013-12-11T13:41:51Z</time>
      </trkpt>
      <trkpt lat="46.54395" lon="-1.68023">
        <ele>24</ele>
        <time>2013-12-11T13:42:01Z</time>
      </trkpt>
      <trkpt lat="46.54392" lon="-1.68026">
        <ele>24</ele>
        <time>2013-12-11T13:42:06Z</time>
      </trkpt>
      <trkpt lat="46.54388" lon="-1.68029">
        <ele>24</ele>
        <time>2013-12-11T13:42:11Z</time>
      </trkpt>
      <trkpt lat="46.54385" lon="-1.68031">
        <ele>24</ele>
        <time>2013-12-11T13:42:15Z</time>
      </trkpt>
      <trkpt lat="46.54381" lon="-1.68032">
        <ele>24</ele>
        <time>2013-12-11T13:42:18Z</time>
      </trkpt>
      <trkpt lat="46.54378" lon="-1.68033">
        <ele>24</ele>
        <time>2013-12-11T13:42:21Z</time>
      </trkpt>
      <trkpt lat="46.54374" lon="-1.68034">
        <ele>24</ele>
        <time>2013-12-11T13:42:25Z</time>
      </trkpt>
      <trkpt lat="46.5437" lon="-1.68035">
        <ele>24</ele>
        <time>2013-12-11T13:42:29Z</time>
      </trkpt>
      <trkpt lat="46.54367" lon="-1.6804">
        <ele>24</ele>
        <time>2013-12-11T13:42:34Z</time>
      </trkpt>
      <trkpt lat="46.54367" lon="-1.68046">
        <ele>24</ele>
        <time>2013-12-11T13:42:38Z</time>
      </trkpt>
      <trkpt lat="46.54368" lon="-1.68051">
        <ele>24</ele>
        <time>2013-12-11T13:42:42Z</time>
      </trkpt>
      <trkpt lat="46.54368" lon="-1.68057">
        <ele>24</ele>
        <time>2013-12-11T13:42:46Z</time>
      </trkpt>
      <trkpt lat="46.54369" lon="-1.68063">
        <ele>24</ele>
        <time>2013-12-11T13:42:50Z</time>
      </trkpt>
      <trkpt lat="46.54369" lon="-1.68069">
        <ele>24</ele>
        <time>2013-12-11T13:42:54Z</time>
      </trkpt>
      <trkpt lat="46.54369" lon="-1.6807">
        <ele>24</ele>
        <time>2013-12-11T13:42:55Z</time>
      </trkpt>
      <trkpt lat="46.5437" lon="-1.6808">
        <ele>24</ele>
        <time>2013-12-11T13:43:02Z</time>
      </trkpt>
      <trkpt lat="46.54371" lon="-1.68087">
        <ele>24</ele>
        <time>2013-12-11T13:43:07Z</time>
      </trkpt>
      <trkpt lat="46.54371" lon="-1.68092">
        <ele>24</ele>
        <time>2013-12-11T13:43:11Z</time>
      </trkpt>
      <trkpt lat="46.54372" lon="-1.68097">
        <ele>24</ele>
        <time>2013-12-11T13:43:15Z</time>
      </trkpt>
      <trkpt lat="46.54373" lon="-1.68103">
        <ele>24</ele>
        <time>2013-12-11T13:43:18Z</time>
      </trkpt>
      <trkpt lat="46.54373" lon="-1.68109">
        <ele>24</ele>
        <time>2013-12-11T13:43:21Z</time>
      </trkpt>
      <trkpt lat="46.54373" lon="-1.68115">
        <ele>24</ele>
        <time>2013-12-11T13:43:25Z</time>
      </trkpt>
      <trkpt lat="46.54374" lon="-1.68121">
        <ele>24</ele>
        <time>2013-12-11T13:43:29Z</time>
      </trkpt>
      <trkpt lat="46.54373" lon="-1.68127">
        <ele>24</ele>
        <time>2013-12-11T13:43:33Z</time>
      </trkpt>
      <trkpt lat="46.54374" lon="-1.68132">
        <ele>23</ele>
        <time>2013-12-11T13:43:37Z</time>
      </trkpt>
      <trkpt lat="46.54374" lon="-1.68139">
        <ele>23</ele>
        <time>2013-12-11T13:43:41Z</time>
      </trkpt>
      <trkpt lat="46.54375" lon="-1.68145">
        <ele>23</ele>
        <time>2013-12-11T13:43:45Z</time>
      </trkpt>
      <trkpt lat="46.54375" lon="-1.68151">
        <ele>23</ele>
        <time>2013-12-11T13:43:49Z</time>
      </trkpt>
      <trkpt lat="46.54376" lon="-1.68156">
        <ele>23</ele>
        <time>2013-12-11T13:43:53Z</time>
      </trkpt>
      <trkpt lat="46.54377" lon="-1.68162">
        <ele>23</ele>
        <time>2013-12-11T13:43:57Z</time>
      </trkpt>
      <trkpt lat="46.54377" lon="-1.68164">
        <ele>23</ele>
        <time>2013-12-11T13:43:58Z</time>
      </trkpt>
      <trkpt lat="46.54378" lon="-1.68174">
        <ele>23</ele>
        <time>2013-12-11T13:44:05Z</time>
      </trkpt>
      <trkpt lat="46.54379" lon="-1.6818">
        <ele>23</ele>
        <time>2013-12-11T13:44:09Z</time>
      </trkpt>
      <trkpt lat="46.5438" lon="-1.68187">
        <ele>23</ele>
        <time>2013-12-11T13:44:13Z</time>
      </trkpt>
      <trkpt lat="46.54381" lon="-1.68193">
        <ele>23</ele>
        <time>2013-12-11T13:44:17Z</time>
      </trkpt>
      <trkpt lat="46.54382" lon="-1.68199">
        <ele>23</ele>
        <time>2013-12-11T13:44:21Z</time>
      </trkpt>
      <trkpt lat="46.54382" lon="-1.68204">
        <ele>22</ele>
        <time>2013-12-11T13:44:24Z</time>
      </trkpt>
      <trkpt lat="46.54383" lon="-1.6821">
        <ele>22</ele>
        <time>2013-12-11T13:44:28Z</time>
      </trkpt>
      <trkpt lat="46.54383" lon="-1.68215">
        <ele>22</ele>
        <time>2013-12-11T13:44:31Z</time>
      </trkpt>
      <trkpt lat="46.54384" lon="-1.6822">
        <ele>22</ele>
        <time>2013-12-11T13:44:34Z</time>
      </trkpt>
      <trkpt lat="46.54385" lon="-1.68225">
        <ele>22</ele>
        <time>2013-12-11T13:44:37Z</time>
      </trkpt>
      <trkpt lat="46.54387" lon="-1.6823">
        <ele>22</ele>
        <time>2013-12-11T13:44:40Z</time>
      </trkpt>
      <trkpt lat="46.5439" lon="-1.68233">
        <ele>22</ele>
        <time>2013-12-11T13:44:44Z</time>
      </trkpt>
      <trkpt lat="46.54393" lon="-1.68236">
        <ele>22</ele>
        <time>2013-12-11T13:44:49Z</time>
      </trkpt>
      <trkpt lat="46.54397" lon="-1.68239">
        <ele>22</ele>
        <time>2013-12-11T13:44:54Z</time>
      </trkpt>
      <trkpt lat="46.544" lon="-1.68241">
        <ele>22</ele>
        <time>2013-12-11T13:44:58Z</time>
      </trkpt>
      <trkpt lat="46.54401" lon="-1.68241">
        <ele>22</ele>
        <time>2013-12-11T13:44:59Z</time>
      </trkpt>
      <trkpt lat="46.54408" lon="-1.68243">
        <ele>22</ele>
        <time>2013-12-11T13:45:06Z</time>
      </trkpt>
      <trkpt lat="46.54412" lon="-1.68245">
        <ele>22</ele>
        <time>2013-12-11T13:45:10Z</time>
      </trkpt>
      <trkpt lat="46.54416" lon="-1.68246">
        <ele>22</ele>
        <time>2013-12-11T13:45:14Z</time>
      </trkpt>
      <trkpt lat="46.54419" lon="-1.68247">
        <ele>22</ele>
        <time>2013-12-11T13:45:18Z</time>
      </trkpt>
      <trkpt lat="46.54423" lon="-1.68247">
        <ele>22</ele>
        <time>2013-12-11T13:45:21Z</time>
      </trkpt>
      <trkpt lat="46.54427" lon="-1.68248">
        <ele>21</ele>
        <time>2013-12-11T13:45:24Z</time>
      </trkpt>
      <trkpt lat="46.54431" lon="-1.68248">
        <ele>21</ele>
        <time>2013-12-11T13:45:28Z</time>
      </trkpt>
      <trkpt lat="46.54435" lon="-1.68249">
        <ele>21</ele>
        <time>2013-12-11T13:45:33Z</time>
      </trkpt>
      <trkpt lat="46.54439" lon="-1.68249">
        <ele>21</ele>
        <time>2013-12-11T13:45:36Z</time>
      </trkpt>
      <trkpt lat="46.54442" lon="-1.68249">
        <ele>21</ele>
        <time>2013-12-11T13:45:39Z</time>
      </trkpt>
      <trkpt lat="46.54446" lon="-1.68249">
        <ele>21</ele>
        <time>2013-12-11T13:45:42Z</time>
      </trkpt>
      <trkpt lat="46.5445" lon="-1.68249">
        <ele>21</ele>
        <time>2013-12-11T13:45:45Z</time>
      </trkpt>
      <trkpt lat="46.54453" lon="-1.68249">
        <ele>20</ele>
        <time>2013-12-11T13:45:48Z</time>
      </trkpt>
      <trkpt lat="46.54457" lon="-1.6825">
        <ele>20</ele>
        <time>2013-12-11T13:45:51Z</time>
      </trkpt>
      <trkpt lat="46.54461" lon="-1.6825">
        <ele>20</ele>
        <time>2013-12-11T13:45:54Z</time>
      </trkpt>
      <trkpt lat="46.54464" lon="-1.6825">
        <ele>20</ele>
        <time>2013-12-11T13:45:57Z</time>
      </trkpt>
      <trkpt lat="46.54468" lon="-1.6825">
        <ele>20</ele>
        <time>2013-12-11T13:46:00Z</time>
      </trkpt>
      <trkpt lat="46.54469" lon="-1.6825">
        <ele>20</ele>
        <time>2013-12-11T13:46:01Z</time>
      </trkpt>
      <trkpt lat="46.54476" lon="-1.6825">
        <ele>19</ele>
        <time>2013-12-11T13:46:07Z</time>
      </trkpt>
      <trkpt lat="46.5448" lon="-1.6825">
        <ele>19</ele>
        <time>2013-12-11T13:46:11Z</time>
      </trkpt>
      <trkpt lat="46.54484" lon="-1.6825">
        <ele>19</ele>
        <time>2013-12-11T13:46:14Z</time>
      </trkpt>
      <trkpt lat="46.54487" lon="-1.6825">
        <ele>19</ele>
        <time>2013-12-11T13:46:17Z</time>
      </trkpt>
      <trkpt lat="46.54491" lon="-1.68251">
        <ele>18</ele>
        <time>2013-12-11T13:46:20Z</time>
      </trkpt>
      <trkpt lat="46.54495" lon="-1.68252">
        <ele>18</ele>
        <time>2013-12-11T13:46:23Z</time>
      </trkpt>
      <trkpt lat="46.54499" lon="-1.68252">
        <ele>18</ele>
        <time>2013-12-11T13:46:27Z</time>
      </trkpt>
      <trkpt lat="46.54502" lon="-1.68252">
        <ele>18</ele>
        <time>2013-12-11T13:46:30Z</time>
      </trkpt>
      <trkpt lat="46.54506" lon="-1.68253">
        <ele>18</ele>
        <time>2013-12-11T13:46:33Z</time>
      </trkpt>
      <trkpt lat="46.54509" lon="-1.68253">
        <ele>17</ele>
        <time>2013-12-11T13:46:36Z</time>
      </trkpt>
      <trkpt lat="46.54513" lon="-1.68253">
        <ele>17</ele>
        <time>2013-12-11T13:46:39Z</time>
      </trkpt>
      <trkpt lat="46.54516" lon="-1.68254">
        <ele>17</ele>
        <time>2013-12-11T13:46:42Z</time>
      </trkpt>
      <trkpt lat="46.5452" lon="-1.68253">
        <ele>17</ele>
        <time>2013-12-11T13:46:45Z</time>
      </trkpt>
      <trkpt lat="46.54524" lon="-1.68253">
        <ele>17</ele>
        <time>2013-12-11T13:46:48Z</time>
      </trkpt>
      <trkpt lat="46.54528" lon="-1.68253">
        <ele>17</ele>
        <time>2013-12-11T13:46:51Z</time>
      </trkpt>
      <trkpt lat="46.54532" lon="-1.68253">
        <ele>17</ele>
        <time>2013-12-11T13:46:54Z</time>
      </trkpt>
      <trkpt lat="46.54536" lon="-1.68251">
        <ele>17</ele>
        <time>2013-12-11T13:46:57Z</time>
      </trkpt>
      <trkpt lat="46.54539" lon="-1.68247">
        <ele>18</ele>
        <time>2013-12-11T13:47:00Z</time>
      </trkpt>
      <trkpt lat="46.5454" lon="-1.68243">
        <ele>18</ele>
        <time>2013-12-11T13:47:03Z</time>
      </trkpt>
      <trkpt lat="46.54541" lon="-1.68241">
        <ele>18</ele>
        <time>2013-12-11T13:47:04Z</time>
      </trkpt>
      <trkpt lat="46.54544" lon="-1.68231">
        <ele>18</ele>
        <time>2013-12-11T13:47:12Z</time>
      </trkpt>
      <trkpt lat="46.54545" lon="-1.68225">
        <ele>18</ele>
        <time>2013-12-11T13:47:17Z</time>
      </trkpt>
      <trkpt lat="46.54546" lon="-1.6822">
        <ele>18</ele>
        <time>2013-12-11T13:47:21Z</time>
      </trkpt>
      <trkpt lat="46.54547" lon="-1.68214">
        <ele>18</ele>
        <time>2013-12-11T13:47:25Z</time>
      </trkpt>
      <trkpt lat="46.54547" lon="-1.68207">
        <ele>18</ele>
        <time>2013-12-11T13:47:29Z</time>
      </trkpt>
      <trkpt lat="46.54547" lon="-1.68202">
        <ele>18</ele>
        <time>2013-12-11T13:47:32Z</time>
      </trkpt>
      <trkpt lat="46.54548" lon="-1.68196">
        <ele>18</ele>
        <time>2013-12-11T13:47:36Z</time>
      </trkpt>
      <trkpt lat="46.54548" lon="-1.6819">
        <ele>18</ele>
        <time>2013-12-11T13:47:40Z</time>
      </trkpt>
      <trkpt lat="46.54549" lon="-1.68184">
        <ele>19</ele>
        <time>2013-12-11T13:47:44Z</time>
      </trkpt>
      <trkpt lat="46.5455" lon="-1.68178">
        <ele>19</ele>
        <time>2013-12-11T13:47:48Z</time>
      </trkpt>
      <trkpt lat="46.5455" lon="-1.68173">
        <ele>19</ele>
        <time>2013-12-11T13:47:51Z</time>
      </trkpt>
      <trkpt lat="46.54551" lon="-1.68168">
        <ele>19</ele>
        <time>2013-12-11T13:47:54Z</time>
      </trkpt>
      <trkpt lat="46.54551" lon="-1.68163">
        <ele>20</ele>
        <time>2013-12-11T13:47:57Z</time>
      </trkpt>
      <trkpt lat="46.54552" lon="-1.68158">
        <ele>20</ele>
        <time>2013-12-11T13:48:00Z</time>
      </trkpt>
      <trkpt lat="46.54552" lon="-1.68153">
        <ele>20</ele>
        <time>2013-12-11T13:48:03Z</time>
      </trkpt>
      <trkpt lat="46.54552" lon="-1.68147">
        <ele>20</ele>
        <time>2013-12-11T13:48:06Z</time>
      </trkpt>
      <trkpt lat="46.54552" lon="-1.68146">
        <ele>20</ele>
        <time>2013-12-11T13:48:07Z</time>
      </trkpt>
      <trkpt lat="46.54553" lon="-1.68136">
        <ele>20</ele>
        <time>2013-12-11T13:48:13Z</time>
      </trkpt>
      <trkpt lat="46.54554" lon="-1.6813">
        <ele>20</ele>
        <time>2013-12-11T13:48:17Z</time>
      </trkpt>
      <trkpt lat="46.54554" lon="-1.68124">
        <ele>20</ele>
        <time>2013-12-11T13:48:21Z</time>
      </trkpt>
      <trkpt lat="46.54554" lon="-1.68117">
        <ele>20</ele>
        <time>2013-12-11T13:48:25Z</time>
      </trkpt>
      <trkpt lat="46.54555" lon="-1.68111">
        <ele>20</ele>
        <time>2013-12-11T13:48:29Z</time>
      </trkpt>
      <trkpt lat="46.54555" lon="-1.68105">
        <ele>20</ele>
        <time>2013-12-11T13:48:32Z</time>
      </trkpt>
      <trkpt lat="46.54556" lon="-1.681">
        <ele>20</ele>
        <time>2013-12-11T13:48:35Z</time>
      </trkpt>
      <trkpt lat="46.54556" lon="-1.68095">
        <ele>21</ele>
        <time>2013-12-11T13:48:38Z</time>
      </trkpt>
      <trkpt lat="46.54556" lon="-1.6809">
        <ele>21</ele>
        <time>2013-12-11T13:48:41Z</time>
      </trkpt>
      <trkpt lat="46.54557" lon="-1.68085">
        <ele>21</ele>
        <time>2013-12-11T13:48:44Z</time>
      </trkpt>
      <trkpt lat="46.54558" lon="-1.68079">
        <ele>22</ele>
        <time>2013-12-11T13:48:47Z</time>
      </trkpt>
      <trkpt lat="46.5456" lon="-1.68074">
        <ele>22</ele>
        <time>2013-12-11T13:48:51Z</time>
      </trkpt>
      <trkpt lat="46.54561" lon="-1.68068">
        <ele>22</ele>
        <time>2013-12-11T13:48:55Z</time>
      </trkpt>
      <trkpt lat="46.54562" lon="-1.68062">
        <ele>22</ele>
        <time>2013-12-11T13:48:59Z</time>
      </trkpt>
      <trkpt lat="46.54563" lon="-1.68056">
        <ele>22</ele>
        <time>2013-12-11T13:49:03Z</time>
      </trkpt>
      <trkpt lat="46.54566" lon="-1.68052">
        <ele>22</ele>
        <time>2013-12-11T13:49:08Z</time>
      </trkpt>
      <trkpt lat="46.54566" lon="-1.68052">
        <ele>22</ele>
        <time>2013-12-11T13:49:09Z</time>
      </trkpt>
      <trkpt lat="46.54573" lon="-1.68052">
        <ele>22</ele>
        <time>2013-12-11T13:49:17Z</time>
      </trkpt>
      <trkpt lat="46.54577" lon="-1.68053">
        <ele>22</ele>
        <time>2013-12-11T13:49:21Z</time>
      </trkpt>
      <trkpt lat="46.5458" lon="-1.68055">
        <ele>22</ele>
        <time>2013-12-11T13:49:25Z</time>
      </trkpt>
      <trkpt lat="46.54583" lon="-1.68058">
        <ele>22</ele>
        <time>2013-12-11T13:49:29Z</time>
      </trkpt>
      <trkpt lat="46.54587" lon="-1.68061">
        <ele>22</ele>
        <time>2013-12-11T13:49:33Z</time>
      </trkpt>
      <trkpt lat="46.5459" lon="-1.68065">
        <ele>22</ele>
        <time>2013-12-11T13:49:37Z</time>
      </trkpt>
      <trkpt lat="46.54594" lon="-1.68067">
        <ele>22</ele>
        <time>2013-12-11T13:49:41Z</time>
      </trkpt>
      <trkpt lat="46.54597" lon="-1.6807">
        <ele>22</ele>
        <time>2013-12-11T13:49:44Z</time>
      </trkpt>
      <trkpt lat="46.546" lon="-1.68073">
        <ele>22</ele>
        <time>2013-12-11T13:49:47Z</time>
      </trkpt>
      <trkpt lat="46.54603" lon="-1.68076">
        <ele>22</ele>
        <time>2013-12-11T13:49:50Z</time>
      </trkpt>
      <trkpt lat="46.54606" lon="-1.68079">
        <ele>22</ele>
        <time>2013-12-11T13:49:54Z</time>
      </trkpt>
      <trkpt lat="46.5461" lon="-1.68083">
        <ele>22</ele>
        <time>2013-12-11T13:49:58Z</time>
      </trkpt>
      <trkpt lat="46.54613" lon="-1.68087">
        <ele>21</ele>
        <time>2013-12-11T13:50:02Z</time>
      </trkpt>
      <trkpt lat="46.54617" lon="-1.68091">
        <ele>21</ele>
        <time>2013-12-11T13:50:06Z</time>
      </trkpt>
      <trkpt lat="46.54619" lon="-1.68094">
        <ele>21</ele>
        <time>2013-12-11T13:50:09Z</time>
      </trkpt>
      <trkpt lat="46.5462" lon="-1.68095">
        <ele>21</ele>
        <time>2013-12-11T13:50:10Z</time>
      </trkpt>
      <trkpt lat="46.54625" lon="-1.68101">
        <ele>21</ele>
        <time>2013-12-11T13:50:16Z</time>
      </trkpt>
      <trkpt lat="46.54628" lon="-1.68106">
        <ele>21</ele>
        <time>2013-12-11T13:50:20Z</time>
      </trkpt>
      <trkpt lat="46.54631" lon="-1.68109">
        <ele>21</ele>
        <time>2013-12-11T13:50:23Z</time>
      </trkpt>
      <trkpt lat="46.54634" lon="-1.68114">
        <ele>21</ele>
        <time>2013-12-11T13:50:27Z</time>
      </trkpt>
      <trkpt lat="46.54636" lon="-1.68117">
        <ele>21</ele>
        <time>2013-12-11T13:50:30Z</time>
      </trkpt>
      <trkpt lat="46.5464" lon="-1.68122">
        <ele>21</ele>
        <time>2013-12-11T13:50:34Z</time>
      </trkpt>
      <trkpt lat="46.54643" lon="-1.68126">
        <ele>21</ele>
        <time>2013-12-11T13:50:38Z</time>
      </trkpt>
      <trkpt lat="46.54646" lon="-1.6813">
        <ele>21</ele>
        <time>2013-12-11T13:50:42Z</time>
      </trkpt>
      <trkpt lat="46.54649" lon="-1.68134">
        <ele>20</ele>
        <time>2013-12-11T13:50:46Z</time>
      </trkpt>
      <trkpt lat="46.54652" lon="-1.68138">
        <ele>20</ele>
        <time>2013-12-11T13:50:50Z</time>
      </trkpt>
      <trkpt lat="46.54655" lon="-1.68142">
        <ele>20</ele>
        <time>2013-12-11T13:50:54Z</time>
      </trkpt>
      <trkpt lat="46.54658" lon="-1.68146">
        <ele>20</ele>
        <time>2013-12-11T13:50:58Z</time>
      </trkpt>
      <trkpt lat="46.54661" lon="-1.68151">
        <ele>20</ele>
        <time>2013-12-11T13:51:02Z</time>
      </trkpt>
      <trkpt lat="46.54664" lon="-1.68154">
        <ele>20</ele>
        <time>2013-12-11T13:51:05Z</time>
      </trkpt>
      <trkpt lat="46.54666" lon="-1.68157">
        <ele>20</ele>
        <time>2013-12-11T13:51:08Z</time>
      </trkpt>
      <trkpt lat="46.54669" lon="-1.6816">
        <ele>20</ele>
        <time>2013-12-11T13:51:11Z</time>
      </trkpt>
      <trkpt lat="46.5467" lon="-1.68161">
        <ele>20</ele>
        <time>2013-12-11T13:51:12Z</time>
      </trkpt>
      <trkpt lat="46.54675" lon="-1.68168">
        <ele>20</ele>
        <time>2013-12-11T13:51:18Z</time>
      </trkpt>
      <trkpt lat="46.54679" lon="-1.68172">
        <ele>19</ele>
        <time>2013-12-11T13:51:22Z</time>
      </trkpt>
      <trkpt lat="46.54681" lon="-1.68175">
        <ele>19</ele>
        <time>2013-12-11T13:51:25Z</time>
      </trkpt>
      <trkpt lat="46.54684" lon="-1.68178">
        <ele>19</ele>
        <time>2013-12-11T13:51:28Z</time>
      </trkpt>
      <trkpt lat="46.54687" lon="-1.68182">
        <ele>19</ele>
        <time>2013-12-11T13:51:32Z</time>
      </trkpt>
      <trkpt lat="46.5469" lon="-1.68187">
        <ele>19</ele>
        <time>2013-12-11T13:51:36Z</time>
      </trkpt>
      <trkpt lat="46.54693" lon="-1.68191">
        <ele>19</ele>
        <time>2013-12-11T13:51:40Z</time>
      </trkpt>
      <trkpt lat="46.54696" lon="-1.68195">
        <ele>19</ele>
        <time>2013-12-11T13:51:44Z</time>
      </trkpt>
      <trkpt lat="46.54699" lon="-1.682">
        <ele>19</ele>
        <time>2013-12-11T13:51:48Z</time>
      </trkpt>
      <trkpt lat="46.54701" lon="-1.68204">
        <ele>19</ele>
        <time>2013-12-11T13:51:52Z</time>
      </trkpt>
      <trkpt lat="46.54704" lon="-1.68208">
        <ele>19</ele>
        <time>2013-12-11T13:51:56Z</time>
      </trkpt>
      <trkpt lat="46.54708" lon="-1.68212">
        <ele>19</ele>
        <time>2013-12-11T13:52:00Z</time>
      </trkpt>
      <trkpt lat="46.54711" lon="-1.68216">
        <ele>19</ele>
        <time>2013-12-11T13:52:04Z</time>
      </trkpt>
      <trkpt lat="46.54714" lon="-1.68219">
        <ele>19</ele>
        <time>2013-12-11T13:52:07Z</time>
      </trkpt>
      <trkpt lat="46.54716" lon="-1.68222">
        <ele>19</ele>
        <time>2013-12-11T13:52:10Z</time>
      </trkpt>
      <trkpt lat="46.54719" lon="-1.68226">
        <ele>19</ele>
        <time>2013-12-11T13:52:14Z</time>
      </trkpt>
      <trkpt lat="46.5472" lon="-1.68227">
        <ele>19</ele>
        <time>2013-12-11T13:52:15Z</time>
      </trkpt>
      <trkpt lat="46.54726" lon="-1.68234">
        <ele>18</ele>
        <time>2013-12-11T13:52:22Z</time>
      </trkpt>
      <trkpt lat="46.54729" lon="-1.68238">
        <ele>18</ele>
        <time>2013-12-11T13:52:26Z</time>
      </trkpt>
      <trkpt lat="46.54732" lon="-1.68242">
        <ele>18</ele>
        <time>2013-12-11T13:52:30Z</time>
      </trkpt>
      <trkpt lat="46.54736" lon="-1.6824">
        <ele>18</ele>
        <time>2013-12-11T13:52:36Z</time>
      </trkpt>
      <trkpt lat="46.54738" lon="-1.68236">
        <ele>18</ele>
        <time>2013-12-11T13:52:42Z</time>
      </trkpt>
      <trkpt lat="46.54742" lon="-1.68231">
        <ele>18</ele>
        <time>2013-12-11T13:52:49Z</time>
      </trkpt>
      <trkpt lat="46.54744" lon="-1.68227">
        <ele>19</ele>
        <time>2013-12-11T13:52:55Z</time>
      </trkpt>
      <trkpt lat="46.54747" lon="-1.68222">
        <ele>19</ele>
        <time>2013-12-11T13:53:01Z</time>
      </trkpt>
      <trkpt lat="46.54749" lon="-1.68218">
        <ele>19</ele>
        <time>2013-12-11T13:53:06Z</time>
      </trkpt>
      <trkpt lat="46.54752" lon="-1.68213">
        <ele>18</ele>
        <time>2013-12-11T13:53:11Z</time>
      </trkpt>
      <trkpt lat="46.54754" lon="-1.68209">
        <ele>19</ele>
        <time>2013-12-11T13:53:15Z</time>
      </trkpt>
      <trkpt lat="46.54755" lon="-1.68208">
        <ele>19</ele>
        <time>2013-12-11T13:53:16Z</time>
      </trkpt>
      <trkpt lat="46.5476" lon="-1.682">
        <ele>19</ele>
        <time>2013-12-11T13:53:25Z</time>
      </trkpt>
      <trkpt lat="46.54763" lon="-1.68195">
        <ele>19</ele>
        <time>2013-12-11T13:53:30Z</time>
      </trkpt>
      <trkpt lat="46.54766" lon="-1.68191">
        <ele>19</ele>
        <time>2013-12-11T13:53:35Z</time>
      </trkpt>
      <trkpt lat="46.54769" lon="-1.68186">
        <ele>19</ele>
        <time>2013-12-11T13:53:40Z</time>
      </trkpt>
      <trkpt lat="46.54771" lon="-1.68181">
        <ele>19</ele>
        <time>2013-12-11T13:53:46Z</time>
      </trkpt>
      <trkpt lat="46.54774" lon="-1.68176">
        <ele>19</ele>
        <time>2013-12-11T13:53:51Z</time>
      </trkpt>
      <trkpt lat="46.54778" lon="-1.68175">
        <ele>19</ele>
        <time>2013-12-11T13:53:56Z</time>
      </trkpt>
      <trkpt lat="46.54782" lon="-1.68173">
        <ele>19</ele>
        <time>2013-12-11T13:54:01Z</time>
      </trkpt>
      <trkpt lat="46.54786" lon="-1.6817">
        <ele>19</ele>
        <time>2013-12-11T13:54:06Z</time>
      </trkpt>
      <trkpt lat="46.54789" lon="-1.68166">
        <ele>20</ele>
        <time>2013-12-11T13:54:10Z</time>
      </trkpt>
      <trkpt lat="46.54792" lon="-1.68163">
        <ele>20</ele>
        <time>2013-12-11T13:54:14Z</time>
      </trkpt>
      <trkpt lat="46.54795" lon="-1.68159">
        <ele>20</ele>
        <time>2013-12-11T13:54:18Z</time>
      </trkpt>
      <trkpt lat="46.54796" lon="-1.68158">
        <ele>20</ele>
        <time>2013-12-11T13:54:19Z</time>
      </trkpt>
      <trkpt lat="46.548" lon="-1.68151">
        <ele>20</ele>
        <time>2013-12-11T13:54:26Z</time>
      </trkpt>
      <trkpt lat="46.54803" lon="-1.68147">
        <ele>20</ele>
        <time>2013-12-11T13:54:30Z</time>
      </trkpt>
      <trkpt lat="46.54807" lon="-1.68144">
        <ele>20</ele>
        <time>2013-12-11T13:54:34Z</time>
      </trkpt>
      <trkpt lat="46.5481" lon="-1.6814">
        <ele>20</ele>
        <time>2013-12-11T13:54:38Z</time>
      </trkpt>
      <trkpt lat="46.54813" lon="-1.68137">
        <ele>20</ele>
        <time>2013-12-11T13:54:42Z</time>
      </trkpt>
      <trkpt lat="46.54815" lon="-1.68132">
        <ele>20</ele>
        <time>2013-12-11T13:54:46Z</time>
      </trkpt>
      <trkpt lat="46.54815" lon="-1.68125">
        <ele>20</ele>
        <time>2013-12-11T13:54:50Z</time>
      </trkpt>
      <trkpt lat="46.54815" lon="-1.68119">
        <ele>20</ele>
        <time>2013-12-11T13:54:54Z</time>
      </trkpt>
      <trkpt lat="46.54813" lon="-1.68113">
        <ele>20</ele>
        <time>2013-12-11T13:54:58Z</time>
      </trkpt>
      <trkpt lat="46.54811" lon="-1.68108">
        <ele>20</ele>
        <time>2013-12-11T13:55:02Z</time>
      </trkpt>
      <trkpt lat="46.54809" lon="-1.68103">
        <ele>20</ele>
        <time>2013-12-11T13:55:06Z</time>
      </trkpt>
      <trkpt lat="46.54806" lon="-1.68098">
        <ele>20</ele>
        <time>2013-12-11T13:55:10Z</time>
      </trkpt>
      <trkpt lat="46.54803" lon="-1.68094">
        <ele>20</ele>
        <time>2013-12-11T13:55:14Z</time>
      </trkpt>
      <trkpt lat="46.548" lon="-1.6809">
        <ele>20</ele>
        <time>2013-12-11T13:55:18Z</time>
      </trkpt>
      <trkpt lat="46.54798" lon="-1.68086">
        <ele>20</ele>
        <time>2013-12-11T13:55:22Z</time>
      </trkpt>
      <trkpt lat="46.54797" lon="-1.68085">
        <ele>20</ele>
        <time>2013-12-11T13:55:23Z</time>
      </trkpt>
      <trkpt lat="46.54792" lon="-1.68078">
        <ele>22</ele>
        <time>2013-12-11T13:55:31Z</time>
      </trkpt>
      <trkpt lat="46.54789" lon="-1.68074">
        <ele>22</ele>
        <time>2013-12-11T13:55:36Z</time>
      </trkpt>
      <trkpt lat="46.54787" lon="-1.68069">
        <ele>22</ele>
        <time>2013-12-11T13:55:41Z</time>
      </trkpt>
      <trkpt lat="46.54787" lon="-1.68063">
        <ele>22</ele>
        <time>2013-12-11T13:55:50Z</time>
      </trkpt>
      <trkpt lat="46.54785" lon="-1.68057">
        <ele>22</ele>
        <time>2013-12-11T13:56:08Z</time>
      </trkpt>
      <trkpt lat="46.54784" lon="-1.68051">
        <ele>22</ele>
        <time>2013-12-11T13:56:22Z</time>
      </trkpt>
      <trkpt lat="46.54785" lon="-1.68045">
        <ele>22</ele>
        <time>2013-12-11T13:56:27Z</time>
      </trkpt>
      <trkpt lat="46.54785" lon="-1.68044">
        <ele>22</ele>
        <time>2013-12-11T13:56:28Z</time>
      </trkpt>
      <trkpt lat="46.54786" lon="-1.68034">
        <ele>22</ele>
        <time>2013-12-11T13:56:35Z</time>
      </trkpt>
      <trkpt lat="46.54787" lon="-1.68028">
        <ele>23</ele>
        <time>2013-12-11T13:56:39Z</time>
      </trkpt>
      <trkpt lat="46.54789" lon="-1.68023">
        <ele>23</ele>
        <time>2013-12-11T13:56:44Z</time>
      </trkpt>
      <trkpt lat="46.54791" lon="-1.68018">
        <ele>23</ele>
        <time>2013-12-11T13:56:49Z</time>
      </trkpt>
      <trkpt lat="46.54792" lon="-1.68012">
        <ele>23</ele>
        <time>2013-12-11T13:56:54Z</time>
      </trkpt>
      <trkpt lat="46.54793" lon="-1.68006">
        <ele>23</ele>
        <time>2013-12-11T13:56:59Z</time>
      </trkpt>
      <trkpt lat="46.54793" lon="-1.68">
        <ele>23</ele>
        <time>2013-12-11T13:57:04Z</time>
      </trkpt>
      <trkpt lat="46.54794" lon="-1.67995">
        <ele>23</ele>
        <time>2013-12-11T13:57:08Z</time>
      </trkpt>
      <trkpt lat="46.54794" lon="-1.67988">
        <ele>23</ele>
        <time>2013-12-11T13:57:13Z</time>
      </trkpt>
      <trkpt lat="46.54795" lon="-1.67982">
        <ele>23</ele>
        <time>2013-12-11T13:57:17Z</time>
      </trkpt>
      <trkpt lat="46.54796" lon="-1.67977">
        <ele>23</ele>
        <time>2013-12-11T13:57:20Z</time>
      </trkpt>
      <trkpt lat="46.54796" lon="-1.67971">
        <ele>23</ele>
        <time>2013-12-11T13:57:24Z</time>
      </trkpt>
      <trkpt lat="46.54797" lon="-1.67966">
        <ele>23</ele>
        <time>2013-12-11T13:57:28Z</time>
      </trkpt>
      <trkpt lat="46.54797" lon="-1.67964">
        <ele>23</ele>
        <time>2013-12-11T13:57:29Z</time>
      </trkpt>
      <trkpt lat="46.54797" lon="-1.67956">
        <ele>23</ele>
        <time>2013-12-11T13:57:34Z</time>
      </trkpt>
      <trkpt lat="46.54798" lon="-1.67951">
        <ele>23</ele>
        <time>2013-12-11T13:57:37Z</time>
      </trkpt>
      <trkpt lat="46.54798" lon="-1.67944">
        <ele>23</ele>
        <time>2013-12-11T13:57:41Z</time>
      </trkpt>
      <trkpt lat="46.54799" lon="-1.67939">
        <ele>23</ele>
        <time>2013-12-11T13:57:44Z</time>
      </trkpt>
      <trkpt lat="46.54799" lon="-1.67934">
        <ele>23</ele>
        <time>2013-12-11T13:57:47Z</time>
      </trkpt>
      <trkpt lat="46.54799" lon="-1.67929">
        <ele>23</ele>
        <time>2013-12-11T13:57:50Z</time>
      </trkpt>
      <trkpt lat="46.548" lon="-1.67923">
        <ele>23</ele>
        <time>2013-12-11T13:57:53Z</time>
      </trkpt>
      <trkpt lat="46.548" lon="-1.67918">
        <ele>23</ele>
        <time>2013-12-11T13:57:56Z</time>
      </trkpt>
      <trkpt lat="46.54801" lon="-1.67913">
        <ele>23</ele>
        <time>2013-12-11T13:57:59Z</time>
      </trkpt>
      <trkpt lat="46.54801" lon="-1.67908">
        <ele>23</ele>
        <time>2013-12-11T13:58:03Z</time>
      </trkpt>
      <trkpt lat="46.54803" lon="-1.67902">
        <ele>23</ele>
        <time>2013-12-11T13:58:08Z</time>
      </trkpt>
      <trkpt lat="46.54803" lon="-1.67896">
        <ele>23</ele>
        <time>2013-12-11T13:58:13Z</time>
      </trkpt>
      <trkpt lat="46.54804" lon="-1.67891">
        <ele>23</ele>
        <time>2013-12-11T13:58:16Z</time>
      </trkpt>
      <trkpt lat="46.54804" lon="-1.67886">
        <ele>23</ele>
        <time>2013-12-11T13:58:19Z</time>
      </trkpt>
      <trkpt lat="46.54804" lon="-1.67881">
        <ele>23</ele>
        <time>2013-12-11T13:58:22Z</time>
      </trkpt>
      <trkpt lat="46.54804" lon="-1.67876">
        <ele>23</ele>
        <time>2013-12-11T13:58:25Z</time>
      </trkpt>
      <trkpt lat="46.54804" lon="-1.6787">
        <ele>23</ele>
        <time>2013-12-11T13:58:29Z</time>
      </trkpt>
      <trkpt lat="46.54804" lon="-1.67869">
        <ele>23</ele>
        <time>2013-12-11T13:58:30Z</time>
      </trkpt>
      <trkpt lat="46.54803" lon="-1.67859">
        <ele>23</ele>
        <time>2013-12-11T13:58:38Z</time>
      </trkpt>
      <trkpt lat="46.54803" lon="-1.67854">
        <ele>23</ele>
        <time>2013-12-11T13:58:41Z</time>
      </trkpt>
      <trkpt lat="46.54802" lon="-1.67847">
        <ele>23</ele>
        <time>2013-12-11T13:58:45Z</time>
      </trkpt>
      <trkpt lat="46.54804" lon="-1.67842">
        <ele>23</ele>
        <time>2013-12-11T13:58:50Z</time>
      </trkpt>
      <trkpt lat="46.54803" lon="-1.67836">
        <ele>23</ele>
        <time>2013-12-11T13:58:55Z</time>
      </trkpt>
      <trkpt lat="46.54803" lon="-1.6783">
        <ele>22</ele>
        <time>2013-12-11T13:58:59Z</time>
      </trkpt>
      <trkpt lat="46.54802" lon="-1.67824">
        <ele>22</ele>
        <time>2013-12-11T13:59:03Z</time>
      </trkpt>
      <trkpt lat="46.548" lon="-1.67818">
        <ele>22</ele>
        <time>2013-12-11T13:59:06Z</time>
      </trkpt>
      <trkpt lat="46.548" lon="-1.67813">
        <ele>22</ele>
        <time>2013-12-11T13:59:09Z</time>
      </trkpt>
      <trkpt lat="46.548" lon="-1.67807">
        <ele>22</ele>
        <time>2013-12-11T13:59:12Z</time>
      </trkpt>
      <trkpt lat="46.548" lon="-1.67801">
        <ele>22</ele>
        <time>2013-12-11T13:59:15Z</time>
      </trkpt>
      <trkpt lat="46.548" lon="-1.67796">
        <ele>22</ele>
        <time>2013-12-11T13:59:18Z</time>
      </trkpt>
      <trkpt lat="46.548" lon="-1.67791">
        <ele>22</ele>
        <time>2013-12-11T13:59:21Z</time>
      </trkpt>
      <trkpt lat="46.548" lon="-1.67786">
        <ele>22</ele>
        <time>2013-12-11T13:59:24Z</time>
      </trkpt>
      <trkpt lat="46.54801" lon="-1.6778">
        <ele>22</ele>
        <time>2013-12-11T13:59:27Z</time>
      </trkpt>
      <trkpt lat="46.54802" lon="-1.67775">
        <ele>22</ele>
        <time>2013-12-11T13:59:30Z</time>
      </trkpt>
      <trkpt lat="46.54802" lon="-1.67773">
        <ele>22</ele>
        <time>2013-12-11T13:59:31Z</time>
      </trkpt>
      <trkpt lat="46.54805" lon="-1.67764">
        <ele>22</ele>
        <time>2013-12-11T13:59:37Z</time>
      </trkpt>
      <trkpt lat="46.54807" lon="-1.67758">
        <ele>22</ele>
        <time>2013-12-11T13:59:42Z</time>
      </trkpt>
      <trkpt lat="46.54811" lon="-1.67759">
        <ele>22</ele>
        <time>2013-12-11T13:59:52Z</time>
      </trkpt>
      <trkpt lat="46.54814" lon="-1.67761">
        <ele>22</ele>
        <time>2013-12-11T13:59:57Z</time>
      </trkpt>
      <trkpt lat="46.54818" lon="-1.67763">
        <ele>22</ele>
        <time>2013-12-11T14:00:02Z</time>
      </trkpt>
      <trkpt lat="46.54822" lon="-1.67765">
        <ele>22</ele>
        <time>2013-12-11T14:00:07Z</time>
      </trkpt>
      <trkpt lat="46.54826" lon="-1.67767">
        <ele>22</ele>
        <time>2013-12-11T14:00:11Z</time>
      </trkpt>
      <trkpt lat="46.5483" lon="-1.67769">
        <ele>22</ele>
        <time>2013-12-11T14:00:15Z</time>
      </trkpt>
      <trkpt lat="46.54834" lon="-1.6777">
        <ele>21</ele>
        <time>2013-12-11T14:00:20Z</time>
      </trkpt>
      <trkpt lat="46.54838" lon="-1.67772">
        <ele>21</ele>
        <time>2013-12-11T14:00:24Z</time>
      </trkpt>
      <trkpt lat="46.54842" lon="-1.67773">
        <ele>21</ele>
        <time>2013-12-11T14:00:28Z</time>
      </trkpt>
      <trkpt lat="46.54846" lon="-1.67775">
        <ele>21</ele>
        <time>2013-12-11T14:00:32Z</time>
      </trkpt>
      <trkpt lat="46.54847" lon="-1.67775">
        <ele>21</ele>
        <time>2013-12-11T14:00:33Z</time>
      </trkpt>
      <trkpt lat="46.54854" lon="-1.67778">
        <ele>21</ele>
        <time>2013-12-11T14:00:40Z</time>
      </trkpt>
      <trkpt lat="46.54858" lon="-1.67779">
        <ele>21</ele>
        <time>2013-12-11T14:00:44Z</time>
      </trkpt>
      <trkpt lat="46.54862" lon="-1.6778">
        <ele>21</ele>
        <time>2013-12-11T14:00:48Z</time>
      </trkpt>
      <trkpt lat="46.54867" lon="-1.67781">
        <ele>21</ele>
        <time>2013-12-11T14:00:52Z</time>
      </trkpt>
      <trkpt lat="46.54871" lon="-1.67782">
        <ele>21</ele>
        <time>2013-12-11T14:00:56Z</time>
      </trkpt>
      <trkpt lat="46.54874" lon="-1.67784">
        <ele>21</ele>
        <time>2013-12-11T14:00:59Z</time>
      </trkpt>
      <trkpt lat="46.54878" lon="-1.67784">
        <ele>21</ele>
        <time>2013-12-11T14:01:03Z</time>
      </trkpt>
      <trkpt lat="46.54883" lon="-1.67785">
        <ele>21</ele>
        <time>2013-12-11T14:01:07Z</time>
      </trkpt>
      <trkpt lat="46.54886" lon="-1.67786">
        <ele>21</ele>
        <time>2013-12-11T14:01:10Z</time>
      </trkpt>
      <trkpt lat="46.5489" lon="-1.67787">
        <ele>21</ele>
        <time>2013-12-11T14:01:13Z</time>
      </trkpt>
      <trkpt lat="46.54894" lon="-1.67789">
        <ele>21</ele>
        <time>2013-12-11T14:01:17Z</time>
      </trkpt>
      <trkpt lat="46.54896" lon="-1.67794">
        <ele>21</ele>
        <time>2013-12-11T14:01:21Z</time>
      </trkpt>
      <trkpt lat="46.54898" lon="-1.678">
        <ele>21</ele>
        <time>2013-12-11T14:01:27Z</time>
      </trkpt>
      <trkpt lat="46.54899" lon="-1.67806">
        <ele>21</ele>
        <time>2013-12-11T14:01:33Z</time>
      </trkpt>
      <trkpt lat="46.54899" lon="-1.67807">
        <ele>21</ele>
        <time>2013-12-11T14:01:34Z</time>
      </trkpt>
      <trkpt lat="46.549" lon="-1.67818">
        <ele>21</ele>
        <time>2013-12-11T14:01:42Z</time>
      </trkpt>
      <trkpt lat="46.549" lon="-1.67823">
        <ele>21</ele>
        <time>2013-12-11T14:01:46Z</time>
      </trkpt>
      <trkpt lat="46.549" lon="-1.67829">
        <ele>21</ele>
        <time>2013-12-11T14:01:50Z</time>
      </trkpt>
      <trkpt lat="46.549" lon="-1.67835">
        <ele>20</ele>
        <time>2013-12-11T14:01:55Z</time>
      </trkpt>
      <trkpt lat="46.549" lon="-1.67841">
        <ele>20</ele>
        <time>2013-12-11T14:01:59Z</time>
      </trkpt>
      <trkpt lat="46.54899" lon="-1.67847">
        <ele>20</ele>
        <time>2013-12-11T14:02:03Z</time>
      </trkpt>
      <trkpt lat="46.54899" lon="-1.67853">
        <ele>20</ele>
        <time>2013-12-11T14:02:07Z</time>
      </trkpt>
      <trkpt lat="46.54898" lon="-1.67858">
        <ele>20</ele>
        <time>2013-12-11T14:02:11Z</time>
      </trkpt>
      <trkpt lat="46.54898" lon="-1.67864">
        <ele>20</ele>
        <time>2013-12-11T14:02:15Z</time>
      </trkpt>
      <trkpt lat="46.54897" lon="-1.67869">
        <ele>20</ele>
        <time>2013-12-11T14:02:19Z</time>
      </trkpt>
      <trkpt lat="46.54897" lon="-1.67875">
        <ele>20</ele>
        <time>2013-12-11T14:02:23Z</time>
      </trkpt>
      <trkpt lat="46.54896" lon="-1.6788">
        <ele>20</ele>
        <time>2013-12-11T14:02:27Z</time>
      </trkpt>
      <trkpt lat="46.54896" lon="-1.67886">
        <ele>20</ele>
        <time>2013-12-11T14:02:31Z</time>
      </trkpt>
      <trkpt lat="46.54896" lon="-1.67893">
        <ele>20</ele>
        <time>2013-12-11T14:02:35Z</time>
      </trkpt>
      <trkpt lat="46.54896" lon="-1.67895">
        <ele>20</ele>
        <time>2013-12-11T14:02:36Z</time>
      </trkpt>
      <trkpt lat="46.54895" lon="-1.67904">
        <ele>20</ele>
        <time>2013-12-11T14:02:42Z</time>
      </trkpt>
      <trkpt lat="46.54895" lon="-1.6791">
        <ele>20</ele>
        <time>2013-12-11T14:02:46Z</time>
      </trkpt>
      <trkpt lat="46.54895" lon="-1.67916">
        <ele>20</ele>
        <time>2013-12-11T14:02:50Z</time>
      </trkpt>
      <trkpt lat="46.54895" lon="-1.67922">
        <ele>19</ele>
        <time>2013-12-11T14:02:54Z</time>
      </trkpt>
      <trkpt lat="46.54894" lon="-1.67928">
        <ele>19</ele>
        <time>2013-12-11T14:02:58Z</time>
      </trkpt>
      <trkpt lat="46.54893" lon="-1.67935">
        <ele>19</ele>
        <time>2013-12-11T14:03:02Z</time>
      </trkpt>
      <trkpt lat="46.54893" lon="-1.67941">
        <ele>19</ele>
        <time>2013-12-11T14:03:06Z</time>
      </trkpt>
      <trkpt lat="46.54892" lon="-1.67946">
        <ele>19</ele>
        <time>2013-12-11T14:03:09Z</time>
      </trkpt>
      <trkpt lat="46.54893" lon="-1.67952">
        <ele>19</ele>
        <time>2013-12-11T14:03:13Z</time>
      </trkpt>
      <trkpt lat="46.54895" lon="-1.67957">
        <ele>19</ele>
        <time>2013-12-11T14:03:17Z</time>
      </trkpt>
      <trkpt lat="46.54898" lon="-1.67961">
        <ele>19</ele>
        <time>2013-12-11T14:03:21Z</time>
      </trkpt>
      <trkpt lat="46.54901" lon="-1.67965">
        <ele>19</ele>
        <time>2013-12-11T14:03:27Z</time>
      </trkpt>
      <trkpt lat="46.54905" lon="-1.67968">
        <ele>19</ele>
        <time>2013-12-11T14:03:32Z</time>
      </trkpt>
      <trkpt lat="46.54909" lon="-1.67971">
        <ele>18</ele>
        <time>2013-12-11T14:03:38Z</time>
      </trkpt>
      <trkpt lat="46.5491" lon="-1.67971">
        <ele>18</ele>
        <time>2013-12-11T14:03:39Z</time>
      </trkpt>
      <trkpt lat="46.54917" lon="-1.67974">
        <ele>18</ele>
        <time>2013-12-11T14:03:47Z</time>
      </trkpt>
      <trkpt lat="46.54921" lon="-1.67976">
        <ele>15</ele>
        <time>2013-12-11T14:03:51Z</time>
      </trkpt>
      <trkpt lat="46.54924" lon="-1.67978">
        <ele>15</ele>
        <time>2013-12-11T14:03:56Z</time>
      </trkpt>
      <trkpt lat="46.54928" lon="-1.6798">
        <ele>15</ele>
        <time>2013-12-11T14:04:00Z</time>
      </trkpt>
      <trkpt lat="46.54932" lon="-1.67982">
        <ele>15</ele>
        <time>2013-12-11T14:04:04Z</time>
      </trkpt>
      <trkpt lat="46.54935" lon="-1.67984">
        <ele>15</ele>
        <time>2013-12-11T14:04:07Z</time>
      </trkpt>
      <trkpt lat="46.54938" lon="-1.67985">
        <ele>15</ele>
        <time>2013-12-11T14:04:10Z</time>
      </trkpt>
      <trkpt lat="46.54942" lon="-1.67987">
        <ele>15</ele>
        <time>2013-12-11T14:04:13Z</time>
      </trkpt>
      <trkpt lat="46.54946" lon="-1.67989">
        <ele>15</ele>
        <time>2013-12-11T14:04:16Z</time>
      </trkpt>
      <trkpt lat="46.5495" lon="-1.6799">
        <ele>15</ele>
        <time>2013-12-11T14:04:19Z</time>
      </trkpt>
      <trkpt lat="46.54953" lon="-1.67992">
        <ele>15</ele>
        <time>2013-12-11T14:04:22Z</time>
      </trkpt>
      <trkpt lat="46.54957" lon="-1.67993">
        <ele>15</ele>
        <time>2013-12-11T14:04:25Z</time>
      </trkpt>
      <trkpt lat="46.5496" lon="-1.67996">
        <ele>14</ele>
        <time>2013-12-11T14:04:29Z</time>
      </trkpt>
      <trkpt lat="46.54963" lon="-1.67998">
        <ele>14</ele>
        <time>2013-12-11T14:04:32Z</time>
      </trkpt>
      <trkpt lat="46.54966" lon="-1.68001">
        <ele>14</ele>
        <time>2013-12-11T14:04:35Z</time>
      </trkpt>
      <trkpt lat="46.54969" lon="-1.68005">
        <ele>13</ele>
        <time>2013-12-11T14:04:38Z</time>
      </trkpt>
      <trkpt lat="46.54972" lon="-1.68008">
        <ele>13</ele>
        <time>2013-12-11T14:04:42Z</time>
      </trkpt>
      <trkpt lat="46.54973" lon="-1.6801">
        <ele>13</ele>
        <time>2013-12-11T14:04:43Z</time>
      </trkpt>
      <trkpt lat="46.54978" lon="-1.68016">
        <ele>13</ele>
        <time>2013-12-11T14:04:50Z</time>
      </trkpt>
      <trkpt lat="46.54981" lon="-1.6802">
        <ele>13</ele>
        <time>2013-12-11T14:04:54Z</time>
      </trkpt>
      <trkpt lat="46.54984" lon="-1.68024">
        <ele>13</ele>
        <time>2013-12-11T14:04:59Z</time>
      </trkpt>
      <trkpt lat="46.54987" lon="-1.68028">
        <ele>13</ele>
        <time>2013-12-11T14:05:04Z</time>
      </trkpt>
      <trkpt lat="46.5499" lon="-1.68032">
        <ele>13</ele>
        <time>2013-12-11T14:05:10Z</time>
      </trkpt>
      <trkpt lat="46.54994" lon="-1.68036">
        <ele>13</ele>
        <time>2013-12-11T14:05:21Z</time>
      </trkpt>
      <trkpt lat="46.54998" lon="-1.68039">
        <ele>13</ele>
        <time>2013-12-11T14:05:34Z</time>
      </trkpt>
      <trkpt lat="46.55002" lon="-1.6804">
        <ele>12</ele>
        <time>2013-12-11T14:05:46Z</time>
      </trkpt>
      <trkpt lat="46.55002" lon="-1.6804">
        <ele>12</ele>
        <time>2013-12-11T14:05:47Z</time>
      </trkpt>
      <trkpt lat="46.55009" lon="-1.68045">
        <ele>12</ele>
        <time>2013-12-11T14:06:07Z</time>
      </trkpt>
      <trkpt lat="46.55011" lon="-1.6805">
        <ele>12</ele>
        <time>2013-12-11T14:06:14Z</time>
      </trkpt>
      <trkpt lat="46.55013" lon="-1.68055">
        <ele>12</ele>
        <time>2013-12-11T14:06:20Z</time>
      </trkpt>
      <trkpt lat="46.55017" lon="-1.68059">
        <ele>12</ele>
        <time>2013-12-11T14:06:26Z</time>
      </trkpt>
      <trkpt lat="46.55019" lon="-1.68064">
        <ele>12</ele>
        <time>2013-12-11T14:06:31Z</time>
      </trkpt>
      <trkpt lat="46.55022" lon="-1.68068">
        <ele>12</ele>
        <time>2013-12-11T14:06:38Z</time>
      </trkpt>
      <trkpt lat="46.55026" lon="-1.68072">
        <ele>12</ele>
        <time>2013-12-11T14:06:46Z</time>
      </trkpt>
      <trkpt lat="46.5503" lon="-1.68075">
        <ele>12</ele>
        <time>2013-12-11T14:06:55Z</time>
      </trkpt>
      <trkpt lat="46.5503" lon="-1.68076">
        <ele>12</ele>
        <time>2013-12-11T14:06:56Z</time>
      </trkpt>
      <trkpt lat="46.55037" lon="-1.68082">
        <ele>12</ele>
        <time>2013-12-11T14:07:08Z</time>
      </trkpt>
      <trkpt lat="46.5504" lon="-1.68086">
        <ele>12</ele>
        <time>2013-12-11T14:07:15Z</time>
      </trkpt>
      <trkpt lat="46.55044" lon="-1.68088">
        <ele>12</ele>
        <time>2013-12-11T14:07:21Z</time>
      </trkpt>
      <trkpt lat="46.55048" lon="-1.68091">
        <ele>12</ele>
        <time>2013-12-11T14:07:27Z</time>
      </trkpt>
      <trkpt lat="46.55051" lon="-1.68095">
        <ele>12</ele>
        <time>2013-12-11T14:07:31Z</time>
      </trkpt>
      <trkpt lat="46.55054" lon="-1.68098">
        <ele>12</ele>
        <time>2013-12-11T14:07:35Z</time>
      </trkpt>
      <trkpt lat="46.55057" lon="-1.68102">
        <ele>12</ele>
        <time>2013-12-11T14:07:39Z</time>
      </trkpt>
      <trkpt lat="46.5506" lon="-1.68106">
        <ele>12</ele>
        <time>2013-12-11T14:07:43Z</time>
      </trkpt>
      <trkpt lat="46.55062" lon="-1.68111">
        <ele>12</ele>
        <time>2013-12-11T14:07:48Z</time>
      </trkpt>
      <trkpt lat="46.55062" lon="-1.68117">
        <ele>12</ele>
        <time>2013-12-11T14:07:53Z</time>
      </trkpt>
      <trkpt lat="46.55063" lon="-1.68123">
        <ele>12</ele>
        <time>2013-12-11T14:07:57Z</time>
      </trkpt>
      <trkpt lat="46.55063" lon="-1.68124">
        <ele>12</ele>
        <time>2013-12-11T14:07:58Z</time>
      </trkpt>
      <trkpt lat="46.55062" lon="-1.68135">
        <ele>12</ele>
        <time>2013-12-11T14:08:05Z</time>
      </trkpt>
      <trkpt lat="46.55062" lon="-1.6814">
        <ele>12</ele>
        <time>2013-12-11T14:08:09Z</time>
      </trkpt>
      <trkpt lat="46.55062" lon="-1.68146">
        <ele>12</ele>
        <time>2013-12-11T14:08:13Z</time>
      </trkpt>
      <trkpt lat="46.55062" lon="-1.68152">
        <ele>12</ele>
        <time>2013-12-11T14:08:18Z</time>
      </trkpt>
      <trkpt lat="46.55063" lon="-1.68158">
        <ele>12</ele>
        <time>2013-12-11T14:08:22Z</time>
      </trkpt>
      <trkpt lat="46.55062" lon="-1.68163">
        <ele>12</ele>
        <time>2013-12-11T14:08:26Z</time>
      </trkpt>
      <trkpt lat="46.55061" lon="-1.68169">
        <ele>13</ele>
        <time>2013-12-11T14:08:30Z</time>
      </trkpt>
      <trkpt lat="46.5506" lon="-1.68174">
        <ele>13</ele>
        <time>2013-12-11T14:08:33Z</time>
      </trkpt>
      <trkpt lat="46.55059" lon="-1.68179">
        <ele>13</ele>
        <time>2013-12-11T14:08:36Z</time>
      </trkpt>
      <trkpt lat="46.55059" lon="-1.68185">
        <ele>13</ele>
        <time>2013-12-11T14:08:40Z</time>
      </trkpt>
      <trkpt lat="46.55058" lon="-1.68191">
        <ele>13</ele>
        <time>2013-12-11T14:08:44Z</time>
      </trkpt>
      <trkpt lat="46.55058" lon="-1.68197">
        <ele>13</ele>
        <time>2013-12-11T14:08:48Z</time>
      </trkpt>
      <trkpt lat="46.55057" lon="-1.68203">
        <ele>13</ele>
        <time>2013-12-11T14:08:52Z</time>
      </trkpt>
      <trkpt lat="46.55057" lon="-1.68208">
        <ele>13</ele>
        <time>2013-12-11T14:08:56Z</time>
      </trkpt>
      <trkpt lat="46.55056" lon="-1.68214">
        <ele>13</ele>
        <time>2013-12-11T14:09:00Z</time>
      </trkpt>
      <trkpt lat="46.55057" lon="-1.68215">
        <ele>13</ele>
        <time>2013-12-11T14:09:01Z</time>
      </trkpt>
      <trkpt lat="46.55057" lon="-1.68226">
        <ele>14</ele>
        <time>2013-12-11T14:09:08Z</time>
      </trkpt>
      <trkpt lat="46.55057" lon="-1.68231">
        <ele>14</ele>
        <time>2013-12-11T14:09:12Z</time>
      </trkpt>
      <trkpt lat="46.55058" lon="-1.68237">
        <ele>14</ele>
        <time>2013-12-11T14:09:16Z</time>
      </trkpt>
      <trkpt lat="46.55058" lon="-1.68242">
        <ele>14</ele>
        <time>2013-12-11T14:09:19Z</time>
      </trkpt>
      <trkpt lat="46.55058" lon="-1.68247">
        <ele>14</ele>
        <time>2013-12-11T14:09:22Z</time>
      </trkpt>
      <trkpt lat="46.55058" lon="-1.68253">
        <ele>15</ele>
        <time>2013-12-11T14:09:26Z</time>
      </trkpt>
      <trkpt lat="46.55058" lon="-1.68259">
        <ele>15</ele>
        <time>2013-12-11T14:09:30Z</time>
      </trkpt>
      <trkpt lat="46.55058" lon="-1.68265">
        <ele>15</ele>
        <time>2013-12-11T14:09:34Z</time>
      </trkpt>
      <trkpt lat="46.55059" lon="-1.68271">
        <ele>16</ele>
        <time>2013-12-11T14:09:38Z</time>
      </trkpt>
      <trkpt lat="46.55059" lon="-1.68277">
        <ele>16</ele>
        <time>2013-12-11T14:09:42Z</time>
      </trkpt>
      <trkpt lat="46.5506" lon="-1.68281">
        <ele>16</ele>
        <time>2013-12-11T14:09:45Z</time>
      </trkpt>
      <trkpt lat="46.55062" lon="-1.68286">
        <ele>16</ele>
        <time>2013-12-11T14:09:48Z</time>
      </trkpt>
      <trkpt lat="46.55065" lon="-1.68291">
        <ele>16</ele>
        <time>2013-12-11T14:09:54Z</time>
      </trkpt>
      <trkpt lat="46.55069" lon="-1.68292">
        <ele>16</ele>
        <time>2013-12-11T14:10:42Z</time>
      </trkpt>
      <trkpt lat="46.55069" lon="-1.68291">
        <ele>16</ele>
        <time>2013-12-11T14:10:43Z</time>
      </trkpt>
      <trkpt lat="46.55077" lon="-1.68291">
        <ele>16</ele>
        <time>2013-12-11T14:11:00Z</time>
      </trkpt>
      <trkpt lat="46.55081" lon="-1.68289">
        <ele>16</ele>
        <time>2013-12-11T14:11:05Z</time>
      </trkpt>
      <trkpt lat="46.55085" lon="-1.68288">
        <ele>18</ele>
        <time>2013-12-11T14:11:10Z</time>
      </trkpt>
      <trkpt lat="46.55089" lon="-1.68288">
        <ele>18</ele>
        <time>2013-12-11T14:11:13Z</time>
      </trkpt>
      <trkpt lat="46.55092" lon="-1.68287">
        <ele>18</ele>
        <time>2013-12-11T14:11:16Z</time>
      </trkpt>
      <trkpt lat="46.55097" lon="-1.68285">
        <ele>18</ele>
        <time>2013-12-11T14:11:20Z</time>
      </trkpt>
      <trkpt lat="46.551" lon="-1.68284">
        <ele>18</ele>
        <time>2013-12-11T14:11:24Z</time>
      </trkpt>
      <trkpt lat="46.55105" lon="-1.68283">
        <ele>18</ele>
        <time>2013-12-11T14:11:29Z</time>
      </trkpt>
      <trkpt lat="46.55108" lon="-1.68283">
        <ele>18</ele>
        <time>2013-12-11T14:11:33Z</time>
      </trkpt>
      <trkpt lat="46.55112" lon="-1.68282">
        <ele>18</ele>
        <time>2013-12-11T14:11:37Z</time>
      </trkpt>
      <trkpt lat="46.55116" lon="-1.68281">
        <ele>18</ele>
        <time>2013-12-11T14:11:40Z</time>
      </trkpt>
      <trkpt lat="46.55119" lon="-1.6828">
        <ele>18</ele>
        <time>2013-12-11T14:11:43Z</time>
      </trkpt>
      <trkpt lat="46.5512" lon="-1.68279">
        <ele>18</ele>
        <time>2013-12-11T14:11:44Z</time>
      </trkpt>
      <trkpt lat="46.55127" lon="-1.68278">
        <ele>18</ele>
        <time>2013-12-11T14:11:51Z</time>
      </trkpt>
      <trkpt lat="46.55131" lon="-1.68277">
        <ele>18</ele>
        <time>2013-12-11T14:11:55Z</time>
      </trkpt>
      <trkpt lat="46.55135" lon="-1.68277">
        <ele>18</ele>
        <time>2013-12-11T14:11:59Z</time>
      </trkpt>
      <trkpt lat="46.55139" lon="-1.68277">
        <ele>18</ele>
        <time>2013-12-11T14:12:03Z</time>
      </trkpt>
      <trkpt lat="46.55142" lon="-1.68276">
        <ele>19</ele>
        <time>2013-12-11T14:12:06Z</time>
      </trkpt>
      <trkpt lat="46.55146" lon="-1.68276">
        <ele>19</ele>
        <time>2013-12-11T14:12:09Z</time>
      </trkpt>
      <trkpt lat="46.5515" lon="-1.68275">
        <ele>19</ele>
        <time>2013-12-11T14:12:13Z</time>
      </trkpt>
      <trkpt lat="46.55154" lon="-1.68274">
        <ele>19</ele>
        <time>2013-12-11T14:12:17Z</time>
      </trkpt>
      <trkpt lat="46.55158" lon="-1.68274">
        <ele>19</ele>
        <time>2013-12-11T14:12:21Z</time>
      </trkpt>
      <trkpt lat="46.55162" lon="-1.68273">
        <ele>19</ele>
        <time>2013-12-11T14:12:25Z</time>
      </trkpt>
      <trkpt lat="46.55166" lon="-1.68273">
        <ele>19</ele>
        <time>2013-12-11T14:12:29Z</time>
      </trkpt>
      <trkpt lat="46.5517" lon="-1.68272">
        <ele>20</ele>
        <time>2013-12-11T14:12:32Z</time>
      </trkpt>
      <trkpt lat="46.55174" lon="-1.68272">
        <ele>20</ele>
        <time>2013-12-11T14:12:36Z</time>
      </trkpt>
      <trkpt lat="46.55178" lon="-1.68271">
        <ele>20</ele>
        <time>2013-12-11T14:12:40Z</time>
      </trkpt>
      <trkpt lat="46.55181" lon="-1.68271">
        <ele>20</ele>
        <time>2013-12-11T14:12:43Z</time>
      </trkpt>
      <trkpt lat="46.55185" lon="-1.68271">
        <ele>21</ele>
        <time>2013-12-11T14:12:46Z</time>
      </trkpt>
      <trkpt lat="46.55186" lon="-1.6827">
        <ele>21</ele>
        <time>2013-12-11T14:12:47Z</time>
      </trkpt>
      <trkpt lat="46.55193" lon="-1.6827">
        <ele>21</ele>
        <time>2013-12-11T14:12:53Z</time>
      </trkpt>
      <trkpt lat="46.55196" lon="-1.68269">
        <ele>21</ele>
        <time>2013-12-11T14:12:56Z</time>
      </trkpt>
      <trkpt lat="46.552" lon="-1.68268">
        <ele>21</ele>
        <time>2013-12-11T14:13:00Z</time>
      </trkpt>
      <trkpt lat="46.55205" lon="-1.68268">
        <ele>21</ele>
        <time>2013-12-11T14:13:04Z</time>
      </trkpt>
      <trkpt lat="46.55208" lon="-1.68267">
        <ele>21</ele>
        <time>2013-12-11T14:13:08Z</time>
      </trkpt>
      <trkpt lat="46.55212" lon="-1.68266">
        <ele>21</ele>
        <time>2013-12-11T14:13:12Z</time>
      </trkpt>
      <trkpt lat="46.55216" lon="-1.68265">
        <ele>21</ele>
        <time>2013-12-11T14:13:16Z</time>
      </trkpt>
      <trkpt lat="46.5522" lon="-1.68264">
        <ele>21</ele>
        <time>2013-12-11T14:13:20Z</time>
      </trkpt>
      <trkpt lat="46.55223" lon="-1.68264">
        <ele>21</ele>
        <time>2013-12-11T14:13:23Z</time>
      </trkpt>
      <trkpt lat="46.55227" lon="-1.68263">
        <ele>21</ele>
        <time>2013-12-11T14:13:26Z</time>
      </trkpt>
      <trkpt lat="46.55231" lon="-1.68263">
        <ele>22</ele>
        <time>2013-12-11T14:13:30Z</time>
      </trkpt>
      <trkpt lat="46.55235" lon="-1.68262">
        <ele>22</ele>
        <time>2013-12-11T14:13:34Z</time>
      </trkpt>
      <trkpt lat="46.55239" lon="-1.68261">
        <ele>22</ele>
        <time>2013-12-11T14:13:38Z</time>
      </trkpt>
      <trkpt lat="46.55243" lon="-1.68261">
        <ele>22</ele>
        <time>2013-12-11T14:13:42Z</time>
      </trkpt>
      <trkpt lat="46.55248" lon="-1.6826">
        <ele>22</ele>
        <time>2013-12-11T14:13:46Z</time>
      </trkpt>
      <trkpt lat="46.55252" lon="-1.68259">
        <ele>23</ele>
        <time>2013-12-11T14:13:50Z</time>
      </trkpt>
      <trkpt lat="46.55253" lon="-1.68259">
        <ele>23</ele>
        <time>2013-12-11T14:13:51Z</time>
      </trkpt>
      <trkpt lat="46.5526" lon="-1.68259">
        <ele>23</ele>
        <time>2013-12-11T14:13:58Z</time>
      </trkpt>
      <trkpt lat="46.55263" lon="-1.68259">
        <ele>23</ele>
        <time>2013-12-11T14:14:01Z</time>
      </trkpt>
      <trkpt lat="46.55267" lon="-1.68259">
        <ele>23</ele>
        <time>2013-12-11T14:14:04Z</time>
      </trkpt>
      <trkpt lat="46.5527" lon="-1.68258">
        <ele>23</ele>
        <time>2013-12-11T14:14:07Z</time>
      </trkpt>
      <trkpt lat="46.55274" lon="-1.68258">
        <ele>23</ele>
        <time>2013-12-11T14:14:10Z</time>
      </trkpt>
      <trkpt lat="46.55277" lon="-1.68258">
        <ele>23</ele>
        <time>2013-12-11T14:14:13Z</time>
      </trkpt>
      <trkpt lat="46.55281" lon="-1.68258">
        <ele>23</ele>
        <time>2013-12-11T14:14:16Z</time>
      </trkpt>
      <trkpt lat="46.55285" lon="-1.68258">
        <ele>23</ele>
        <time>2013-12-11T14:14:19Z</time>
      </trkpt>
      <trkpt lat="46.55289" lon="-1.68258">
        <ele>23</ele>
        <time>2013-12-11T14:14:23Z</time>
      </trkpt>
      <trkpt lat="46.55293" lon="-1.68258">
        <ele>23</ele>
        <time>2013-12-11T14:14:27Z</time>
      </trkpt>
      <trkpt lat="46.55297" lon="-1.68258">
        <ele>23</ele>
        <time>2013-12-11T14:14:30Z</time>
      </trkpt>
      <trkpt lat="46.55301" lon="-1.68258">
        <ele>24</ele>
        <time>2013-12-11T14:14:33Z</time>
      </trkpt>
      <trkpt lat="46.55304" lon="-1.68258">
        <ele>24</ele>
        <time>2013-12-11T14:14:36Z</time>
      </trkpt>
      <trkpt lat="46.55307" lon="-1.68258">
        <ele>24</ele>
        <time>2013-12-11T14:14:39Z</time>
      </trkpt>
      <trkpt lat="46.55311" lon="-1.68257">
        <ele>24</ele>
        <time>2013-12-11T14:14:42Z</time>
      </trkpt>
      <trkpt lat="46.55315" lon="-1.68257">
        <ele>24</ele>
        <time>2013-12-11T14:14:46Z</time>
      </trkpt>
      <trkpt lat="46.55319" lon="-1.68257">
        <ele>24</ele>
        <time>2013-12-11T14:14:50Z</time>
      </trkpt>
      <trkpt lat="46.55323" lon="-1.68257">
        <ele>24</ele>
        <time>2013-12-11T14:14:53Z</time>
      </trkpt>
      <trkpt lat="46.55324" lon="-1.68257">
        <ele>24</ele>
        <time>2013-12-11T14:14:54Z</time>
      </trkpt>
      <trkpt lat="46.55331" lon="-1.68257">
        <ele>24</ele>
        <time>2013-12-11T14:15:01Z</time>
      </trkpt>
      <trkpt lat="46.55335" lon="-1.68257">
        <ele>25</ele>
        <time>2013-12-11T14:15:05Z</time>
      </trkpt>
      <trkpt lat="46.55339" lon="-1.68257">
        <ele>25</ele>
        <time>2013-12-11T14:15:09Z</time>
      </trkpt>
      <trkpt lat="46.55343" lon="-1.68258">
        <ele>25</ele>
        <time>2013-12-11T14:15:13Z</time>
      </trkpt>
      <trkpt lat="46.55347" lon="-1.68258">
        <ele>25</ele>
        <time>2013-12-11T14:15:17Z</time>
      </trkpt>
      <trkpt lat="46.55351" lon="-1.68258">
        <ele>25</ele>
        <time>2013-12-11T14:15:21Z</time>
      </trkpt>
      <trkpt lat="46.55355" lon="-1.68258">
        <ele>26</ele>
        <time>2013-12-11T14:15:25Z</time>
      </trkpt>
      <trkpt lat="46.5536" lon="-1.68258">
        <ele>26</ele>
        <time>2013-12-11T14:15:29Z</time>
      </trkpt>
      <trkpt lat="46.55364" lon="-1.68257">
        <ele>26</ele>
        <time>2013-12-11T14:15:33Z</time>
      </trkpt>
      <trkpt lat="46.55367" lon="-1.68258">
        <ele>26</ele>
        <time>2013-12-11T14:15:36Z</time>
      </trkpt>
      <trkpt lat="46.55372" lon="-1.68258">
        <ele>26</ele>
        <time>2013-12-11T14:15:40Z</time>
      </trkpt>
      <trkpt lat="46.55376" lon="-1.68258">
        <ele>26</ele>
        <time>2013-12-11T14:15:44Z</time>
      </trkpt>
      <trkpt lat="46.5538" lon="-1.68258">
        <ele>26</ele>
        <time>2013-12-11T14:15:48Z</time>
      </trkpt>
      <trkpt lat="46.55384" lon="-1.68258">
        <ele>26</ele>
        <time>2013-12-11T14:15:52Z</time>
      </trkpt>
      <trkpt lat="46.55388" lon="-1.68259">
        <ele>26</ele>
        <time>2013-12-11T14:15:55Z</time>
      </trkpt>
      <trkpt lat="46.55389" lon="-1.68259">
        <ele>26</ele>
        <time>2013-12-11T14:15:56Z</time>
      </trkpt>
      <trkpt lat="46.55396" lon="-1.68259">
        <ele>27</ele>
        <time>2013-12-11T14:16:03Z</time>
      </trkpt>
      <trkpt lat="46.55399" lon="-1.68259">
        <ele>27</ele>
        <time>2013-12-11T14:16:06Z</time>
      </trkpt>
      <trkpt lat="46.55403" lon="-1.68259">
        <ele>27</ele>
        <time>2013-12-11T14:16:09Z</time>
      </trkpt>
      <trkpt lat="46.55408" lon="-1.68259">
        <ele>27</ele>
        <time>2013-12-11T14:16:13Z</time>
      </trkpt>
      <trkpt lat="46.55411" lon="-1.68259">
        <ele>27</ele>
        <time>2013-12-11T14:16:16Z</time>
      </trkpt>
      <trkpt lat="46.55414" lon="-1.68259">
        <ele>27</ele>
        <time>2013-12-11T14:16:19Z</time>
      </trkpt>
      <trkpt lat="46.55418" lon="-1.6826">
        <ele>28</ele>
        <time>2013-12-11T14:16:22Z</time>
      </trkpt>
      <trkpt lat="46.55422" lon="-1.6826">
        <ele>28</ele>
        <time>2013-12-11T14:16:26Z</time>
      </trkpt>
      <trkpt lat="46.55426" lon="-1.6826">
        <ele>28</ele>
        <time>2013-12-11T14:16:29Z</time>
      </trkpt>
      <trkpt lat="46.55429" lon="-1.6826">
        <ele>28</ele>
        <time>2013-12-11T14:16:32Z</time>
      </trkpt>
      <trkpt lat="46.55433" lon="-1.6826">
        <ele>28</ele>
        <time>2013-12-11T14:16:35Z</time>
      </trkpt>
      <trkpt lat="46.55437" lon="-1.68261">
        <ele>29</ele>
        <time>2013-12-11T14:16:38Z</time>
      </trkpt>
      <trkpt lat="46.55441" lon="-1.68261">
        <ele>29</ele>
        <time>2013-12-11T14:16:42Z</time>
      </trkpt>
      <trkpt lat="46.55445" lon="-1.6826">
        <ele>29</ele>
        <time>2013-12-11T14:16:46Z</time>
      </trkpt>
      <trkpt lat="46.55448" lon="-1.6826">
        <ele>29</ele>
        <time>2013-12-11T14:16:49Z</time>
      </trkpt>
      <trkpt lat="46.55452" lon="-1.6826">
        <ele>29</ele>
        <time>2013-12-11T14:16:52Z</time>
      </trkpt>
      <trkpt lat="46.55456" lon="-1.68259">
        <ele>29</ele>
        <time>2013-12-11T14:16:56Z</time>
      </trkpt>
      <trkpt lat="46.55457" lon="-1.68259">
        <ele>29</ele>
        <time>2013-12-11T14:16:57Z</time>
      </trkpt>
      <trkpt lat="46.55464" lon="-1.68259">
        <ele>29</ele>
        <time>2013-12-11T14:17:02Z</time>
      </trkpt>
      <trkpt lat="46.55468" lon="-1.6826">
        <ele>29</ele>
        <time>2013-12-11T14:17:05Z</time>
      </trkpt>
      <trkpt lat="46.55472" lon="-1.6826">
        <ele>29</ele>
        <time>2013-12-11T14:17:08Z</time>
      </trkpt>
      <trkpt lat="46.55476" lon="-1.68261">
        <ele>29</ele>
        <time>2013-12-11T14:17:11Z</time>
      </trkpt>
      <trkpt lat="46.5548" lon="-1.68262">
        <ele>30</ele>
        <time>2013-12-11T14:17:14Z</time>
      </trkpt>
      <trkpt lat="46.55484" lon="-1.68263">
        <ele>30</ele>
        <time>2013-12-11T14:17:17Z</time>
      </trkpt>
      <trkpt lat="46.55488" lon="-1.68263">
        <ele>30</ele>
        <time>2013-12-11T14:17:20Z</time>
      </trkpt>
      <trkpt lat="46.55492" lon="-1.68263">
        <ele>30</ele>
        <time>2013-12-11T14:17:23Z</time>
      </trkpt>
      <trkpt lat="46.55495" lon="-1.68263">
        <ele>30</ele>
        <time>2013-12-11T14:17:26Z</time>
      </trkpt>
      <trkpt lat="46.55499" lon="-1.68264">
        <ele>30</ele>
        <time>2013-12-11T14:17:29Z</time>
      </trkpt>
      <trkpt lat="46.55503" lon="-1.68264">
        <ele>31</ele>
        <time>2013-12-11T14:17:33Z</time>
      </trkpt>
      <trkpt lat="46.55507" lon="-1.68264">
        <ele>31</ele>
        <time>2013-12-11T14:17:37Z</time>
      </trkpt>
      <trkpt lat="46.55511" lon="-1.68264">
        <ele>31</ele>
        <time>2013-12-11T14:17:41Z</time>
      </trkpt>
      <trkpt lat="46.55515" lon="-1.68264">
        <ele>31</ele>
        <time>2013-12-11T14:17:45Z</time>
      </trkpt>
      <trkpt lat="46.55518" lon="-1.68263">
        <ele>31</ele>
        <time>2013-12-11T14:17:49Z</time>
      </trkpt>
      <trkpt lat="46.55522" lon="-1.68263">
        <ele>31</ele>
        <time>2013-12-11T14:17:52Z</time>
      </trkpt>
      <trkpt lat="46.55525" lon="-1.68262">
        <ele>31</ele>
        <time>2013-12-11T14:17:55Z</time>
      </trkpt>
      <trkpt lat="46.5553" lon="-1.68262">
        <ele>30</ele>
        <time>2013-12-11T14:17:59Z</time>
      </trkpt>
      <trkpt lat="46.55531" lon="-1.68262">
        <ele>30</ele>
        <time>2013-12-11T14:18:00Z</time>
      </trkpt>
      <trkpt lat="46.55537" lon="-1.68262">
        <ele>30</ele>
        <time>2013-12-11T14:18:06Z</time>
      </trkpt>
      <trkpt lat="46.55541" lon="-1.68262">
        <ele>30</ele>
        <time>2013-12-11T14:18:10Z</time>
      </trkpt>
      <trkpt lat="46.55545" lon="-1.68262">
        <ele>30</ele>
        <time>2013-12-11T14:18:14Z</time>
      </trkpt>
      <trkpt lat="46.55549" lon="-1.68261">
        <ele>31</ele>
        <time>2013-12-11T14:18:18Z</time>
      </trkpt>
      <trkpt lat="46.55553" lon="-1.6826">
        <ele>31</ele>
        <time>2013-12-11T14:18:21Z</time>
      </trkpt>
      <trkpt lat="46.55557" lon="-1.6826">
        <ele>31</ele>
        <time>2013-12-11T14:18:24Z</time>
      </trkpt>
      <trkpt lat="46.5556" lon="-1.6826">
        <ele>31</ele>
        <time>2013-12-11T14:18:27Z</time>
      </trkpt>
      <trkpt lat="46.55564" lon="-1.68259">
        <ele>31</ele>
        <time>2013-12-11T14:18:30Z</time>
      </trkpt>
      <trkpt lat="46.55568" lon="-1.68259">
        <ele>31</ele>
        <time>2013-12-11T14:18:33Z</time>
      </trkpt>
      <trkpt lat="46.55571" lon="-1.68259">
        <ele>31</ele>
        <time>2013-12-11T14:18:36Z</time>
      </trkpt>
      <trkpt lat="46.55575" lon="-1.68258">
        <ele>31</ele>
        <time>2013-12-11T14:18:39Z</time>
      </trkpt>
      <trkpt lat="46.55578" lon="-1.68258">
        <ele>31</ele>
        <time>2013-12-11T14:18:42Z</time>
      </trkpt>
      <trkpt lat="46.55582" lon="-1.68258">
        <ele>31</ele>
        <time>2013-12-11T14:18:45Z</time>
      </trkpt>
      <trkpt lat="46.55586" lon="-1.68258">
        <ele>31</ele>
        <time>2013-12-11T14:18:49Z</time>
      </trkpt>
      <trkpt lat="46.55591" lon="-1.68257">
        <ele>31</ele>
        <time>2013-12-11T14:18:53Z</time>
      </trkpt>
      <trkpt lat="46.55594" lon="-1.68257">
        <ele>31</ele>
        <time>2013-12-11T14:18:56Z</time>
      </trkpt>
      <trkpt lat="46.55598" lon="-1.68257">
        <ele>31</ele>
        <time>2013-12-11T14:19:00Z</time>
      </trkpt>
      <trkpt lat="46.55599" lon="-1.68257">
        <ele>31</ele>
        <time>2013-12-11T14:19:01Z</time>
      </trkpt>
      <trkpt lat="46.55607" lon="-1.68256">
        <ele>31</ele>
        <time>2013-12-11T14:19:08Z</time>
      </trkpt>
      <trkpt lat="46.55611" lon="-1.68255">
        <ele>31</ele>
        <time>2013-12-11T14:19:12Z</time>
      </trkpt>
      <trkpt lat="46.55615" lon="-1.68255">
        <ele>31</ele>
        <time>2013-12-11T14:19:16Z</time>
      </trkpt>
      <trkpt lat="46.55619" lon="-1.68255">
        <ele>31</ele>
        <time>2013-12-11T14:19:20Z</time>
      </trkpt>
      <trkpt lat="46.55623" lon="-1.68254">
        <ele>31</ele>
        <time>2013-12-11T14:19:24Z</time>
      </trkpt>
      <trkpt lat="46.55627" lon="-1.68254">
        <ele>31</ele>
        <time>2013-12-11T14:19:28Z</time>
      </trkpt>
      <trkpt lat="46.55631" lon="-1.68253">
        <ele>31</ele>
        <time>2013-12-11T14:19:32Z</time>
      </trkpt>
      <trkpt lat="46.55635" lon="-1.68251">
        <ele>31</ele>
        <time>2013-12-11T14:19:36Z</time>
      </trkpt>
      <trkpt lat="46.55639" lon="-1.6825">
        <ele>31</ele>
        <time>2013-12-11T14:19:40Z</time>
      </trkpt>
      <trkpt lat="46.55643" lon="-1.6825">
        <ele>31</ele>
        <time>2013-12-11T14:19:44Z</time>
      </trkpt>
      <trkpt lat="46.55646" lon="-1.68249">
        <ele>31</ele>
        <time>2013-12-11T14:19:47Z</time>
      </trkpt>
      <trkpt lat="46.5565" lon="-1.68247">
        <ele>31</ele>
        <time>2013-12-11T14:19:50Z</time>
      </trkpt>
      <trkpt lat="46.55654" lon="-1.68247">
        <ele>31</ele>
        <time>2013-12-11T14:19:54Z</time>
      </trkpt>
      <trkpt lat="46.55659" lon="-1.68246">
        <ele>31</ele>
        <time>2013-12-11T14:19:58Z</time>
      </trkpt>
      <trkpt lat="46.55662" lon="-1.68245">
        <ele>31</ele>
        <time>2013-12-11T14:20:01Z</time>
      </trkpt>
      <trkpt lat="46.55663" lon="-1.68245">
        <ele>31</ele>
        <time>2013-12-11T14:20:02Z</time>
      </trkpt>
      <trkpt lat="46.55669" lon="-1.68243">
        <ele>31</ele>
        <time>2013-12-11T14:20:07Z</time>
      </trkpt>
      <trkpt lat="46.55672" lon="-1.68242">
        <ele>31</ele>
        <time>2013-12-11T14:20:10Z</time>
      </trkpt>
      <trkpt lat="46.55675" lon="-1.68241">
        <ele>32</ele>
        <time>2013-12-11T14:20:13Z</time>
      </trkpt>
      <trkpt lat="46.55679" lon="-1.6824">
        <ele>32</ele>
        <time>2013-12-11T14:20:16Z</time>
      </trkpt>
      <trkpt lat="46.55683" lon="-1.68239">
        <ele>32</ele>
        <time>2013-12-11T14:20:19Z</time>
      </trkpt>
      <trkpt lat="46.55686" lon="-1.68239">
        <ele>32</ele>
        <time>2013-12-11T14:20:22Z</time>
      </trkpt>
      <trkpt lat="46.5569" lon="-1.68238">
        <ele>32</ele>
        <time>2013-12-11T14:20:25Z</time>
      </trkpt>
      <trkpt lat="46.55693" lon="-1.68237">
        <ele>32</ele>
        <time>2013-12-11T14:20:28Z</time>
      </trkpt>
      <trkpt lat="46.55697" lon="-1.68236">
        <ele>32</ele>
        <time>2013-12-11T14:20:31Z</time>
      </trkpt>
      <trkpt lat="46.557" lon="-1.68236">
        <ele>32</ele>
        <time>2013-12-11T14:20:34Z</time>
      </trkpt>
      <trkpt lat="46.55705" lon="-1.68234">
        <ele>32</ele>
        <time>2013-12-11T14:20:38Z</time>
      </trkpt>
      <trkpt lat="46.55709" lon="-1.68234">
        <ele>32</ele>
        <time>2013-12-11T14:20:42Z</time>
      </trkpt>
      <trkpt lat="46.55713" lon="-1.68233">
        <ele>32</ele>
        <time>2013-12-11T14:20:46Z</time>
      </trkpt>
      <trkpt lat="46.55717" lon="-1.68232">
        <ele>33</ele>
        <time>2013-12-11T14:20:50Z</time>
      </trkpt>
      <trkpt lat="46.55722" lon="-1.68231">
        <ele>33</ele>
        <time>2013-12-11T14:20:54Z</time>
      </trkpt>
      <trkpt lat="46.55726" lon="-1.6823">
        <ele>33</ele>
        <time>2013-12-11T14:20:59Z</time>
      </trkpt>
      <trkpt lat="46.5573" lon="-1.68228">
        <ele>33</ele>
        <time>2013-12-11T14:21:03Z</time>
      </trkpt>
      <trkpt lat="46.55731" lon="-1.68228">
        <ele>33</ele>
        <time>2013-12-11T14:21:04Z</time>
      </trkpt>
      <trkpt lat="46.55737" lon="-1.68226">
        <ele>33</ele>
        <time>2013-12-11T14:21:11Z</time>
      </trkpt>
      <trkpt lat="46.55741" lon="-1.68225">
        <ele>33</ele>
        <time>2013-12-11T14:21:15Z</time>
      </trkpt>
      <trkpt lat="46.55744" lon="-1.68224">
        <ele>33</ele>
        <time>2013-12-11T14:21:18Z</time>
      </trkpt>
      <trkpt lat="46.55748" lon="-1.68223">
        <ele>33</ele>
        <time>2013-12-11T14:21:21Z</time>
      </trkpt>
      <trkpt lat="46.55751" lon="-1.68222">
        <ele>33</ele>
        <time>2013-12-11T14:21:24Z</time>
      </trkpt>
      <trkpt lat="46.55755" lon="-1.6822">
        <ele>34</ele>
        <time>2013-12-11T14:21:27Z</time>
      </trkpt>
      <trkpt lat="46.55758" lon="-1.68219">
        <ele>34</ele>
        <time>2013-12-11T14:21:30Z</time>
      </trkpt>
      <trkpt lat="46.55762" lon="-1.68218">
        <ele>34</ele>
        <time>2013-12-11T14:21:33Z</time>
      </trkpt>
      <trkpt lat="46.55766" lon="-1.68217">
        <ele>34</ele>
        <time>2013-12-11T14:21:37Z</time>
      </trkpt>
      <trkpt lat="46.55769" lon="-1.68216">
        <ele>34</ele>
        <time>2013-12-11T14:21:40Z</time>
      </trkpt>
      <trkpt lat="46.55773" lon="-1.68215">
        <ele>34</ele>
        <time>2013-12-11T14:21:43Z</time>
      </trkpt>
      <trkpt lat="46.55777" lon="-1.68214">
        <ele>34</ele>
        <time>2013-12-11T14:21:46Z</time>
      </trkpt>
      <trkpt lat="46.55781" lon="-1.68213">
        <ele>34</ele>
        <time>2013-12-11T14:21:49Z</time>
      </trkpt>
      <trkpt lat="46.55784" lon="-1.68212">
        <ele>34</ele>
        <time>2013-12-11T14:21:52Z</time>
      </trkpt>
      <trkpt lat="46.55788" lon="-1.68211">
        <ele>34</ele>
        <time>2013-12-11T14:21:55Z</time>
      </trkpt>
      <trkpt lat="46.55792" lon="-1.6821">
        <ele>33</ele>
        <time>2013-12-11T14:21:58Z</time>
      </trkpt>
      <trkpt lat="46.55795" lon="-1.68209">
        <ele>33</ele>
        <time>2013-12-11T14:22:01Z</time>
      </trkpt>
      <trkpt lat="46.55799" lon="-1.68208">
        <ele>33</ele>
        <time>2013-12-11T14:22:04Z</time>
      </trkpt>
      <trkpt lat="46.558" lon="-1.68208">
        <ele>33</ele>
        <time>2013-12-11T14:22:05Z</time>
      </trkpt>
      <trkpt lat="46.55806" lon="-1.68206">
        <ele>33</ele>
        <time>2013-12-11T14:22:11Z</time>
      </trkpt>
      <trkpt lat="46.55811" lon="-1.68205">
        <ele>33</ele>
        <time>2013-12-11T14:22:15Z</time>
      </trkpt>
      <trkpt lat="46.55814" lon="-1.68204">
        <ele>33</ele>
        <time>2013-12-11T14:22:18Z</time>
      </trkpt>
      <trkpt lat="46.55818" lon="-1.68202">
        <ele>33</ele>
        <time>2013-12-11T14:22:21Z</time>
      </trkpt>
      <trkpt lat="46.55822" lon="-1.68201">
        <ele>33</ele>
        <time>2013-12-11T14:22:25Z</time>
      </trkpt>
      <trkpt lat="46.55825" lon="-1.682">
        <ele>33</ele>
        <time>2013-12-11T14:22:28Z</time>
      </trkpt>
      <trkpt lat="46.5583" lon="-1.68199">
        <ele>33</ele>
        <time>2013-12-11T14:22:32Z</time>
      </trkpt>
      <trkpt lat="46.55833" lon="-1.68198">
        <ele>33</ele>
        <time>2013-12-11T14:22:35Z</time>
      </trkpt>
      <trkpt lat="46.55837" lon="-1.68197">
        <ele>33</ele>
        <time>2013-12-11T14:22:38Z</time>
      </trkpt>
      <trkpt lat="46.5584" lon="-1.68196">
        <ele>33</ele>
        <time>2013-12-11T14:22:41Z</time>
      </trkpt>
      <trkpt lat="46.55844" lon="-1.68195">
        <ele>33</ele>
        <time>2013-12-11T14:22:44Z</time>
      </trkpt>
      <trkpt lat="46.55847" lon="-1.68194">
        <ele>33</ele>
        <time>2013-12-11T14:22:47Z</time>
      </trkpt>
      <trkpt lat="46.55851" lon="-1.68193">
        <ele>33</ele>
        <time>2013-12-11T14:22:50Z</time>
      </trkpt>
      <trkpt lat="46.55854" lon="-1.68192">
        <ele>33</ele>
        <time>2013-12-11T14:22:53Z</time>
      </trkpt>
      <trkpt lat="46.55858" lon="-1.68191">
        <ele>33</ele>
        <time>2013-12-11T14:22:56Z</time>
      </trkpt>
      <trkpt lat="46.55861" lon="-1.68189">
        <ele>33</ele>
        <time>2013-12-11T14:22:59Z</time>
      </trkpt>
      <trkpt lat="46.55864" lon="-1.68187">
        <ele>33</ele>
        <time>2013-12-11T14:23:02Z</time>
      </trkpt>
      <trkpt lat="46.55867" lon="-1.68185">
        <ele>33</ele>
        <time>2013-12-11T14:23:05Z</time>
      </trkpt>
      <trkpt lat="46.55868" lon="-1.68185">
        <ele>33</ele>
        <time>2013-12-11T14:23:06Z</time>
      </trkpt>
      <trkpt lat="46.55875" lon="-1.6818">
        <ele>33</ele>
        <time>2013-12-11T14:23:13Z</time>
      </trkpt>
      <trkpt lat="46.55879" lon="-1.68177">
        <ele>33</ele>
        <time>2013-12-11T14:23:17Z</time>
      </trkpt>
      <trkpt lat="46.55883" lon="-1.68174">
        <ele>33</ele>
        <time>2013-12-11T14:23:21Z</time>
      </trkpt>
      <trkpt lat="46.55887" lon="-1.68171">
        <ele>33</ele>
        <time>2013-12-11T14:23:25Z</time>
      </trkpt>
      <trkpt lat="46.5589" lon="-1.68168">
        <ele>33</ele>
        <time>2013-12-11T14:23:29Z</time>
      </trkpt>
      <trkpt lat="46.55894" lon="-1.68165">
        <ele>33</ele>
        <time>2013-12-11T14:23:33Z</time>
      </trkpt>
      <trkpt lat="46.55898" lon="-1.68162">
        <ele>33</ele>
        <time>2013-12-11T14:23:37Z</time>
      </trkpt>
      <trkpt lat="46.55902" lon="-1.68159">
        <ele>33</ele>
        <time>2013-12-11T14:23:41Z</time>
      </trkpt>
      <trkpt lat="46.55905" lon="-1.68156">
        <ele>33</ele>
        <time>2013-12-11T14:23:45Z</time>
      </trkpt>
      <trkpt lat="46.55909" lon="-1.68153">
        <ele>33</ele>
        <time>2013-12-11T14:23:49Z</time>
      </trkpt>
      <trkpt lat="46.55912" lon="-1.6815">
        <ele>33</ele>
        <time>2013-12-11T14:23:52Z</time>
      </trkpt>
      <trkpt lat="46.55916" lon="-1.68147">
        <ele>33</ele>
        <time>2013-12-11T14:23:56Z</time>
      </trkpt>
      <trkpt lat="46.55919" lon="-1.68146">
        <ele>33</ele>
        <time>2013-12-11T14:23:59Z</time>
      </trkpt>
      <trkpt lat="46.55923" lon="-1.68143">
        <ele>33</ele>
        <time>2013-12-11T14:24:03Z</time>
      </trkpt>
      <trkpt lat="46.55927" lon="-1.6814">
        <ele>33</ele>
        <time>2013-12-11T14:24:07Z</time>
      </trkpt>
      <trkpt lat="46.55928" lon="-1.68139">
        <ele>33</ele>
        <time>2013-12-11T14:24:08Z</time>
      </trkpt>
      <trkpt lat="46.55934" lon="-1.68134">
        <ele>33</ele>
        <time>2013-12-11T14:24:15Z</time>
      </trkpt>
      <trkpt lat="46.55938" lon="-1.68131">
        <ele>33</ele>
        <time>2013-12-11T14:24:19Z</time>
      </trkpt>
      <trkpt lat="46.55942" lon="-1.68129">
        <ele>33</ele>
        <time>2013-12-11T14:24:23Z</time>
      </trkpt>
      <trkpt lat="46.55946" lon="-1.68126">
        <ele>33</ele>
        <time>2013-12-11T14:24:27Z</time>
      </trkpt>
      <trkpt lat="46.5595" lon="-1.68123">
        <ele>33</ele>
        <time>2013-12-11T14:24:31Z</time>
      </trkpt>
      <trkpt lat="46.55953" lon="-1.6812">
        <ele>33</ele>
        <time>2013-12-11T14:24:34Z</time>
      </trkpt>
      <trkpt lat="46.55956" lon="-1.68118">
        <ele>33</ele>
        <time>2013-12-11T14:24:37Z</time>
      </trkpt>
      <trkpt lat="46.5596" lon="-1.68115">
        <ele>32</ele>
        <time>2013-12-11T14:24:41Z</time>
      </trkpt>
      <trkpt lat="46.55963" lon="-1.68112">
        <ele>32</ele>
        <time>2013-12-11T14:24:45Z</time>
      </trkpt>
      <trkpt lat="46.55967" lon="-1.68109">
        <ele>32</ele>
        <time>2013-12-11T14:24:49Z</time>
      </trkpt>
      <trkpt lat="46.5597" lon="-1.68106">
        <ele>32</ele>
        <time>2013-12-11T14:24:53Z</time>
      </trkpt>
      <trkpt lat="46.55973" lon="-1.68102">
        <ele>32</ele>
        <time>2013-12-11T14:25:05Z</time>
      </trkpt>
      <trkpt lat="46.55978" lon="-1.68101">
        <ele>32</ele>
        <time>2013-12-11T14:25:44Z</time>
      </trkpt>
      <trkpt lat="46.55978" lon="-1.68101">
        <ele>32</ele>
        <time>2013-12-11T14:25:45Z</time>
      </trkpt>
      <trkpt lat="46.55976" lon="-1.68094">
        <ele>32</ele>
        <time>2013-12-11T14:28:52Z</time>
      </trkpt>
      <trkpt lat="46.55976" lon="-1.68093">
        <ele>32</ele>
        <time>2013-12-11T14:28:53Z</time>
      </trkpt>
      <trkpt lat="46.5597" lon="-1.68086">
        <ele>32</ele>
        <time>2013-12-11T14:29:09Z</time>
      </trkpt>
      <trkpt lat="46.55967" lon="-1.68081">
        <ele>32</ele>
        <time>2013-12-11T14:29:16Z</time>
      </trkpt>
      <trkpt lat="46.55964" lon="-1.68077">
        <ele>32</ele>
        <time>2013-12-11T14:29:22Z</time>
      </trkpt>
      <trkpt lat="46.55961" lon="-1.68074">
        <ele>32</ele>
        <time>2013-12-11T14:29:27Z</time>
      </trkpt>
      <trkpt lat="46.55957" lon="-1.6807">
        <ele>32</ele>
        <time>2013-12-11T14:29:32Z</time>
      </trkpt>
      <trkpt lat="46.55954" lon="-1.68067">
        <ele>32</ele>
        <time>2013-12-11T14:29:36Z</time>
      </trkpt>
      <trkpt lat="46.55951" lon="-1.68065">
        <ele>32</ele>
        <time>2013-12-11T14:29:39Z</time>
      </trkpt>
      <trkpt lat="46.55948" lon="-1.68062">
        <ele>33</ele>
        <time>2013-12-11T14:29:43Z</time>
      </trkpt>
      <trkpt lat="46.55944" lon="-1.68059">
        <ele>33</ele>
        <time>2013-12-11T14:29:47Z</time>
      </trkpt>
      <trkpt lat="46.55941" lon="-1.68054">
        <ele>33</ele>
        <time>2013-12-11T14:29:53Z</time>
      </trkpt>
      <trkpt lat="46.55941" lon="-1.68053">
        <ele>33</ele>
        <time>2013-12-11T14:29:54Z</time>
      </trkpt>
      <trkpt lat="46.55935" lon="-1.68047">
        <ele>33</ele>
        <time>2013-12-11T14:30:03Z</time>
      </trkpt>
      <trkpt lat="46.55932" lon="-1.68044">
        <ele>33</ele>
        <time>2013-12-11T14:30:08Z</time>
      </trkpt>
      <trkpt lat="46.55929" lon="-1.6804">
        <ele>33</ele>
        <time>2013-12-11T14:30:13Z</time>
      </trkpt>
      <trkpt lat="46.55925" lon="-1.68037">
        <ele>33</ele>
        <time>2013-12-11T14:30:17Z</time>
      </trkpt>
      <trkpt lat="46.55922" lon="-1.68033">
        <ele>33</ele>
        <time>2013-12-11T14:30:22Z</time>
      </trkpt>
      <trkpt lat="46.55918" lon="-1.68031">
        <ele>33</ele>
        <time>2013-12-11T14:30:26Z</time>
      </trkpt>
      <trkpt lat="46.55915" lon="-1.68027">
        <ele>33</ele>
        <time>2013-12-11T14:30:31Z</time>
      </trkpt>
      <trkpt lat="46.55911" lon="-1.68024">
        <ele>33</ele>
        <time>2013-12-11T14:30:36Z</time>
      </trkpt>
      <trkpt lat="46.55908" lon="-1.6802">
        <ele>33</ele>
        <time>2013-12-11T14:30:40Z</time>
      </trkpt>
      <trkpt lat="46.55905" lon="-1.68016">
        <ele>33</ele>
        <time>2013-12-11T14:30:44Z</time>
      </trkpt>
      <trkpt lat="46.55902" lon="-1.68013">
        <ele>33</ele>
        <time>2013-12-11T14:30:47Z</time>
      </trkpt>
      <trkpt lat="46.55899" lon="-1.6801">
        <ele>33</ele>
        <time>2013-12-11T14:30:51Z</time>
      </trkpt>
      <trkpt lat="46.55896" lon="-1.68007">
        <ele>33</ele>
        <time>2013-12-11T14:30:55Z</time>
      </trkpt>
      <trkpt lat="46.55895" lon="-1.68006">
        <ele>33</ele>
        <time>2013-12-11T14:30:56Z</time>
      </trkpt>
      <trkpt lat="46.55889" lon="-1.68002">
        <ele>33</ele>
        <time>2013-12-11T14:31:03Z</time>
      </trkpt>
      <trkpt lat="46.55886" lon="-1.67998">
        <ele>33</ele>
        <time>2013-12-11T14:31:08Z</time>
      </trkpt>
      <trkpt lat="46.55882" lon="-1.67995">
        <ele>33</ele>
        <time>2013-12-11T14:31:12Z</time>
      </trkpt>
      <trkpt lat="46.55879" lon="-1.67991">
        <ele>33</ele>
        <time>2013-12-11T14:31:17Z</time>
      </trkpt>
      <trkpt lat="46.55876" lon="-1.67989">
        <ele>33</ele>
        <time>2013-12-11T14:31:21Z</time>
      </trkpt>
      <trkpt lat="46.55873" lon="-1.67986">
        <ele>33</ele>
        <time>2013-12-11T14:31:25Z</time>
      </trkpt>
      <trkpt lat="46.5587" lon="-1.67983">
        <ele>33</ele>
        <time>2013-12-11T14:31:29Z</time>
      </trkpt>
      <trkpt lat="46.55867" lon="-1.67979">
        <ele>33</ele>
        <time>2013-12-11T14:31:33Z</time>
      </trkpt>
      <trkpt lat="46.55864" lon="-1.67975">
        <ele>33</ele>
        <time>2013-12-11T14:31:37Z</time>
      </trkpt>
      <trkpt lat="46.55861" lon="-1.67971">
        <ele>33</ele>
        <time>2013-12-11T14:31:41Z</time>
      </trkpt>
      <trkpt lat="46.55857" lon="-1.67967">
        <ele>33</ele>
        <time>2013-12-11T14:31:45Z</time>
      </trkpt>
      <trkpt lat="46.55854" lon="-1.67964">
        <ele>33</ele>
        <time>2013-12-11T14:31:49Z</time>
      </trkpt>
      <trkpt lat="46.5585" lon="-1.6796">
        <ele>33</ele>
        <time>2013-12-11T14:31:53Z</time>
      </trkpt>
      <trkpt lat="46.55847" lon="-1.67957">
        <ele>33</ele>
        <time>2013-12-11T14:31:57Z</time>
      </trkpt>
      <trkpt lat="46.55846" lon="-1.67956">
        <ele>33</ele>
        <time>2013-12-11T14:31:58Z</time>
      </trkpt>
      <trkpt lat="46.5584" lon="-1.6795">
        <ele>33</ele>
        <time>2013-12-11T14:32:05Z</time>
      </trkpt>
      <trkpt lat="46.55837" lon="-1.67946">
        <ele>33</ele>
        <time>2013-12-11T14:32:09Z</time>
      </trkpt>
      <trkpt lat="46.55834" lon="-1.67943">
        <ele>33</ele>
        <time>2013-12-11T14:32:13Z</time>
      </trkpt>
      <trkpt lat="46.55831" lon="-1.67938">
        <ele>34</ele>
        <time>2013-12-11T14:32:18Z</time>
      </trkpt>
      <trkpt lat="46.55828" lon="-1.67935">
        <ele>34</ele>
        <time>2013-12-11T14:32:23Z</time>
      </trkpt>
      <trkpt lat="46.55825" lon="-1.67931">
        <ele>34</ele>
        <time>2013-12-11T14:32:27Z</time>
      </trkpt>
      <trkpt lat="46.55822" lon="-1.67927">
        <ele>34</ele>
        <time>2013-12-11T14:32:31Z</time>
      </trkpt>
      <trkpt lat="46.55819" lon="-1.67924">
        <ele>34</ele>
        <time>2013-12-11T14:32:35Z</time>
      </trkpt>
      <trkpt lat="46.55816" lon="-1.6792">
        <ele>34</ele>
        <time>2013-12-11T14:32:39Z</time>
      </trkpt>
      <trkpt lat="46.55812" lon="-1.67917">
        <ele>34</ele>
        <time>2013-12-11T14:32:43Z</time>
      </trkpt>
      <trkpt lat="46.55809" lon="-1.67914">
        <ele>34</ele>
        <time>2013-12-11T14:32:47Z</time>
      </trkpt>
      <trkpt lat="46.55806" lon="-1.6791">
        <ele>34</ele>
        <time>2013-12-11T14:32:51Z</time>
      </trkpt>
      <trkpt lat="46.55803" lon="-1.67907">
        <ele>34</ele>
        <time>2013-12-11T14:32:55Z</time>
      </trkpt>
      <trkpt lat="46.55799" lon="-1.67903">
        <ele>34</ele>
        <time>2013-12-11T14:32:59Z</time>
      </trkpt>
      <trkpt lat="46.55798" lon="-1.67902">
        <ele>34</ele>
        <time>2013-12-11T14:33:00Z</time>
      </trkpt>
      <trkpt lat="46.55792" lon="-1.67897">
        <ele>34</ele>
        <time>2013-12-11T14:33:07Z</time>
      </trkpt>
      <trkpt lat="46.55789" lon="-1.67893">
        <ele>34</ele>
        <time>2013-12-11T14:33:11Z</time>
      </trkpt>
      <trkpt lat="46.55786" lon="-1.6789">
        <ele>34</ele>
        <time>2013-12-11T14:33:15Z</time>
      </trkpt>
      <trkpt lat="46.55782" lon="-1.67887">
        <ele>34</ele>
        <time>2013-12-11T14:33:19Z</time>
      </trkpt>
      <trkpt lat="46.5578" lon="-1.67883">
        <ele>34</ele>
        <time>2013-12-11T14:33:22Z</time>
      </trkpt>
      <trkpt lat="46.55776" lon="-1.6788">
        <ele>34</ele>
        <time>2013-12-11T14:33:26Z</time>
      </trkpt>
      <trkpt lat="46.55773" lon="-1.67877">
        <ele>34</ele>
        <time>2013-12-11T14:33:29Z</time>
      </trkpt>
      <trkpt lat="46.5577" lon="-1.67873">
        <ele>34</ele>
        <time>2013-12-11T14:33:33Z</time>
      </trkpt>
      <trkpt lat="46.55766" lon="-1.6787">
        <ele>34</ele>
        <time>2013-12-11T14:33:37Z</time>
      </trkpt>
      <trkpt lat="46.55763" lon="-1.67867">
        <ele>34</ele>
        <time>2013-12-11T14:33:40Z</time>
      </trkpt>
      <trkpt lat="46.5576" lon="-1.67863">
        <ele>34</ele>
        <time>2013-12-11T14:33:44Z</time>
      </trkpt>
      <trkpt lat="46.55757" lon="-1.67859">
        <ele>34</ele>
        <time>2013-12-11T14:33:48Z</time>
      </trkpt>
      <trkpt lat="46.55753" lon="-1.67856">
        <ele>33</ele>
        <time>2013-12-11T14:33:52Z</time>
      </trkpt>
      <trkpt lat="46.5575" lon="-1.67852">
        <ele>33</ele>
        <time>2013-12-11T14:33:56Z</time>
      </trkpt>
      <trkpt lat="46.55747" lon="-1.67849">
        <ele>33</ele>
        <time>2013-12-11T14:34:00Z</time>
      </trkpt>
      <trkpt lat="46.55747" lon="-1.67848">
        <ele>33</ele>
        <time>2013-12-11T14:34:01Z</time>
      </trkpt>
      <trkpt lat="46.5574" lon="-1.67845">
        <ele>33</ele>
        <time>2013-12-11T14:34:12Z</time>
      </trkpt>
      <trkpt lat="46.55736" lon="-1.67845">
        <ele>33</ele>
        <time>2013-12-11T14:34:16Z</time>
      </trkpt>
      <trkpt lat="46.55732" lon="-1.67846">
        <ele>33</ele>
        <time>2013-12-11T14:34:20Z</time>
      </trkpt>
      <trkpt lat="46.55728" lon="-1.67847">
        <ele>33</ele>
        <time>2013-12-11T14:34:24Z</time>
      </trkpt>
      <trkpt lat="46.55724" lon="-1.67847">
        <ele>33</ele>
        <time>2013-12-11T14:34:28Z</time>
      </trkpt>
      <trkpt lat="46.5572" lon="-1.67848">
        <ele>33</ele>
        <time>2013-12-11T14:34:32Z</time>
      </trkpt>
      <trkpt lat="46.55716" lon="-1.67849">
        <ele>33</ele>
        <time>2013-12-11T14:34:36Z</time>
      </trkpt>
      <trkpt lat="46.55712" lon="-1.67849">
        <ele>33</ele>
        <time>2013-12-11T14:34:40Z</time>
      </trkpt>
      <trkpt lat="46.55708" lon="-1.67849">
        <ele>33</ele>
        <time>2013-12-11T14:34:44Z</time>
      </trkpt>
      <trkpt lat="46.55704" lon="-1.67848">
        <ele>33</ele>
        <time>2013-12-11T14:34:48Z</time>
      </trkpt>
      <trkpt lat="46.55701" lon="-1.67847">
        <ele>33</ele>
        <time>2013-12-11T14:34:52Z</time>
      </trkpt>
      <trkpt lat="46.55697" lon="-1.67847">
        <ele>33</ele>
        <time>2013-12-11T14:34:56Z</time>
      </trkpt>
      <trkpt lat="46.55693" lon="-1.67846">
        <ele>33</ele>
        <time>2013-12-11T14:35:00Z</time>
      </trkpt>
      <trkpt lat="46.55689" lon="-1.67846">
        <ele>33</ele>
        <time>2013-12-11T14:35:03Z</time>
      </trkpt>
      <trkpt lat="46.55688" lon="-1.67845">
        <ele>33</ele>
        <time>2013-12-11T14:35:04Z</time>
      </trkpt>
      <trkpt lat="46.55681" lon="-1.67844">
        <ele>33</ele>
        <time>2013-12-11T14:35:11Z</time>
      </trkpt>
      <trkpt lat="46.55678" lon="-1.67843">
        <ele>33</ele>
        <time>2013-12-11T14:35:14Z</time>
      </trkpt>
      <trkpt lat="46.55673" lon="-1.67843">
        <ele>33</ele>
        <time>2013-12-11T14:35:18Z</time>
      </trkpt>
      <trkpt lat="46.55669" lon="-1.67842">
        <ele>33</ele>
        <time>2013-12-11T14:35:22Z</time>
      </trkpt>
      <trkpt lat="46.55665" lon="-1.67841">
        <ele>33</ele>
        <time>2013-12-11T14:35:26Z</time>
      </trkpt>
      <trkpt lat="46.55661" lon="-1.6784">
        <ele>33</ele>
        <time>2013-12-11T14:35:30Z</time>
      </trkpt>
      <trkpt lat="46.55657" lon="-1.6784">
        <ele>33</ele>
        <time>2013-12-11T14:35:34Z</time>
      </trkpt>
      <trkpt lat="46.55652" lon="-1.67839">
        <ele>32</ele>
        <time>2013-12-11T14:35:38Z</time>
      </trkpt>
      <trkpt lat="46.55649" lon="-1.67838">
        <ele>32</ele>
        <time>2013-12-11T14:35:41Z</time>
      </trkpt>
      <trkpt lat="46.55645" lon="-1.67837">
        <ele>32</ele>
        <time>2013-12-11T14:35:45Z</time>
      </trkpt>
      <trkpt lat="46.5564" lon="-1.67836">
        <ele>32</ele>
        <time>2013-12-11T14:35:49Z</time>
      </trkpt>
      <trkpt lat="46.55636" lon="-1.67835">
        <ele>32</ele>
        <time>2013-12-11T14:35:53Z</time>
      </trkpt>
      <trkpt lat="46.55632" lon="-1.67835">
        <ele>32</ele>
        <time>2013-12-11T14:35:57Z</time>
      </trkpt>
      <trkpt lat="46.55627" lon="-1.67834">
        <ele>32</ele>
        <time>2013-12-11T14:36:01Z</time>
      </trkpt>
      <trkpt lat="46.55623" lon="-1.67833">
        <ele>32</ele>
        <time>2013-12-11T14:36:05Z</time>
      </trkpt>
      <trkpt lat="46.55622" lon="-1.67833">
        <ele>32</ele>
        <time>2013-12-11T14:36:06Z</time>
      </trkpt>
      <trkpt lat="46.55615" lon="-1.67832">
        <ele>32</ele>
        <time>2013-12-11T14:36:12Z</time>
      </trkpt>
      <trkpt lat="46.55612" lon="-1.67831">
        <ele>31</ele>
        <time>2013-12-11T14:36:15Z</time>
      </trkpt>
      <trkpt lat="46.55608" lon="-1.67831">
        <ele>31</ele>
        <time>2013-12-11T14:36:19Z</time>
      </trkpt>
      <trkpt lat="46.55603" lon="-1.6783">
        <ele>31</ele>
        <time>2013-12-11T14:36:23Z</time>
      </trkpt>
      <trkpt lat="46.55599" lon="-1.67829">
        <ele>31</ele>
        <time>2013-12-11T14:36:27Z</time>
      </trkpt>
      <trkpt lat="46.55596" lon="-1.67829">
        <ele>31</ele>
        <time>2013-12-11T14:36:30Z</time>
      </trkpt>
      <trkpt lat="46.55592" lon="-1.67828">
        <ele>31</ele>
        <time>2013-12-11T14:36:34Z</time>
      </trkpt>
      <trkpt lat="46.55588" lon="-1.67827">
        <ele>31</ele>
        <time>2013-12-11T14:36:38Z</time>
      </trkpt>
      <trkpt lat="46.55584" lon="-1.67826">
        <ele>31</ele>
        <time>2013-12-11T14:36:42Z</time>
      </trkpt>
      <trkpt lat="46.55581" lon="-1.67825">
        <ele>31</ele>
        <time>2013-12-11T14:36:46Z</time>
      </trkpt>
      <trkpt lat="46.55577" lon="-1.67824">
        <ele>31</ele>
        <time>2013-12-11T14:36:50Z</time>
      </trkpt>
      <trkpt lat="46.55573" lon="-1.67823">
        <ele>31</ele>
        <time>2013-12-11T14:36:54Z</time>
      </trkpt>
      <trkpt lat="46.55569" lon="-1.67822">
        <ele>31</ele>
        <time>2013-12-11T14:36:58Z</time>
      </trkpt>
      <trkpt lat="46.55564" lon="-1.67821">
        <ele>31</ele>
        <time>2013-12-11T14:37:02Z</time>
      </trkpt>
      <trkpt lat="46.55561" lon="-1.6782">
        <ele>31</ele>
        <time>2013-12-11T14:37:05Z</time>
      </trkpt>
      <trkpt lat="46.55556" lon="-1.67818">
        <ele>31</ele>
        <time>2013-12-11T14:37:09Z</time>
      </trkpt>
      <trkpt lat="46.55555" lon="-1.67818">
        <ele>31</ele>
        <time>2013-12-11T14:37:10Z</time>
      </trkpt>
      <trkpt lat="46.55548" lon="-1.67816">
        <ele>31</ele>
        <time>2013-12-11T14:37:17Z</time>
      </trkpt>
      <trkpt lat="46.55544" lon="-1.67814">
        <ele>31</ele>
        <time>2013-12-11T14:37:21Z</time>
      </trkpt>
      <trkpt lat="46.55539" lon="-1.67813">
        <ele>31</ele>
        <time>2013-12-11T14:37:25Z</time>
      </trkpt>
      <trkpt lat="46.55536" lon="-1.67812">
        <ele>31</ele>
        <time>2013-12-11T14:37:28Z</time>
      </trkpt>
      <trkpt lat="46.55533" lon="-1.67811">
        <ele>31</ele>
        <time>2013-12-11T14:37:31Z</time>
      </trkpt>
      <trkpt lat="46.5553" lon="-1.67809">
        <ele>31</ele>
        <time>2013-12-11T14:37:34Z</time>
      </trkpt>
      <trkpt lat="46.55526" lon="-1.67808">
        <ele>31</ele>
        <time>2013-12-11T14:37:37Z</time>
      </trkpt>
      <trkpt lat="46.55523" lon="-1.67807">
        <ele>31</ele>
        <time>2013-12-11T14:37:40Z</time>
      </trkpt>
      <trkpt lat="46.55519" lon="-1.67804">
        <ele>31</ele>
        <time>2013-12-11T14:37:44Z</time>
      </trkpt>
      <trkpt lat="46.55515" lon="-1.67801">
        <ele>31</ele>
        <time>2013-12-11T14:37:48Z</time>
      </trkpt>
      <trkpt lat="46.55511" lon="-1.67798">
        <ele>31</ele>
        <time>2013-12-11T14:37:52Z</time>
      </trkpt>
      <trkpt lat="46.55507" lon="-1.67795">
        <ele>31</ele>
        <time>2013-12-11T14:37:56Z</time>
      </trkpt>
      <trkpt lat="46.55504" lon="-1.67791">
        <ele>30</ele>
        <time>2013-12-11T14:38:00Z</time>
      </trkpt>
      <trkpt lat="46.55501" lon="-1.67789">
        <ele>30</ele>
        <time>2013-12-11T14:38:03Z</time>
      </trkpt>
      <trkpt lat="46.55499" lon="-1.67785">
        <ele>30</ele>
        <time>2013-12-11T14:38:06Z</time>
      </trkpt>
      <trkpt lat="46.55496" lon="-1.67782">
        <ele>30</ele>
        <time>2013-12-11T14:38:09Z</time>
      </trkpt>
      <trkpt lat="46.55494" lon="-1.67779">
        <ele>30</ele>
        <time>2013-12-11T14:38:12Z</time>
      </trkpt>
      <trkpt lat="46.55493" lon="-1.67777">
        <ele>30</ele>
        <time>2013-12-11T14:38:13Z</time>
      </trkpt>
      <trkpt lat="46.55488" lon="-1.67771">
        <ele>30</ele>
        <time>2013-12-11T14:38:19Z</time>
      </trkpt>
      <trkpt lat="46.55485" lon="-1.67767">
        <ele>30</ele>
        <time>2013-12-11T14:38:23Z</time>
      </trkpt>
      <trkpt lat="46.55482" lon="-1.67763">
        <ele>30</ele>
        <time>2013-12-11T14:38:26Z</time>
      </trkpt>
      <trkpt lat="46.55479" lon="-1.6776">
        <ele>30</ele>
        <time>2013-12-11T14:38:29Z</time>
      </trkpt>
      <trkpt lat="46.55477" lon="-1.67758">
        <ele>30</ele>
        <time>2013-12-11T14:38:32Z</time>
      </trkpt>
      <trkpt lat="46.55474" lon="-1.67755">
        <ele>30</ele>
        <time>2013-12-11T14:38:35Z</time>
      </trkpt>
      <trkpt lat="46.5547" lon="-1.67753">
        <ele>30</ele>
        <time>2013-12-11T14:38:38Z</time>
      </trkpt>
      <trkpt lat="46.55466" lon="-1.67752">
        <ele>30</ele>
        <time>2013-12-11T14:38:42Z</time>
      </trkpt>
      <trkpt lat="46.55462" lon="-1.6775">
        <ele>30</ele>
        <time>2013-12-11T14:38:46Z</time>
      </trkpt>
      <trkpt lat="46.55458" lon="-1.67747">
        <ele>29</ele>
        <time>2013-12-11T14:38:50Z</time>
      </trkpt>
      <trkpt lat="46.55455" lon="-1.67744">
        <ele>29</ele>
        <time>2013-12-11T14:38:54Z</time>
      </trkpt>
      <trkpt lat="46.55451" lon="-1.67741">
        <ele>29</ele>
        <time>2013-12-11T14:39:10Z</time>
      </trkpt>
      <trkpt lat="46.55448" lon="-1.67739">
        <ele>29</ele>
        <time>2013-12-11T14:39:18Z</time>
      </trkpt>
      <trkpt lat="46.55447" lon="-1.67739">
        <ele>29</ele>
        <time>2013-12-11T14:39:19Z</time>
      </trkpt>
      <trkpt lat="46.55442" lon="-1.67733">
        <ele>29</ele>
        <time>2013-12-11T14:39:28Z</time>
      </trkpt>
      <trkpt lat="46.55438" lon="-1.6773">
        <ele>29</ele>
        <time>2013-12-11T14:39:32Z</time>
      </trkpt>
      <trkpt lat="46.55435" lon="-1.67727">
        <ele>29</ele>
        <time>2013-12-11T14:39:36Z</time>
      </trkpt>
      <trkpt lat="46.55432" lon="-1.67724">
        <ele>29</ele>
        <time>2013-12-11T14:39:40Z</time>
      </trkpt>
      <trkpt lat="46.55428" lon="-1.6772">
        <ele>29</ele>
        <time>2013-12-11T14:39:43Z</time>
      </trkpt>
      <trkpt lat="46.55426" lon="-1.67717">
        <ele>28</ele>
        <time>2013-12-11T14:39:46Z</time>
      </trkpt>
      <trkpt lat="46.55422" lon="-1.67713">
        <ele>28</ele>
        <time>2013-12-11T14:39:50Z</time>
      </trkpt>
      <trkpt lat="46.55419" lon="-1.6771">
        <ele>28</ele>
        <time>2013-12-11T14:39:54Z</time>
      </trkpt>
      <trkpt lat="46.55415" lon="-1.67706">
        <ele>28</ele>
        <time>2013-12-11T14:39:58Z</time>
      </trkpt>
      <trkpt lat="46.55412" lon="-1.67703">
        <ele>28</ele>
        <time>2013-12-11T14:40:02Z</time>
      </trkpt>
      <trkpt lat="46.55409" lon="-1.677">
        <ele>28</ele>
        <time>2013-12-11T14:40:06Z</time>
      </trkpt>
      <trkpt lat="46.55406" lon="-1.67695">
        <ele>28</ele>
        <time>2013-12-11T14:40:10Z</time>
      </trkpt>
      <trkpt lat="46.55403" lon="-1.6769">
        <ele>28</ele>
        <time>2013-12-11T14:40:14Z</time>
      </trkpt>
      <trkpt lat="46.55401" lon="-1.67686">
        <ele>28</ele>
        <time>2013-12-11T14:40:17Z</time>
      </trkpt>
      <trkpt lat="46.55398" lon="-1.67682">
        <ele>28</ele>
        <time>2013-12-11T14:40:21Z</time>
      </trkpt>
      <trkpt lat="46.55397" lon="-1.6768">
        <ele>28</ele>
        <time>2013-12-11T14:40:22Z</time>
      </trkpt>
      <trkpt lat="46.55394" lon="-1.67672">
        <ele>28</ele>
        <time>2013-12-11T14:40:30Z</time>
      </trkpt>
      <trkpt lat="46.55393" lon="-1.67667">
        <ele>27</ele>
        <time>2013-12-11T14:40:34Z</time>
      </trkpt>
      <trkpt lat="46.55391" lon="-1.67661">
        <ele>27</ele>
        <time>2013-12-11T14:40:38Z</time>
      </trkpt>
      <trkpt lat="46.5539" lon="-1.67657">
        <ele>27</ele>
        <time>2013-12-11T14:40:41Z</time>
      </trkpt>
      <trkpt lat="46.55389" lon="-1.67653">
        <ele>27</ele>
        <time>2013-12-11T14:40:44Z</time>
      </trkpt>
      <trkpt lat="46.55387" lon="-1.67647">
        <ele>27</ele>
        <time>2013-12-11T14:40:47Z</time>
      </trkpt>
      <trkpt lat="46.55386" lon="-1.67642">
        <ele>27</ele>
        <time>2013-12-11T14:40:50Z</time>
      </trkpt>
      <trkpt lat="46.55385" lon="-1.67636">
        <ele>27</ele>
        <time>2013-12-11T14:40:53Z</time>
      </trkpt>
      <trkpt lat="46.55384" lon="-1.67631">
        <ele>27</ele>
        <time>2013-12-11T14:40:56Z</time>
      </trkpt>
      <trkpt lat="46.55383" lon="-1.67626">
        <ele>27</ele>
        <time>2013-12-11T14:40:59Z</time>
      </trkpt>
      <trkpt lat="46.55382" lon="-1.6762">
        <ele>27</ele>
        <time>2013-12-11T14:41:03Z</time>
      </trkpt>
      <trkpt lat="46.55382" lon="-1.67613">
        <ele>27</ele>
        <time>2013-12-11T14:41:07Z</time>
      </trkpt>
      <trkpt lat="46.55381" lon="-1.67608">
        <ele>27</ele>
        <time>2013-12-11T14:41:10Z</time>
      </trkpt>
      <trkpt lat="46.5538" lon="-1.67603">
        <ele>27</ele>
        <time>2013-12-11T14:41:13Z</time>
      </trkpt>
      <trkpt lat="46.5538" lon="-1.67597">
        <ele>27</ele>
        <time>2013-12-11T14:41:17Z</time>
      </trkpt>
      <trkpt lat="46.5538" lon="-1.6759">
        <ele>27</ele>
        <time>2013-12-11T14:41:21Z</time>
      </trkpt>
      <trkpt lat="46.55381" lon="-1.67584">
        <ele>27</ele>
        <time>2013-12-11T14:41:25Z</time>
      </trkpt>
      <trkpt lat="46.55381" lon="-1.67582">
        <ele>27</ele>
        <time>2013-12-11T14:41:26Z</time>
      </trkpt>
      <trkpt lat="46.55381" lon="-1.67573">
        <ele>27</ele>
        <time>2013-12-11T14:41:32Z</time>
      </trkpt>
      <trkpt lat="46.55381" lon="-1.67568">
        <ele>27</ele>
        <time>2013-12-11T14:41:35Z</time>
      </trkpt>
      <trkpt lat="46.55381" lon="-1.67563">
        <ele>27</ele>
        <time>2013-12-11T14:41:38Z</time>
      </trkpt>
      <trkpt lat="46.5538" lon="-1.67557">
        <ele>27</ele>
        <time>2013-12-11T14:41:41Z</time>
      </trkpt>
      <trkpt lat="46.5538" lon="-1.67552">
        <ele>27</ele>
        <time>2013-12-11T14:41:44Z</time>
      </trkpt>
      <trkpt lat="46.55379" lon="-1.67547">
        <ele>27</ele>
        <time>2013-12-11T14:41:47Z</time>
      </trkpt>
      <trkpt lat="46.55379" lon="-1.67541">
        <ele>26</ele>
        <time>2013-12-11T14:41:51Z</time>
      </trkpt>
      <trkpt lat="46.55377" lon="-1.67535">
        <ele>26</ele>
        <time>2013-12-11T14:41:55Z</time>
      </trkpt>
      <trkpt lat="46.55376" lon="-1.6753">
        <ele>26</ele>
        <time>2013-12-11T14:41:59Z</time>
      </trkpt>
      <trkpt lat="46.55375" lon="-1.67526">
        <ele>26</ele>
        <time>2013-12-11T14:42:02Z</time>
      </trkpt>
      <trkpt lat="46.55373" lon="-1.6752">
        <ele>26</ele>
        <time>2013-12-11T14:42:06Z</time>
      </trkpt>
      <trkpt lat="46.55372" lon="-1.67514">
        <ele>26</ele>
        <time>2013-12-11T14:42:10Z</time>
      </trkpt>
      <trkpt lat="46.55371" lon="-1.6751">
        <ele>26</ele>
        <time>2013-12-11T14:42:13Z</time>
      </trkpt>
      <trkpt lat="46.55369" lon="-1.67504">
        <ele>26</ele>
        <time>2013-12-11T14:42:16Z</time>
      </trkpt>
      <trkpt lat="46.55367" lon="-1.67499">
        <ele>25</ele>
        <time>2013-12-11T14:42:19Z</time>
      </trkpt>
      <trkpt lat="46.55365" lon="-1.67494">
        <ele>25</ele>
        <time>2013-12-11T14:42:22Z</time>
      </trkpt>
      <trkpt lat="46.55362" lon="-1.67489">
        <ele>25</ele>
        <time>2013-12-11T14:42:25Z</time>
      </trkpt>
      <trkpt lat="46.5536" lon="-1.67484">
        <ele>25</ele>
        <time>2013-12-11T14:42:28Z</time>
      </trkpt>
      <trkpt lat="46.55359" lon="-1.67482">
        <ele>25</ele>
        <time>2013-12-11T14:42:29Z</time>
      </trkpt>
      <trkpt lat="46.55355" lon="-1.67475">
        <ele>25</ele>
        <time>2013-12-11T14:42:34Z</time>
      </trkpt>
      <trkpt lat="46.55353" lon="-1.67471">
        <ele>24</ele>
        <time>2013-12-11T14:42:37Z</time>
      </trkpt>
      <trkpt lat="46.5535" lon="-1.67466">
        <ele>24</ele>
        <time>2013-12-11T14:42:40Z</time>
      </trkpt>
      <trkpt lat="46.55348" lon="-1.67462">
        <ele>24</ele>
        <time>2013-12-11T14:42:43Z</time>
      </trkpt>
      <trkpt lat="46.55345" lon="-1.67458">
        <ele>24</ele>
        <time>2013-12-11T14:42:46Z</time>
      </trkpt>
      <trkpt lat="46.55343" lon="-1.67454">
        <ele>24</ele>
        <time>2013-12-11T14:42:49Z</time>
      </trkpt>
      <trkpt lat="46.55341" lon="-1.6745">
        <ele>24</ele>
        <time>2013-12-11T14:42:52Z</time>
      </trkpt>
      <trkpt lat="46.55339" lon="-1.67446">
        <ele>23</ele>
        <time>2013-12-11T14:42:55Z</time>
      </trkpt>
      <trkpt lat="46.55336" lon="-1.67442">
        <ele>23</ele>
        <time>2013-12-11T14:42:58Z</time>
      </trkpt>
      <trkpt lat="46.55334" lon="-1.67439">
        <ele>23</ele>
        <time>2013-12-11T14:43:01Z</time>
      </trkpt>
      <trkpt lat="46.55332" lon="-1.67435">
        <ele>22</ele>
        <time>2013-12-11T14:43:04Z</time>
      </trkpt>
      <trkpt lat="46.5533" lon="-1.6743">
        <ele>22</ele>
        <time>2013-12-11T14:43:07Z</time>
      </trkpt>
      <trkpt lat="46.55327" lon="-1.67425">
        <ele>22</ele>
        <time>2013-12-11T14:43:11Z</time>
      </trkpt>
      <trkpt lat="46.55325" lon="-1.67421">
        <ele>22</ele>
        <time>2013-12-11T14:43:15Z</time>
      </trkpt>
      <trkpt lat="46.55322" lon="-1.67416">
        <ele>21</ele>
        <time>2013-12-11T14:43:19Z</time>
      </trkpt>
      <trkpt lat="46.55319" lon="-1.67412">
        <ele>20</ele>
        <time>2013-12-11T14:43:22Z</time>
      </trkpt>
      <trkpt lat="46.55316" lon="-1.67408">
        <ele>20</ele>
        <time>2013-12-11T14:43:26Z</time>
      </trkpt>
      <trkpt lat="46.55314" lon="-1.67404">
        <ele>20</ele>
        <time>2013-12-11T14:43:29Z</time>
      </trkpt>
      <trkpt lat="46.55313" lon="-1.67403">
        <ele>20</ele>
        <time>2013-12-11T14:43:30Z</time>
      </trkpt>
      <trkpt lat="46.55308" lon="-1.67397">
        <ele>20</ele>
        <time>2013-12-11T14:43:36Z</time>
      </trkpt>
      <trkpt lat="46.55305" lon="-1.67394">
        <ele>20</ele>
        <time>2013-12-11T14:43:39Z</time>
      </trkpt>
      <trkpt lat="46.55301" lon="-1.6739">
        <ele>20</ele>
        <time>2013-12-11T14:43:43Z</time>
      </trkpt>
      <trkpt lat="46.55298" lon="-1.67387">
        <ele>20</ele>
        <time>2013-12-11T14:43:47Z</time>
      </trkpt>
      <trkpt lat="46.55295" lon="-1.67385">
        <ele>20</ele>
        <time>2013-12-11T14:43:50Z</time>
      </trkpt>
      <trkpt lat="46.55292" lon="-1.67382">
        <ele>20</ele>
        <time>2013-12-11T14:43:53Z</time>
      </trkpt>
      <trkpt lat="46.55289" lon="-1.67379">
        <ele>20</ele>
        <time>2013-12-11T14:43:56Z</time>
      </trkpt>
      <trkpt lat="46.55286" lon="-1.67377">
        <ele>20</ele>
        <time>2013-12-11T14:43:59Z</time>
      </trkpt>
      <trkpt lat="46.55283" lon="-1.67374">
        <ele>20</ele>
        <time>2013-12-11T14:44:02Z</time>
      </trkpt>
      <trkpt lat="46.55279" lon="-1.67371">
        <ele>20</ele>
        <time>2013-12-11T14:44:05Z</time>
      </trkpt>
      <trkpt lat="46.55277" lon="-1.67368">
        <ele>20</ele>
        <time>2013-12-11T14:44:08Z</time>
      </trkpt>
      <trkpt lat="46.55273" lon="-1.67365">
        <ele>20</ele>
        <time>2013-12-11T14:44:11Z</time>
      </trkpt>
      <trkpt lat="46.5527" lon="-1.67362">
        <ele>20</ele>
        <time>2013-12-11T14:44:14Z</time>
      </trkpt>
      <trkpt lat="46.55268" lon="-1.67358">
        <ele>20</ele>
        <time>2013-12-11T14:44:17Z</time>
      </trkpt>
      <trkpt lat="46.55265" lon="-1.67354">
        <ele>19</ele>
        <time>2013-12-11T14:44:20Z</time>
      </trkpt>
      <trkpt lat="46.55263" lon="-1.6735">
        <ele>19</ele>
        <time>2013-12-11T14:44:23Z</time>
      </trkpt>
      <trkpt lat="46.55261" lon="-1.67346">
        <ele>19</ele>
        <time>2013-12-11T14:44:26Z</time>
      </trkpt>
      <trkpt lat="46.55259" lon="-1.67341">
        <ele>19</ele>
        <time>2013-12-11T14:44:29Z</time>
      </trkpt>
      <trkpt lat="46.55257" lon="-1.67337">
        <ele>19</ele>
        <time>2013-12-11T14:44:32Z</time>
      </trkpt>
      <trkpt lat="46.55256" lon="-1.67336">
        <ele>19</ele>
        <time>2013-12-11T14:44:33Z</time>
      </trkpt>
      <trkpt lat="46.55253" lon="-1.67327">
        <ele>19</ele>
        <time>2013-12-11T14:44:39Z</time>
      </trkpt>
      <trkpt lat="46.55251" lon="-1.67321">
        <ele>18</ele>
        <time>2013-12-11T14:44:43Z</time>
      </trkpt>
      <trkpt lat="46.5525" lon="-1.67317">
        <ele>17</ele>
        <time>2013-12-11T14:44:46Z</time>
      </trkpt>
      <trkpt lat="46.55248" lon="-1.67312">
        <ele>17</ele>
        <time>2013-12-11T14:44:49Z</time>
      </trkpt>
      <trkpt lat="46.55246" lon="-1.67306">
        <ele>17</ele>
        <time>2013-12-11T14:44:53Z</time>
      </trkpt>
      <trkpt lat="46.55245" lon="-1.67302">
        <ele>17</ele>
        <time>2013-12-11T14:44:56Z</time>
      </trkpt>
      <trkpt lat="46.55243" lon="-1.67296">
        <ele>16</ele>
        <time>2013-12-11T14:45:00Z</time>
      </trkpt>
      <trkpt lat="46.55241" lon="-1.6729">
        <ele>16</ele>
        <time>2013-12-11T14:45:04Z</time>
      </trkpt>
      <trkpt lat="46.55239" lon="-1.67285">
        <ele>16</ele>
        <time>2013-12-11T14:45:08Z</time>
      </trkpt>
      <trkpt lat="46.55237" lon="-1.67279">
        <ele>16</ele>
        <time>2013-12-11T14:45:12Z</time>
      </trkpt>
      <trkpt lat="46.55236" lon="-1.67273">
        <ele>16</ele>
        <time>2013-12-11T14:45:16Z</time>
      </trkpt>
      <trkpt lat="46.55234" lon="-1.67268">
        <ele>16</ele>
        <time>2013-12-11T14:45:20Z</time>
      </trkpt>
      <trkpt lat="46.55232" lon="-1.67262">
        <ele>16</ele>
        <time>2013-12-11T14:45:24Z</time>
      </trkpt>
      <trkpt lat="46.5523" lon="-1.67257">
        <ele>16</ele>
        <time>2013-12-11T14:45:28Z</time>
      </trkpt>
      <trkpt lat="46.55228" lon="-1.67251">
        <ele>16</ele>
        <time>2013-12-11T14:45:32Z</time>
      </trkpt>
      <trkpt lat="46.55227" lon="-1.67246">
        <ele>14</ele>
        <time>2013-12-11T14:45:36Z</time>
      </trkpt>
      <trkpt lat="46.55226" lon="-1.67245">
        <ele>14</ele>
        <time>2013-12-11T14:45:37Z</time>
      </trkpt>
      <trkpt lat="46.55224" lon="-1.67234">
        <ele>14</ele>
        <time>2013-12-11T14:45:44Z</time>
      </trkpt>
      <trkpt lat="46.55222" lon="-1.67229">
        <ele>14</ele>
        <time>2013-12-11T14:45:48Z</time>
      </trkpt>
      <trkpt lat="46.55221" lon="-1.67224">
        <ele>14</ele>
        <time>2013-12-11T14:45:51Z</time>
      </trkpt>
      <trkpt lat="46.55219" lon="-1.6722">
        <ele>14</ele>
        <time>2013-12-11T14:45:54Z</time>
      </trkpt>
      <trkpt lat="46.55218" lon="-1.67215">
        <ele>14</ele>
        <time>2013-12-11T14:45:57Z</time>
      </trkpt>
      <trkpt lat="46.55216" lon="-1.6721">
        <ele>13</ele>
        <time>2013-12-11T14:46:00Z</time>
      </trkpt>
      <trkpt lat="46.55215" lon="-1.67206">
        <ele>13</ele>
        <time>2013-12-11T14:46:03Z</time>
      </trkpt>
      <trkpt lat="46.55213" lon="-1.672">
        <ele>13</ele>
        <time>2013-12-11T14:46:07Z</time>
      </trkpt>
      <trkpt lat="46.55211" lon="-1.67195">
        <ele>13</ele>
        <time>2013-12-11T14:46:10Z</time>
      </trkpt>
      <trkpt lat="46.5521" lon="-1.6719">
        <ele>13</ele>
        <time>2013-12-11T14:46:13Z</time>
      </trkpt>
      <trkpt lat="46.55208" lon="-1.67185">
        <ele>13</ele>
        <time>2013-12-11T14:46:16Z</time>
      </trkpt>
      <trkpt lat="46.55206" lon="-1.6718">
        <ele>13</ele>
        <time>2013-12-11T14:46:19Z</time>
      </trkpt>
      <trkpt lat="46.55205" lon="-1.67175">
        <ele>13</ele>
        <time>2013-12-11T14:46:22Z</time>
      </trkpt>
      <trkpt lat="46.55203" lon="-1.67171">
        <ele>13</ele>
        <time>2013-12-11T14:46:25Z</time>
      </trkpt>
      <trkpt lat="46.55202" lon="-1.67166">
        <ele>12</ele>
        <time>2013-12-11T14:46:28Z</time>
      </trkpt>
      <trkpt lat="46.552" lon="-1.67162">
        <ele>12</ele>
        <time>2013-12-11T14:46:31Z</time>
      </trkpt>
      <trkpt lat="46.55198" lon="-1.67157">
        <ele>12</ele>
        <time>2013-12-11T14:46:34Z</time>
      </trkpt>
      <trkpt lat="46.55197" lon="-1.67152">
        <ele>12</ele>
        <time>2013-12-11T14:46:37Z</time>
      </trkpt>
      <trkpt lat="46.55196" lon="-1.6715">
        <ele>12</ele>
        <time>2013-12-11T14:46:38Z</time>
      </trkpt>
      <trkpt lat="46.55194" lon="-1.67142">
        <ele>12</ele>
        <time>2013-12-11T14:46:43Z</time>
      </trkpt>
      <trkpt lat="46.55193" lon="-1.67137">
        <ele>12</ele>
        <time>2013-12-11T14:46:46Z</time>
      </trkpt>
      <trkpt lat="46.55191" lon="-1.67132">
        <ele>12</ele>
        <time>2013-12-11T14:46:49Z</time>
      </trkpt>
      <trkpt lat="46.5519" lon="-1.67126">
        <ele>12</ele>
        <time>2013-12-11T14:46:53Z</time>
      </trkpt>
      <trkpt lat="46.55188" lon="-1.6712">
        <ele>12</ele>
        <time>2013-12-11T14:46:57Z</time>
      </trkpt>
      <trkpt lat="46.55187" lon="-1.67115">
        <ele>12</ele>
        <time>2013-12-11T14:47:01Z</time>
      </trkpt>
      <trkpt lat="46.55186" lon="-1.67109">
        <ele>12</ele>
        <time>2013-12-11T14:47:05Z</time>
      </trkpt>
      <trkpt lat="46.55186" lon="-1.67103">
        <ele>12</ele>
        <time>2013-12-11T14:47:09Z</time>
      </trkpt>
      <trkpt lat="46.55186" lon="-1.67096">
        <ele>12</ele>
        <time>2013-12-11T14:47:13Z</time>
      </trkpt>
      <trkpt lat="46.55186" lon="-1.67091">
        <ele>12</ele>
        <time>2013-12-11T14:47:16Z</time>
      </trkpt>
      <trkpt lat="46.55186" lon="-1.67086">
        <ele>12</ele>
        <time>2013-12-11T14:47:19Z</time>
      </trkpt>
      <trkpt lat="46.55186" lon="-1.6708">
        <ele>12</ele>
        <time>2013-12-11T14:47:22Z</time>
      </trkpt>
      <trkpt lat="46.55187" lon="-1.67075">
        <ele>12</ele>
        <time>2013-12-11T14:47:25Z</time>
      </trkpt>
      <trkpt lat="46.55187" lon="-1.6707">
        <ele>12</ele>
        <time>2013-12-11T14:47:28Z</time>
      </trkpt>
      <trkpt lat="46.55188" lon="-1.67065">
        <ele>12</ele>
        <time>2013-12-11T14:47:31Z</time>
      </trkpt>
      <trkpt lat="46.55188" lon="-1.6706">
        <ele>12</ele>
        <time>2013-12-11T14:47:34Z</time>
      </trkpt>
      <trkpt lat="46.55189" lon="-1.67055">
        <ele>12</ele>
        <time>2013-12-11T14:47:37Z</time>
      </trkpt>
      <trkpt lat="46.55189" lon="-1.6705">
        <ele>12</ele>
        <time>2013-12-11T14:47:40Z</time>
      </trkpt>
      <trkpt lat="46.55189" lon="-1.67048">
        <ele>12</ele>
        <time>2013-12-11T14:47:41Z</time>
      </trkpt>
      <trkpt lat="46.5519" lon="-1.6704">
        <ele>12</ele>
        <time>2013-12-11T14:47:46Z</time>
      </trkpt>
      <trkpt lat="46.55191" lon="-1.67035">
        <ele>12</ele>
        <time>2013-12-11T14:47:49Z</time>
      </trkpt>
      <trkpt lat="46.55192" lon="-1.67029">
        <ele>12</ele>
        <time>2013-12-11T14:47:53Z</time>
      </trkpt>
      <trkpt lat="46.55192" lon="-1.67024">
        <ele>12</ele>
        <time>2013-12-11T14:47:56Z</time>
      </trkpt>
      <trkpt lat="46.55192" lon="-1.67018">
        <ele>12</ele>
        <time>2013-12-11T14:48:00Z</time>
      </trkpt>
      <trkpt lat="46.55193" lon="-1.67012">
        <ele>12</ele>
        <time>2013-12-11T14:48:04Z</time>
      </trkpt>
      <trkpt lat="46.55193" lon="-1.67006">
        <ele>12</ele>
        <time>2013-12-11T14:48:08Z</time>
      </trkpt>
      <trkpt lat="46.55194" lon="-1.67001">
        <ele>12</ele>
        <time>2013-12-11T14:48:11Z</time>
      </trkpt>
      <trkpt lat="46.55194" lon="-1.66994">
        <ele>12</ele>
        <time>2013-12-11T14:48:15Z</time>
      </trkpt>
      <trkpt lat="46.55195" lon="-1.6699">
        <ele>12</ele>
        <time>2013-12-11T14:48:18Z</time>
      </trkpt>
      <trkpt lat="46.55195" lon="-1.66984">
        <ele>12</ele>
        <time>2013-12-11T14:48:21Z</time>
      </trkpt>
      <trkpt lat="46.55196" lon="-1.66979">
        <ele>12</ele>
        <time>2013-12-11T14:48:24Z</time>
      </trkpt>
      <trkpt lat="46.55196" lon="-1.66975">
        <ele>12</ele>
        <time>2013-12-11T14:48:27Z</time>
      </trkpt>
      <trkpt lat="46.55197" lon="-1.66969">
        <ele>12</ele>
        <time>2013-12-11T14:48:30Z</time>
      </trkpt>
      <trkpt lat="46.55197" lon="-1.66964">
        <ele>12</ele>
        <time>2013-12-11T14:48:33Z</time>
      </trkpt>
      <trkpt lat="46.55198" lon="-1.66959">
        <ele>12</ele>
        <time>2013-12-11T14:48:36Z</time>
      </trkpt>
      <trkpt lat="46.55198" lon="-1.66954">
        <ele>12</ele>
        <time>2013-12-11T14:48:39Z</time>
      </trkpt>
      <trkpt lat="46.55199" lon="-1.66949">
        <ele>13</ele>
        <time>2013-12-11T14:48:42Z</time>
      </trkpt>
      <trkpt lat="46.55199" lon="-1.66947">
        <ele>13</ele>
        <time>2013-12-11T14:48:43Z</time>
      </trkpt>
      <trkpt lat="46.552" lon="-1.66938">
        <ele>13</ele>
        <time>2013-12-11T14:48:48Z</time>
      </trkpt>
      <trkpt lat="46.55201" lon="-1.66933">
        <ele>13</ele>
        <time>2013-12-11T14:48:51Z</time>
      </trkpt>
      <trkpt lat="46.55201" lon="-1.66928">
        <ele>13</ele>
        <time>2013-12-11T14:48:54Z</time>
      </trkpt>
      <trkpt lat="46.55201" lon="-1.66921">
        <ele>13</ele>
        <time>2013-12-11T14:48:58Z</time>
      </trkpt>
      <trkpt lat="46.55202" lon="-1.66916">
        <ele>12</ele>
        <time>2013-12-11T14:49:01Z</time>
      </trkpt>
      <trkpt lat="46.55202" lon="-1.6691">
        <ele>12</ele>
        <time>2013-12-11T14:49:05Z</time>
      </trkpt>
      <trkpt lat="46.55201" lon="-1.66904">
        <ele>12</ele>
        <time>2013-12-11T14:49:08Z</time>
      </trkpt>
      <trkpt lat="46.552" lon="-1.669">
        <ele>12</ele>
        <time>2013-12-11T14:49:11Z</time>
      </trkpt>
      <trkpt lat="46.55198" lon="-1.66896">
        <ele>12</ele>
        <time>2013-12-11T14:49:14Z</time>
      </trkpt>
      <trkpt lat="46.55195" lon="-1.66892">
        <ele>12</ele>
        <time>2013-12-11T14:49:18Z</time>
      </trkpt>
      <trkpt lat="46.55192" lon="-1.66889">
        <ele>12</ele>
        <time>2013-12-11T14:49:21Z</time>
      </trkpt>
      <trkpt lat="46.55188" lon="-1.66888">
        <ele>12</ele>
        <time>2013-12-11T14:49:25Z</time>
      </trkpt>
      <trkpt lat="46.55184" lon="-1.66886">
        <ele>12</ele>
        <time>2013-12-11T14:49:28Z</time>
      </trkpt>
      <trkpt lat="46.55181" lon="-1.66885">
        <ele>12</ele>
        <time>2013-12-11T14:49:31Z</time>
      </trkpt>
      <trkpt lat="46.55177" lon="-1.66884">
        <ele>12</ele>
        <time>2013-12-11T14:49:34Z</time>
      </trkpt>
      <trkpt lat="46.55173" lon="-1.66883">
        <ele>12</ele>
        <time>2013-12-11T14:49:37Z</time>
      </trkpt>
      <trkpt lat="46.55169" lon="-1.66882">
        <ele>12</ele>
        <time>2013-12-11T14:49:40Z</time>
      </trkpt>
      <trkpt lat="46.55166" lon="-1.66882">
        <ele>12</ele>
        <time>2013-12-11T14:49:43Z</time>
      </trkpt>
      <trkpt lat="46.55165" lon="-1.66881">
        <ele>12</ele>
        <time>2013-12-11T14:49:44Z</time>
      </trkpt>
      <trkpt lat="46.55159" lon="-1.6688">
        <ele>12</ele>
        <time>2013-12-11T14:49:49Z</time>
      </trkpt>
      <trkpt lat="46.55155" lon="-1.66879">
        <ele>12</ele>
        <time>2013-12-11T14:49:52Z</time>
      </trkpt>
      <trkpt lat="46.55151" lon="-1.66878">
        <ele>12</ele>
        <time>2013-12-11T14:49:56Z</time>
      </trkpt>
      <trkpt lat="46.55147" lon="-1.66877">
        <ele>12</ele>
        <time>2013-12-11T14:50:00Z</time>
      </trkpt>
      <trkpt lat="46.55143" lon="-1.66876">
        <ele>12</ele>
        <time>2013-12-11T14:50:04Z</time>
      </trkpt>
      <trkpt lat="46.55139" lon="-1.66876">
        <ele>12</ele>
        <time>2013-12-11T14:50:08Z</time>
      </trkpt>
      <trkpt lat="46.55135" lon="-1.66875">
        <ele>12</ele>
        <time>2013-12-11T14:50:12Z</time>
      </trkpt>
      <trkpt lat="46.55131" lon="-1.66875">
        <ele>12</ele>
        <time>2013-12-11T14:50:16Z</time>
      </trkpt>
      <trkpt lat="46.55127" lon="-1.66873">
        <ele>12</ele>
        <time>2013-12-11T14:50:20Z</time>
      </trkpt>
      <trkpt lat="46.55123" lon="-1.66871">
        <ele>12</ele>
        <time>2013-12-11T14:50:24Z</time>
      </trkpt>
      <trkpt lat="46.55119" lon="-1.6687">
        <ele>12</ele>
        <time>2013-12-11T14:50:28Z</time>
      </trkpt>
      <trkpt lat="46.55115" lon="-1.66869">
        <ele>12</ele>
        <time>2013-12-11T14:50:35Z</time>
      </trkpt>
      <trkpt lat="46.55111" lon="-1.66867">
        <ele>13</ele>
        <time>2013-12-11T14:50:47Z</time>
      </trkpt>
      <trkpt lat="46.55111" lon="-1.66867">
        <ele>13</ele>
        <time>2013-12-11T14:50:48Z</time>
      </trkpt>
      <trkpt lat="46.55106" lon="-1.66858">
        <ele>13</ele>
        <time>2013-12-11T14:51:14Z</time>
      </trkpt>
      <trkpt lat="46.55105" lon="-1.66853">
        <ele>13</ele>
        <time>2013-12-11T14:51:20Z</time>
      </trkpt>
      <trkpt lat="46.55103" lon="-1.66847">
        <ele>13</ele>
        <time>2013-12-11T14:51:25Z</time>
      </trkpt>
      <trkpt lat="46.55101" lon="-1.66842">
        <ele>13</ele>
        <time>2013-12-11T14:51:31Z</time>
      </trkpt>
      <trkpt lat="46.551" lon="-1.66836">
        <ele>13</ele>
        <time>2013-12-11T14:51:36Z</time>
      </trkpt>
      <trkpt lat="46.55099" lon="-1.6683">
        <ele>13</ele>
        <time>2013-12-11T14:51:41Z</time>
      </trkpt>
      <trkpt lat="46.55097" lon="-1.66825">
        <ele>13</ele>
        <time>2013-12-11T14:51:46Z</time>
      </trkpt>
      <trkpt lat="46.55095" lon="-1.66819">
        <ele>13</ele>
        <time>2013-12-11T14:51:51Z</time>
      </trkpt>
      <trkpt lat="46.55095" lon="-1.66818">
        <ele>13</ele>
        <time>2013-12-11T14:51:52Z</time>
      </trkpt>
      <trkpt lat="46.55091" lon="-1.66809">
        <ele>13</ele>
        <time>2013-12-11T14:52:01Z</time>
      </trkpt>
      <trkpt lat="46.55088" lon="-1.66805">
        <ele>13</ele>
        <time>2013-12-11T14:52:05Z</time>
      </trkpt>
      <trkpt lat="46.55085" lon="-1.668">
        <ele>13</ele>
        <time>2013-12-11T14:52:09Z</time>
      </trkpt>
      <trkpt lat="46.55082" lon="-1.66796">
        <ele>15</ele>
        <time>2013-12-11T14:52:13Z</time>
      </trkpt>
      <trkpt lat="46.55079" lon="-1.66793">
        <ele>15</ele>
        <time>2013-12-11T14:52:16Z</time>
      </trkpt>
      <trkpt lat="46.55076" lon="-1.66789">
        <ele>15</ele>
        <time>2013-12-11T14:52:20Z</time>
      </trkpt>
      <trkpt lat="46.55072" lon="-1.66786">
        <ele>15</ele>
        <time>2013-12-11T14:52:23Z</time>
      </trkpt>
      <trkpt lat="46.55069" lon="-1.66783">
        <ele>15</ele>
        <time>2013-12-11T14:52:26Z</time>
      </trkpt>
      <trkpt lat="46.55066" lon="-1.66779">
        <ele>15</ele>
        <time>2013-12-11T14:52:30Z</time>
      </trkpt>
      <trkpt lat="46.55062" lon="-1.66776">
        <ele>15</ele>
        <time>2013-12-11T14:52:33Z</time>
      </trkpt>
      <trkpt lat="46.55059" lon="-1.66773">
        <ele>16</ele>
        <time>2013-12-11T14:52:37Z</time>
      </trkpt>
      <trkpt lat="46.55056" lon="-1.6677">
        <ele>16</ele>
        <time>2013-12-11T14:52:40Z</time>
      </trkpt>
      <trkpt lat="46.55053" lon="-1.66766">
        <ele>16</ele>
        <time>2013-12-11T14:52:44Z</time>
      </trkpt>
      <trkpt lat="46.55049" lon="-1.66763">
        <ele>16</ele>
        <time>2013-12-11T14:52:48Z</time>
      </trkpt>
      <trkpt lat="46.55045" lon="-1.6676">
        <ele>16</ele>
        <time>2013-12-11T14:52:51Z</time>
      </trkpt>
      <trkpt lat="46.55042" lon="-1.66757">
        <ele>16</ele>
        <time>2013-12-11T14:52:55Z</time>
      </trkpt>
      <trkpt lat="46.55042" lon="-1.66755">
        <ele>16</ele>
        <time>2013-12-11T14:52:56Z</time>
      </trkpt>
      <trkpt lat="46.55035" lon="-1.6675">
        <ele>17</ele>
        <time>2013-12-11T14:53:03Z</time>
      </trkpt>
      <trkpt lat="46.55031" lon="-1.66748">
        <ele>17</ele>
        <time>2013-12-11T14:53:07Z</time>
      </trkpt>
      <trkpt lat="46.55028" lon="-1.66746">
        <ele>17</ele>
        <time>2013-12-11T14:53:10Z</time>
      </trkpt>
      <trkpt lat="46.55025" lon="-1.66744">
        <ele>17</ele>
        <time>2013-12-11T14:53:13Z</time>
      </trkpt>
      <trkpt lat="46.55021" lon="-1.66742">
        <ele>17</ele>
        <time>2013-12-11T14:53:17Z</time>
      </trkpt>
      <trkpt lat="46.55017" lon="-1.6674">
        <ele>17</ele>
        <time>2013-12-11T14:53:21Z</time>
      </trkpt>
      <trkpt lat="46.55014" lon="-1.66739">
        <ele>17</ele>
        <time>2013-12-11T14:53:25Z</time>
      </trkpt>
      <trkpt lat="46.5501" lon="-1.66737">
        <ele>17</ele>
        <time>2013-12-11T14:53:29Z</time>
      </trkpt>
      <trkpt lat="46.55006" lon="-1.66735">
        <ele>17</ele>
        <time>2013-12-11T14:53:33Z</time>
      </trkpt>
      <trkpt lat="46.55003" lon="-1.66734">
        <ele>17</ele>
        <time>2013-12-11T14:53:36Z</time>
      </trkpt>
      <trkpt lat="46.55" lon="-1.66732">
        <ele>19</ele>
        <time>2013-12-11T14:53:39Z</time>
      </trkpt>
      <trkpt lat="46.54995" lon="-1.6673">
        <ele>19</ele>
        <time>2013-12-11T14:53:43Z</time>
      </trkpt>
      <trkpt lat="46.54992" lon="-1.66729">
        <ele>19</ele>
        <time>2013-12-11T14:53:47Z</time>
      </trkpt>
      <trkpt lat="46.54988" lon="-1.66727">
        <ele>19</ele>
        <time>2013-12-11T14:53:51Z</time>
      </trkpt>
      <trkpt lat="46.54984" lon="-1.66725">
        <ele>19</ele>
        <time>2013-12-11T14:53:55Z</time>
      </trkpt>
      <trkpt lat="46.5498" lon="-1.66723">
        <ele>19</ele>
        <time>2013-12-11T14:53:58Z</time>
      </trkpt>
      <trkpt lat="46.54979" lon="-1.66723">
        <ele>19</ele>
        <time>2013-12-11T14:53:59Z</time>
      </trkpt>
      <trkpt lat="46.54973" lon="-1.66719">
        <ele>19</ele>
        <time>2013-12-11T14:54:05Z</time>
      </trkpt>
      <trkpt lat="46.54969" lon="-1.66717">
        <ele>20</ele>
        <time>2013-12-11T14:54:09Z</time>
      </trkpt>
      <trkpt lat="46.54965" lon="-1.66714">
        <ele>20</ele>
        <time>2013-12-11T14:54:13Z</time>
      </trkpt>
      <trkpt lat="46.54962" lon="-1.66712">
        <ele>20</ele>
        <time>2013-12-11T14:54:17Z</time>
      </trkpt>
      <trkpt lat="46.54958" lon="-1.6671">
        <ele>20</ele>
        <time>2013-12-11T14:54:21Z</time>
      </trkpt>
      <trkpt lat="46.54955" lon="-1.66708">
        <ele>20</ele>
        <time>2013-12-11T14:54:24Z</time>
      </trkpt>
      <trkpt lat="46.54951" lon="-1.66705">
        <ele>20</ele>
        <time>2013-12-11T14:54:28Z</time>
      </trkpt>
      <trkpt lat="46.54948" lon="-1.66703">
        <ele>20</ele>
        <time>2013-12-11T14:54:32Z</time>
      </trkpt>
      <trkpt lat="46.54944" lon="-1.667">
        <ele>20</ele>
        <time>2013-12-11T14:54:36Z</time>
      </trkpt>
      <trkpt lat="46.54941" lon="-1.66698">
        <ele>20</ele>
        <time>2013-12-11T14:54:40Z</time>
      </trkpt>
      <trkpt lat="46.54937" lon="-1.66696">
        <ele>20</ele>
        <time>2013-12-11T14:54:44Z</time>
      </trkpt>
      <trkpt lat="46.54933" lon="-1.66694">
        <ele>20</ele>
        <time>2013-12-11T14:54:48Z</time>
      </trkpt>
      <trkpt lat="46.5493" lon="-1.66692">
        <ele>20</ele>
        <time>2013-12-11T14:54:52Z</time>
      </trkpt>
      <trkpt lat="46.54926" lon="-1.6669">
        <ele>20</ele>
        <time>2013-12-11T14:54:56Z</time>
      </trkpt>
      <trkpt lat="46.54922" lon="-1.66688">
        <ele>20</ele>
        <time>2013-12-11T14:55:00Z</time>
      </trkpt>
      <trkpt lat="46.54921" lon="-1.66688">
        <ele>20</ele>
        <time>2013-12-11T14:55:01Z</time>
      </trkpt>
      <trkpt lat="46.54913" lon="-1.66685">
        <ele>22</ele>
        <time>2013-12-11T14:55:09Z</time>
      </trkpt>
      <trkpt lat="46.54909" lon="-1.66683">
        <ele>22</ele>
        <time>2013-12-11T14:55:13Z</time>
      </trkpt>
      <trkpt lat="46.54905" lon="-1.66681">
        <ele>22</ele>
        <time>2013-12-11T14:55:16Z</time>
      </trkpt>
      <trkpt lat="46.54901" lon="-1.6668">
        <ele>22</ele>
        <time>2013-12-11T14:55:20Z</time>
      </trkpt>
      <trkpt lat="46.54897" lon="-1.66679">
        <ele>22</ele>
        <time>2013-12-11T14:55:24Z</time>
      </trkpt>
      <trkpt lat="46.54893" lon="-1.66678">
        <ele>22</ele>
        <time>2013-12-11T14:55:27Z</time>
      </trkpt>
      <trkpt lat="46.54889" lon="-1.66677">
        <ele>22</ele>
        <time>2013-12-11T14:55:31Z</time>
      </trkpt>
      <trkpt lat="46.54886" lon="-1.66676">
        <ele>22</ele>
        <time>2013-12-11T14:55:35Z</time>
      </trkpt>
      <trkpt lat="46.54882" lon="-1.66676">
        <ele>22</ele>
        <time>2013-12-11T14:55:38Z</time>
      </trkpt>
      <trkpt lat="46.54878" lon="-1.66674">
        <ele>22</ele>
        <time>2013-12-11T14:55:42Z</time>
      </trkpt>
      <trkpt lat="46.54874" lon="-1.66673">
        <ele>22</ele>
        <time>2013-12-11T14:55:46Z</time>
      </trkpt>
      <trkpt lat="46.5487" lon="-1.66673">
        <ele>22</ele>
        <time>2013-12-11T14:55:49Z</time>
      </trkpt>
      <trkpt lat="46.54867" lon="-1.66672">
        <ele>22</ele>
        <time>2013-12-11T14:55:52Z</time>
      </trkpt>
      <trkpt lat="46.54863" lon="-1.66672">
        <ele>23</ele>
        <time>2013-12-11T14:55:56Z</time>
      </trkpt>
      <trkpt lat="46.54859" lon="-1.66672">
        <ele>23</ele>
        <time>2013-12-11T14:56:00Z</time>
      </trkpt>
      <trkpt lat="46.54855" lon="-1.66672">
        <ele>23</ele>
        <time>2013-12-11T14:56:03Z</time>
      </trkpt>
      <trkpt lat="46.54854" lon="-1.66672">
        <ele>23</ele>
        <time>2013-12-11T14:56:04Z</time>
      </trkpt>
      <trkpt lat="46.54847" lon="-1.66673">
        <ele>23</ele>
        <time>2013-12-11T14:56:11Z</time>
      </trkpt>
      <trkpt lat="46.54842" lon="-1.66674">
        <ele>23</ele>
        <time>2013-12-11T14:56:15Z</time>
      </trkpt>
      <trkpt lat="46.54839" lon="-1.66674">
        <ele>23</ele>
        <time>2013-12-11T14:56:18Z</time>
      </trkpt>
      <trkpt lat="46.54835" lon="-1.66675">
        <ele>23</ele>
        <time>2013-12-11T14:56:21Z</time>
      </trkpt>
      <trkpt lat="46.54831" lon="-1.66676">
        <ele>24</ele>
        <time>2013-12-11T14:56:24Z</time>
      </trkpt>
      <trkpt lat="46.54827" lon="-1.66677">
        <ele>24</ele>
        <time>2013-12-11T14:56:27Z</time>
      </trkpt>
      <trkpt lat="46.54823" lon="-1.66678">
        <ele>24</ele>
        <time>2013-12-11T14:56:30Z</time>
      </trkpt>
      <trkpt lat="46.54819" lon="-1.66678">
        <ele>23</ele>
        <time>2013-12-11T14:56:33Z</time>
      </trkpt>
      <trkpt lat="46.54815" lon="-1.66679">
        <ele>23</ele>
        <time>2013-12-11T14:56:36Z</time>
      </trkpt>
      <trkpt lat="46.54811" lon="-1.6668">
        <ele>23</ele>
        <time>2013-12-11T14:56:40Z</time>
      </trkpt>
      <trkpt lat="46.54807" lon="-1.6668">
        <ele>23</ele>
        <time>2013-12-11T14:56:44Z</time>
      </trkpt>
      <trkpt lat="46.54803" lon="-1.66681">
        <ele>23</ele>
        <time>2013-12-11T14:56:48Z</time>
      </trkpt>
      <trkpt lat="46.54799" lon="-1.66681">
        <ele>23</ele>
        <time>2013-12-11T14:56:52Z</time>
      </trkpt>
      <trkpt lat="46.54795" lon="-1.66682">
        <ele>23</ele>
        <time>2013-12-11T14:56:56Z</time>
      </trkpt>
      <trkpt lat="46.5479" lon="-1.66683">
        <ele>23</ele>
        <time>2013-12-11T14:57:00Z</time>
      </trkpt>
      <trkpt lat="46.54786" lon="-1.66684">
        <ele>23</ele>
        <time>2013-12-11T14:57:05Z</time>
      </trkpt>
      <trkpt lat="46.54785" lon="-1.66684">
        <ele>23</ele>
        <time>2013-12-11T14:57:06Z</time>
      </trkpt>
      <trkpt lat="46.54779" lon="-1.66685">
        <ele>23</ele>
        <time>2013-12-11T14:57:12Z</time>
      </trkpt>
      <trkpt lat="46.54775" lon="-1.66685">
        <ele>23</ele>
        <time>2013-12-11T14:57:15Z</time>
      </trkpt>
      <trkpt lat="46.54772" lon="-1.66685">
        <ele>23</ele>
        <time>2013-12-11T14:57:18Z</time>
      </trkpt>
      <trkpt lat="46.54768" lon="-1.66685">
        <ele>23</ele>
        <time>2013-12-11T14:57:21Z</time>
      </trkpt>
      <trkpt lat="46.54765" lon="-1.66684">
        <ele>23</ele>
        <time>2013-12-11T14:57:24Z</time>
      </trkpt>
      <trkpt lat="46.54761" lon="-1.66683">
        <ele>23</ele>
        <time>2013-12-11T14:57:27Z</time>
      </trkpt>
      <trkpt lat="46.54757" lon="-1.66683">
        <ele>23</ele>
        <time>2013-12-11T14:57:30Z</time>
      </trkpt>
      <trkpt lat="46.54753" lon="-1.66682">
        <ele>24</ele>
        <time>2013-12-11T14:57:33Z</time>
      </trkpt>
      <trkpt lat="46.5475" lon="-1.66682">
        <ele>23</ele>
        <time>2013-12-11T14:57:36Z</time>
      </trkpt>
      <trkpt lat="46.54746" lon="-1.66681">
        <ele>23</ele>
        <time>2013-12-11T14:57:39Z</time>
      </trkpt>
      <trkpt lat="46.54742" lon="-1.6668">
        <ele>23</ele>
        <time>2013-12-11T14:57:42Z</time>
      </trkpt>
      <trkpt lat="46.54739" lon="-1.6668">
        <ele>23</ele>
        <time>2013-12-11T14:57:45Z</time>
      </trkpt>
      <trkpt lat="46.54735" lon="-1.66679">
        <ele>23</ele>
        <time>2013-12-11T14:57:48Z</time>
      </trkpt>
      <trkpt lat="46.54732" lon="-1.66679">
        <ele>23</ele>
        <time>2013-12-11T14:57:51Z</time>
      </trkpt>
      <trkpt lat="46.54728" lon="-1.66679">
        <ele>23</ele>
        <time>2013-12-11T14:57:54Z</time>
      </trkpt>
      <trkpt lat="46.54725" lon="-1.66678">
        <ele>23</ele>
        <time>2013-12-11T14:57:57Z</time>
      </trkpt>
      <trkpt lat="46.54721" lon="-1.66678">
        <ele>23</ele>
        <time>2013-12-11T14:58:00Z</time>
      </trkpt>
      <trkpt lat="46.54718" lon="-1.66677">
        <ele>23</ele>
        <time>2013-12-11T14:58:03Z</time>
      </trkpt>
      <trkpt lat="46.54714" lon="-1.66676">
        <ele>23</ele>
        <time>2013-12-11T14:58:06Z</time>
      </trkpt>
      <trkpt lat="46.54713" lon="-1.66676">
        <ele>23</ele>
        <time>2013-12-11T14:58:07Z</time>
      </trkpt>
      <trkpt lat="46.54707" lon="-1.66674">
        <ele>22</ele>
        <time>2013-12-11T14:58:12Z</time>
      </trkpt>
      <trkpt lat="46.54704" lon="-1.66674">
        <ele>22</ele>
        <time>2013-12-11T14:58:15Z</time>
      </trkpt>
      <trkpt lat="46.547" lon="-1.66672">
        <ele>22</ele>
        <time>2013-12-11T14:58:18Z</time>
      </trkpt>
      <trkpt lat="46.54696" lon="-1.66671">
        <ele>22</ele>
        <time>2013-12-11T14:58:22Z</time>
      </trkpt>
      <trkpt lat="46.54693" lon="-1.6667">
        <ele>22</ele>
        <time>2013-12-11T14:58:25Z</time>
      </trkpt>
      <trkpt lat="46.54689" lon="-1.66669">
        <ele>22</ele>
        <time>2013-12-11T14:58:29Z</time>
      </trkpt>
      <trkpt lat="46.54685" lon="-1.6667">
        <ele>22</ele>
        <time>2013-12-11T14:58:34Z</time>
      </trkpt>
      <trkpt lat="46.54681" lon="-1.66674">
        <ele>22</ele>
        <time>2013-12-11T14:58:41Z</time>
      </trkpt>
      <trkpt lat="46.54679" lon="-1.66679">
        <ele>22</ele>
        <time>2013-12-11T14:58:46Z</time>
      </trkpt>
      <trkpt lat="46.54677" lon="-1.66683">
        <ele>22</ele>
        <time>2013-12-11T14:58:50Z</time>
      </trkpt>
      <trkpt lat="46.54675" lon="-1.66688">
        <ele>22</ele>
        <time>2013-12-11T14:58:54Z</time>
      </trkpt>
      <trkpt lat="46.54673" lon="-1.66693">
        <ele>22</ele>
        <time>2013-12-11T14:58:57Z</time>
      </trkpt>
      <trkpt lat="46.5467" lon="-1.66697">
        <ele>22</ele>
        <time>2013-12-11T14:59:01Z</time>
      </trkpt>
      <trkpt lat="46.54669" lon="-1.66702">
        <ele>22</ele>
        <time>2013-12-11T14:59:05Z</time>
      </trkpt>
      <trkpt lat="46.54667" lon="-1.66707">
        <ele>21</ele>
        <time>2013-12-11T14:59:09Z</time>
      </trkpt>
      <trkpt lat="46.54666" lon="-1.66709">
        <ele>21</ele>
        <time>2013-12-11T14:59:10Z</time>
      </trkpt>
      <trkpt lat="46.54663" lon="-1.66719">
        <ele>21</ele>
        <time>2013-12-11T14:59:18Z</time>
      </trkpt>
      <trkpt lat="46.5466" lon="-1.66724">
        <ele>21</ele>
        <time>2013-12-11T14:59:23Z</time>
      </trkpt>
      <trkpt lat="46.54658" lon="-1.66728">
        <ele>21</ele>
        <time>2013-12-11T14:59:27Z</time>
      </trkpt>
      <trkpt lat="46.54656" lon="-1.66733">
        <ele>21</ele>
        <time>2013-12-11T14:59:31Z</time>
      </trkpt>
      <trkpt lat="46.54653" lon="-1.66738">
        <ele>21</ele>
        <time>2013-12-11T14:59:35Z</time>
      </trkpt>
      <trkpt lat="46.54651" lon="-1.66743">
        <ele>21</ele>
        <time>2013-12-11T14:59:38Z</time>
      </trkpt>
      <trkpt lat="46.5465" lon="-1.66747">
        <ele>21</ele>
        <time>2013-12-11T14:59:41Z</time>
      </trkpt>
      <trkpt lat="46.54648" lon="-1.66752">
        <ele>20</ele>
        <time>2013-12-11T14:59:44Z</time>
      </trkpt>
      <trkpt lat="46.54646" lon="-1.66756">
        <ele>20</ele>
        <time>2013-12-11T14:59:47Z</time>
      </trkpt>
      <trkpt lat="46.54644" lon="-1.6676">
        <ele>20</ele>
        <time>2013-12-11T14:59:50Z</time>
      </trkpt>
      <trkpt lat="46.54642" lon="-1.66766">
        <ele>20</ele>
        <time>2013-12-11T14:59:54Z</time>
      </trkpt>
      <trkpt lat="46.54639" lon="-1.66771">
        <ele>20</ele>
        <time>2013-12-11T14:59:58Z</time>
      </trkpt>
      <trkpt lat="46.54637" lon="-1.66777">
        <ele>19</ele>
        <time>2013-12-11T15:00:02Z</time>
      </trkpt>
      <trkpt lat="46.54636" lon="-1.66783">
        <ele>19</ele>
        <time>2013-12-11T15:00:06Z</time>
      </trkpt>
      <trkpt lat="46.54634" lon="-1.66787">
        <ele>19</ele>
        <time>2013-12-11T15:00:09Z</time>
      </trkpt>
      <trkpt lat="46.54632" lon="-1.66791">
        <ele>19</ele>
        <time>2013-12-11T15:00:12Z</time>
      </trkpt>
      <trkpt lat="46.54631" lon="-1.66793">
        <ele>19</ele>
        <time>2013-12-11T15:00:13Z</time>
      </trkpt>
      <trkpt lat="46.54628" lon="-1.66801">
        <ele>19</ele>
        <time>2013-12-11T15:00:19Z</time>
      </trkpt>
      <trkpt lat="46.54627" lon="-1.66806">
        <ele>19</ele>
        <time>2013-12-11T15:00:22Z</time>
      </trkpt>
      <trkpt lat="46.54625" lon="-1.66812">
        <ele>19</ele>
        <time>2013-12-11T15:00:26Z</time>
      </trkpt>
      <trkpt lat="46.54623" lon="-1.66816">
        <ele>19</ele>
        <time>2013-12-11T15:00:29Z</time>
      </trkpt>
      <trkpt lat="46.54621" lon="-1.66822">
        <ele>19</ele>
        <time>2013-12-11T15:00:33Z</time>
      </trkpt>
      <trkpt lat="46.54619" lon="-1.66827">
        <ele>19</ele>
        <time>2013-12-11T15:00:37Z</time>
      </trkpt>
      <trkpt lat="46.54617" lon="-1.66832">
        <ele>19</ele>
        <time>2013-12-11T15:00:40Z</time>
      </trkpt>
      <trkpt lat="46.54615" lon="-1.66837">
        <ele>19</ele>
        <time>2013-12-11T15:00:44Z</time>
      </trkpt>
      <trkpt lat="46.54613" lon="-1.66843">
        <ele>19</ele>
        <time>2013-12-11T15:00:48Z</time>
      </trkpt>
      <trkpt lat="46.54611" lon="-1.66847">
        <ele>19</ele>
        <time>2013-12-11T15:00:51Z</time>
      </trkpt>
      <trkpt lat="46.54609" lon="-1.66852">
        <ele>19</ele>
        <time>2013-12-11T15:00:54Z</time>
      </trkpt>
      <trkpt lat="46.54607" lon="-1.66858">
        <ele>19</ele>
        <time>2013-12-11T15:00:57Z</time>
      </trkpt>
      <trkpt lat="46.54605" lon="-1.66863">
        <ele>19</ele>
        <time>2013-12-11T15:01:00Z</time>
      </trkpt>
      <trkpt lat="46.54603" lon="-1.66868">
        <ele>19</ele>
        <time>2013-12-11T15:01:03Z</time>
      </trkpt>
      <trkpt lat="46.54601" lon="-1.66873">
        <ele>20</ele>
        <time>2013-12-11T15:01:06Z</time>
      </trkpt>
      <trkpt lat="46.54599" lon="-1.66877">
        <ele>20</ele>
        <time>2013-12-11T15:01:09Z</time>
      </trkpt>
      <trkpt lat="46.54597" lon="-1.66881">
        <ele>20</ele>
        <time>2013-12-11T15:01:12Z</time>
      </trkpt>
      <trkpt lat="46.54595" lon="-1.66886">
        <ele>20</ele>
        <time>2013-12-11T15:01:15Z</time>
      </trkpt>
      <trkpt lat="46.54595" lon="-1.66888">
        <ele>20</ele>
        <time>2013-12-11T15:01:16Z</time>
      </trkpt>
      <trkpt lat="46.54592" lon="-1.66895">
        <ele>20</ele>
        <time>2013-12-11T15:01:21Z</time>
      </trkpt>
      <trkpt lat="46.5459" lon="-1.66899">
        <ele>21</ele>
        <time>2013-12-11T15:01:24Z</time>
      </trkpt>
      <trkpt lat="46.54588" lon="-1.66905">
        <ele>21</ele>
        <time>2013-12-11T15:01:28Z</time>
      </trkpt>
      <trkpt lat="46.54586" lon="-1.66909">
        <ele>21</ele>
        <time>2013-12-11T15:01:31Z</time>
      </trkpt>
      <trkpt lat="46.54585" lon="-1.66914">
        <ele>22</ele>
        <time>2013-12-11T15:01:34Z</time>
      </trkpt>
      <trkpt lat="46.54582" lon="-1.66919">
        <ele>22</ele>
        <time>2013-12-11T15:01:38Z</time>
      </trkpt>
      <trkpt lat="46.5458" lon="-1.66925">
        <ele>22</ele>
        <time>2013-12-11T15:01:42Z</time>
      </trkpt>
      <trkpt lat="46.54579" lon="-1.66931">
        <ele>23</ele>
        <time>2013-12-11T15:01:46Z</time>
      </trkpt>
      <trkpt lat="46.54577" lon="-1.66936">
        <ele>23</ele>
        <time>2013-12-11T15:01:50Z</time>
      </trkpt>
      <trkpt lat="46.54575" lon="-1.66942">
        <ele>23</ele>
        <time>2013-12-11T15:01:54Z</time>
      </trkpt>
      <trkpt lat="46.54573" lon="-1.66947">
        <ele>23</ele>
        <time>2013-12-11T15:01:58Z</time>
      </trkpt>
      <trkpt lat="46.54571" lon="-1.66952">
        <ele>23</ele>
        <time>2013-12-11T15:02:01Z</time>
      </trkpt>
      <trkpt lat="46.5457" lon="-1.66956">
        <ele>23</ele>
        <time>2013-12-11T15:02:04Z</time>
      </trkpt>
      <trkpt lat="46.54567" lon="-1.66961">
        <ele>23</ele>
        <time>2013-12-11T15:02:08Z</time>
      </trkpt>
      <trkpt lat="46.54565" lon="-1.66967">
        <ele>23</ele>
        <time>2013-12-11T15:02:12Z</time>
      </trkpt>
      <trkpt lat="46.54563" lon="-1.66971">
        <ele>24</ele>
        <time>2013-12-11T15:02:15Z</time>
      </trkpt>
      <trkpt lat="46.54561" lon="-1.66976">
        <ele>24</ele>
        <time>2013-12-11T15:02:18Z</time>
      </trkpt>
      <trkpt lat="46.54561" lon="-1.66977">
        <ele>24</ele>
        <time>2013-12-11T15:02:19Z</time>
      </trkpt>
      <trkpt lat="46.54557" lon="-1.66987">
        <ele>24</ele>
        <time>2013-12-11T15:02:26Z</time>
      </trkpt>
      <trkpt lat="46.54555" lon="-1.66992">
        <ele>24</ele>
        <time>2013-12-11T15:02:30Z</time>
      </trkpt>
      <trkpt lat="46.54553" lon="-1.66997">
        <ele>24</ele>
        <time>2013-12-11T15:02:33Z</time>
      </trkpt>
      <trkpt lat="46.54551" lon="-1.67002">
        <ele>25</ele>
        <time>2013-12-11T15:02:37Z</time>
      </trkpt>
      <trkpt lat="46.54549" lon="-1.67008">
        <ele>25</ele>
        <time>2013-12-11T15:02:41Z</time>
      </trkpt>
      <trkpt lat="46.54547" lon="-1.67012">
        <ele>25</ele>
        <time>2013-12-11T15:02:45Z</time>
      </trkpt>
      <trkpt lat="46.54545" lon="-1.67017">
        <ele>25</ele>
        <time>2013-12-11T15:02:50Z</time>
      </trkpt>
      <trkpt lat="46.54543" lon="-1.67022">
        <ele>25</ele>
        <time>2013-12-11T15:02:55Z</time>
      </trkpt>
      <trkpt lat="46.54542" lon="-1.67028">
        <ele>26</ele>
        <time>2013-12-11T15:03:01Z</time>
      </trkpt>
      <trkpt lat="46.54541" lon="-1.67035">
        <ele>26</ele>
        <time>2013-12-11T15:03:09Z</time>
      </trkpt>
      <trkpt lat="46.54539" lon="-1.67041">
        <ele>26</ele>
        <time>2013-12-11T15:03:14Z</time>
      </trkpt>
      <trkpt lat="46.54537" lon="-1.67046">
        <ele>26</ele>
        <time>2013-12-11T15:03:20Z</time>
      </trkpt>
      <trkpt lat="46.54536" lon="-1.67047">
        <ele>26</ele>
        <time>2013-12-11T15:03:21Z</time>
      </trkpt>
      <trkpt lat="46.54531" lon="-1.67056">
        <ele>26</ele>
        <time>2013-12-11T15:03:32Z</time>
      </trkpt>
      <trkpt lat="46.5453" lon="-1.67061">
        <ele>26</ele>
        <time>2013-12-11T15:03:37Z</time>
      </trkpt>
      <trkpt lat="46.54529" lon="-1.67067">
        <ele>26</ele>
        <time>2013-12-11T15:03:41Z</time>
      </trkpt>
      <trkpt lat="46.54528" lon="-1.67072">
        <ele>26</ele>
        <time>2013-12-11T15:03:45Z</time>
      </trkpt>
      <trkpt lat="46.54527" lon="-1.67078">
        <ele>27</ele>
        <time>2013-12-11T15:03:52Z</time>
      </trkpt>
      <trkpt lat="46.54525" lon="-1.67084">
        <ele>27</ele>
        <time>2013-12-11T15:03:56Z</time>
      </trkpt>
      <trkpt lat="46.54525" lon="-1.67089">
        <ele>27</ele>
        <time>2013-12-11T15:04:00Z</time>
      </trkpt>
      <trkpt lat="46.54524" lon="-1.67095">
        <ele>27</ele>
        <time>2013-12-11T15:04:04Z</time>
      </trkpt>
      <trkpt lat="46.54523" lon="-1.67101">
        <ele>27</ele>
        <time>2013-12-11T15:04:08Z</time>
      </trkpt>
      <trkpt lat="46.54522" lon="-1.67107">
        <ele>27</ele>
        <time>2013-12-11T15:04:12Z</time>
      </trkpt>
      <trkpt lat="46.54522" lon="-1.67113">
        <ele>27</ele>
        <time>2013-12-11T15:04:16Z</time>
      </trkpt>
      <trkpt lat="46.54521" lon="-1.67118">
        <ele>27</ele>
        <time>2013-12-11T15:04:19Z</time>
      </trkpt>
      <trkpt lat="46.54521" lon="-1.67123">
        <ele>27</ele>
        <time>2013-12-11T15:04:22Z</time>
      </trkpt>
      <trkpt lat="46.54521" lon="-1.67125">
        <ele>27</ele>
        <time>2013-12-11T15:04:23Z</time>
      </trkpt>
      <trkpt lat="46.5452" lon="-1.67135">
        <ele>27</ele>
        <time>2013-12-11T15:04:29Z</time>
      </trkpt>
      <trkpt lat="46.5452" lon="-1.67141">
        <ele>27</ele>
        <time>2013-12-11T15:04:33Z</time>
      </trkpt>
      <trkpt lat="46.5452" lon="-1.67147">
        <ele>27</ele>
        <time>2013-12-11T15:04:37Z</time>
      </trkpt>
      <trkpt lat="46.54519" lon="-1.67152">
        <ele>27</ele>
        <time>2013-12-11T15:04:41Z</time>
      </trkpt>
      <trkpt lat="46.54519" lon="-1.67157">
        <ele>27</ele>
        <time>2013-12-11T15:04:44Z</time>
      </trkpt>
      <trkpt lat="46.54518" lon="-1.67162">
        <ele>27</ele>
        <time>2013-12-11T15:04:47Z</time>
      </trkpt>
      <trkpt lat="46.54517" lon="-1.67167">
        <ele>27</ele>
        <time>2013-12-11T15:04:50Z</time>
      </trkpt>
      <trkpt lat="46.54517" lon="-1.67174">
        <ele>27</ele>
        <time>2013-12-11T15:04:54Z</time>
      </trkpt>
      <trkpt lat="46.54517" lon="-1.67179">
        <ele>27</ele>
        <time>2013-12-11T15:04:57Z</time>
      </trkpt>
      <trkpt lat="46.54517" lon="-1.67184">
        <ele>27</ele>
        <time>2013-12-11T15:05:00Z</time>
      </trkpt>
      <trkpt lat="46.54518" lon="-1.6719">
        <ele>27</ele>
        <time>2013-12-11T15:05:04Z</time>
      </trkpt>
      <trkpt lat="46.54519" lon="-1.67196">
        <ele>27</ele>
        <time>2013-12-11T15:05:08Z</time>
      </trkpt>
      <trkpt lat="46.54521" lon="-1.67201">
        <ele>27</ele>
        <time>2013-12-11T15:05:12Z</time>
      </trkpt>
      <trkpt lat="46.54523" lon="-1.67205">
        <ele>26</ele>
        <time>2013-12-11T15:05:16Z</time>
      </trkpt>
      <trkpt lat="46.54526" lon="-1.6721">
        <ele>26</ele>
        <time>2013-12-11T15:05:21Z</time>
      </trkpt>
      <trkpt lat="46.54528" lon="-1.67215">
        <ele>26</ele>
        <time>2013-12-11T15:05:25Z</time>
      </trkpt>
      <trkpt lat="46.54529" lon="-1.67216">
        <ele>26</ele>
        <time>2013-12-11T15:05:26Z</time>
      </trkpt>
      <trkpt lat="46.54532" lon="-1.67224">
        <ele>26</ele>
        <time>2013-12-11T15:05:32Z</time>
      </trkpt>
      <trkpt lat="46.54533" lon="-1.67229">
        <ele>26</ele>
        <time>2013-12-11T15:05:35Z</time>
      </trkpt>
      <trkpt lat="46.54534" lon="-1.67235">
        <ele>26</ele>
        <time>2013-12-11T15:05:39Z</time>
      </trkpt>
      <trkpt lat="46.54536" lon="-1.67241">
        <ele>26</ele>
        <time>2013-12-11T15:05:44Z</time>
      </trkpt>
      <trkpt lat="46.54537" lon="-1.67242">
        <ele>26</ele>
        <time>2013-12-11T15:05:49Z</time>
      </trkpt>
      <trkpt lat="46.54537" lon="-1.67242">
        <ele>26</ele>
        <time>2013-12-11T15:05:49Z</time>
      </trkpt>
    </trkseg>
  </trk>
</gpx>